
Distance (Route):
Temperature : 0°C
Humidity : 0%
Pressure : 0hPa| Receiver | Frames | First received | Last received |
|---|---|---|---|
| SQ6EMJ | 584 | 2026-08-30 11:31:54 | 2026-08-30 13:20:10 |
| KRY50SP | 354 | 2026-08-30 11:39:32 | 2026-08-30 13:13:16 |
| POL1PZ | 226 | 2026-08-30 11:25:55 | 2026-08-30 13:24:28 |
| PETON7-10 | 69 | 2026-08-30 12:21:10 | 2026-08-30 12:39:48 |
| SP3BTT-10 | 46 | 2026-08-30 11:47:32 | 2026-08-30 12:39:44 |
| SP6BVK | 34 | 2026-08-30 13:11:17 | 2026-08-30 13:24:01 |
| OM5KV | 26 | 2026-08-30 12:28:10 | 2026-08-30 12:31:49 |
| OE5DRO-10 | 17 | 2026-08-30 12:19:38 | 2026-08-30 12:36:07 |
| Receiver | Date | Latitude | Longitude | Direction | Speed | Altitude | Climb | Temperature | Humidity | Pressure | Voltage | Killtimer | Uptime | BKT | XDATA |
|---|---|---|---|---|---|---|---|---|---|---|---|---|---|---|---|
| POL1PZ | 2026-08-30 13:24:28 | 51.26122 | 17.89858 | 78° | 42km/h | 3481m | -12.9m/s | 0°C | 0% | 0hPa | 0V | 00:00:00 | 00:00:00 | 00:00:00 | |
| POL1PZ | 2026-08-30 13:24:08 | 51.26073 | 17.89458 | 81° | 53km/h | 3723m | -11.0m/s | 0°C | 0% | 0hPa | 0V | 00:00:00 | 00:00:00 | 00:00:00 | |
| SP6BVK | 2026-08-30 13:24:01 | 51.26053 | 17.89310 | 78° | 57km/h | 3806m | -11.4m/s | 0°C | 0% | 0hPa | 0V | 00:00:00 | 00:00:00 | 00:00:00 | |
| POL1PZ | 2026-08-30 13:23:47 | 51.26009 | 17.89021 | 78° | 53km/h | 3970m | -13.0m/s | 0°C | 0% | 0hPa | 0V | 00:00:00 | 00:00:00 | 00:00:00 | |
| POL1PZ | 2026-08-30 13:23:26 | 51.25944 | 17.88597 | 80° | 49km/h | 4211m | -11.4m/s | 0°C | 0% | 0hPa | 0V | 00:00:00 | 00:00:00 | 00:00:00 | |
| SP6BVK | 2026-08-30 13:23:24 | 51.25940 | 17.88560 | 79° | 44km/h | 4235m | -11.8m/s | 0°C | 0% | 0hPa | 0V | 00:00:00 | 00:00:00 | 00:00:00 | |
| POL1PZ | 2026-08-30 13:23:06 | 51.25893 | 17.88231 | 76° | 47km/h | 4443m | -11.1m/s | 0°C | 0% | 0hPa | 0V | 00:00:00 | 00:00:00 | 00:00:00 | |
| SP6BVK | 2026-08-30 13:23:03 | 51.25884 | 17.88178 | 73° | 44km/h | 4478m | -11.9m/s | 0°C | 0% | 0hPa | 0V | 00:00:00 | 00:00:00 | 00:00:00 | |
| POL1PZ | 2026-08-30 13:22:45 | 51.25824 | 17.87865 | 76° | 47km/h | 4692m | -11.5m/s | 0°C | 0% | 0hPa | 0V | 00:00:00 | 00:00:00 | 00:00:00 | |
| SP6BVK | 2026-08-30 13:22:42 | 51.25814 | 17.87812 | 74° | 49km/h | 4726m | -10.5m/s | 0°C | 0% | 0hPa | 0V | 00:00:00 | 00:00:00 | 00:00:00 | |
| POL1PZ | 2026-08-30 13:22:24 | 51.25747 | 17.87448 | 73° | 53km/h | 4933m | -11.9m/s | 0°C | 0% | 0hPa | 0V | 00:00:00 | 00:00:00 | 00:00:00 | |
| SP6BVK | 2026-08-30 13:22:21 | 51.25734 | 17.87384 | 76° | 58km/h | 4970m | -11.6m/s | 0°C | 0% | 0hPa | 0V | 00:00:00 | 00:00:00 | 00:00:00 | |
| POL1PZ | 2026-08-30 13:22:03 | 51.25672 | 17.86988 | 80° | 58km/h | 5185m | -11.3m/s | 0°C | 0% | 0hPa | 0V | 00:00:00 | 00:00:00 | 00:00:00 | |
| SP6BVK | 2026-08-30 13:22:01 | 51.25666 | 17.86945 | 77° | 51km/h | 5208m | -13.0m/s | 0°C | 0% | 0hPa | 0V | 00:00:00 | 00:00:00 | 00:00:00 | |
| POL1PZ | 2026-08-30 13:21:43 | 51.25593 | 17.86601 | 68° | 46km/h | 5428m | -11.3m/s | 0°C | 0% | 0hPa | 0V | 00:00:00 | 00:00:00 | 00:00:00 | |
| SP6BVK | 2026-08-30 13:21:40 | 51.25582 | 17.86548 | 75° | 47km/h | 5463m | -11.3m/s | 0°C | 0% | 0hPa | 0V | 00:00:00 | 00:00:00 | 00:00:00 | |
| POL1PZ | 2026-08-30 13:21:22 | 51.25525 | 17.86253 | 78° | 42km/h | 5686m | -12.6m/s | 0°C | 0% | 0hPa | 0V | 00:00:00 | 00:00:00 | 00:00:00 | |
| SP6BVK | 2026-08-30 13:21:20 | 51.25520 | 17.86221 | 79° | 42km/h | 5711m | -9.9m/s | 0°C | 0% | 0hPa | 0V | 00:00:00 | 00:00:00 | 00:00:00 | |
| POL1PZ | 2026-08-30 13:21:01 | 51.25471 | 17.85901 | 82° | 42km/h | 5939m | -12.4m/s | 0°C | 0% | 0hPa | 0V | 00:00:00 | 00:00:00 | 00:00:00 | |
| SP6BVK | 2026-08-30 13:20:58 | 51.25464 | 17.85854 | 73° | 38km/h | 5976m | -11.4m/s | 0°C | 0% | 0hPa | 0V | 00:00:00 | 00:00:00 | 00:00:00 | |
| POL1PZ | 2026-08-30 13:20:40 | 51.25418 | 17.85563 | 77° | 44km/h | 6194m | -11.9m/s | 0°C | 0% | 0hPa | 0V | 00:00:00 | 00:00:00 | 00:00:00 | |
| SP6BVK | 2026-08-30 13:20:35 | 51.25408 | 17.85478 | 83° | 44km/h | 6258m | -11.6m/s | 0°C | 0% | 0hPa | 0V | 00:00:00 | 00:00:00 | 00:00:00 | |
| POL1PZ | 2026-08-30 13:20:19 | 51.25384 | 17.85198 | 90° | 40km/h | 6448m | -10.7m/s | 0°C | 0% | 0hPa | 0V | 00:00:00 | 00:00:00 | 00:00:00 | |
| SP6BVK | 2026-08-30 13:20:15 | 51.25380 | 17.85133 | 84° | 38km/h | 6498m | -11.7m/s | 0°C | 0% | 0hPa | 0V | 00:00:00 | 00:00:00 | 00:00:00 | |
| SQ6EMJ | 2026-08-30 13:20:10 | 51.25374 | 17.85050 | 85° | 42km/h | 6560m | -12.2m/s | 0°C | 0% | 0hPa | 0V | 00:00:00 | 00:00:00 | 00:00:00 | |
| POL1PZ | 2026-08-30 13:19:59 | 51.25359 | 17.84860 | 84° | 47km/h | 6695m | -10.4m/s | 0°C | 0% | 0hPa | 0V | 00:00:00 | 00:00:00 | 00:00:00 | |
| SP6BVK | 2026-08-30 13:19:55 | 51.25353 | 17.84787 | 86° | 47km/h | 6742m | -11.0m/s | 0°C | 0% | 0hPa | 0V | 00:00:00 | 00:00:00 | 00:00:00 | |
| SQ6EMJ | 2026-08-30 13:19:49 | 51.25345 | 17.84671 | 85° | 51km/h | 6812m | -11.2m/s | 0°C | 0% | 0hPa | 0V | 00:00:00 | 00:00:00 | 00:00:00 | |
| SQ6EMJ | 2026-08-30 13:19:44 | 51.25338 | 17.84570 | 84° | 51km/h | 6874m | -11.4m/s | 0°C | 0% | 0hPa | 0V | 00:00:00 | 00:00:00 | 00:00:00 | |
| POL1PZ | 2026-08-30 13:19:39 | 51.25333 | 17.84466 | 88° | 53km/h | 6932m | -10.3m/s | 0°C | 0% | 0hPa | 0V | 00:00:00 | 00:00:00 | 00:00:00 | |
| SQ6EMJ | 2026-08-30 13:19:37 | 51.25332 | 17.84425 | 88° | 53km/h | 6953m | -10.0m/s | 0°C | 0% | 0hPa | 0V | 00:00:00 | 00:00:00 | 00:00:00 | |
| SP6BVK | 2026-08-30 13:19:35 | 51.25330 | 17.84383 | 84° | 53km/h | 6975m | -10.0m/s | 0°C | 0% | 0hPa | 0V | 00:00:00 | 00:00:00 | 00:00:00 | |
| SQ6EMJ | 2026-08-30 13:19:31 | 51.25325 | 17.84300 | 86° | 53km/h | 7021m | -10.8m/s | 0°C | 0% | 0hPa | 0V | 00:00:00 | 00:00:00 | 00:00:00 | |
| SQ6EMJ | 2026-08-30 13:19:25 | 51.25318 | 17.84175 | 83° | 53km/h | 7090m | -11.3m/s | 0°C | 0% | 0hPa | 0V | 00:00:00 | 00:00:00 | 00:00:00 | |
| SQ6EMJ | 2026-08-30 13:19:19 | 51.25306 | 17.84052 | 82° | 53km/h | 7164m | -12.8m/s | 0°C | 0% | 0hPa | 0V | 00:00:00 | 00:00:00 | 00:00:00 | |
| POL1PZ | 2026-08-30 13:19:18 | 51.25304 | 17.84031 | 83° | 53km/h | 7177m | -12.0m/s | 0°C | 0% | 0hPa | 0V | 00:00:00 | 00:00:00 | 00:00:00 | |
| SP6BVK | 2026-08-30 13:19:15 | 51.25298 | 17.83968 | 82° | 51km/h | 7215m | -11.5m/s | 0°C | 0% | 0hPa | 0V | 00:00:00 | 00:00:00 | 00:00:00 | |
| SQ6EMJ | 2026-08-30 13:19:12 | 51.25292 | 17.83903 | 84° | 57km/h | 7252m | -10.6m/s | 0°C | 0% | 0hPa | 0V | 00:00:00 | 00:00:00 | 00:00:00 | |
| SQ6EMJ | 2026-08-30 13:19:07 | 51.25285 | 17.83788 | 89° | 58km/h | 7308m | -10.4m/s | 0°C | 0% | 0hPa | 0V | 00:00:00 | 00:00:00 | 00:00:00 | |
| SQ6EMJ | 2026-08-30 13:19:00 | 51.25284 | 17.83617 | 90° | 62km/h | 7389m | -10.0m/s | 0°C | 0% | 0hPa | 0V | 00:00:00 | 00:00:00 | 00:00:00 | |
| POL1PZ | 2026-08-30 13:18:57 | 51.25284 | 17.83545 | 91° | 58km/h | 7425m | -11.9m/s | 0°C | 0% | 0hPa | 0V | 00:00:00 | 00:00:00 | 00:00:00 | |
| SP6BVK | 2026-08-30 13:18:54 | 51.25284 | 17.83473 | 93° | 58km/h | 7462m | -11.8m/s | 0°C | 0% | 0hPa | 0V | 00:00:00 | 00:00:00 | 00:00:00 | |
| SQ6EMJ | 2026-08-30 13:18:53 | 51.25284 | 17.83449 | 92° | 60km/h | 7475m | -11.3m/s | 0°C | 0% | 0hPa | 0V | 00:00:00 | 00:00:00 | 00:00:00 | |
| POL1PZ | 2026-08-30 13:18:37 | 51.25285 | 17.83059 | 93° | 64km/h | 7673m | -11.1m/s | 0°C | 0% | 0hPa | 0V | 00:00:00 | 00:00:00 | 00:00:00 | |
| SP6BVK | 2026-08-30 13:18:33 | 51.25286 | 17.82960 | 93° | 62km/h | 7720m | -11.5m/s | 0°C | 0% | 0hPa | 0V | 00:00:00 | 00:00:00 | 00:00:00 | |
| POL1PZ | 2026-08-30 13:18:17 | 51.25304 | 17.82565 | 98° | 62km/h | 7910m | -11.2m/s | 0°C | 0% | 0hPa | 0V | 00:00:00 | 00:00:00 | 00:00:00 | |
| POL1PZ | 2026-08-30 13:17:56 | 51.25348 | 17.82027 | 100° | 64km/h | 8156m | -10.0m/s | 0°C | 0% | 0hPa | 0V | 00:00:00 | 00:00:00 | 00:00:00 | |
| SP6BVK | 2026-08-30 13:17:51 | 51.25359 | 17.81897 | 99° | 66km/h | 8215m | -11.9m/s | 0°C | 0% | 0hPa | 0V | 00:00:00 | 00:00:00 | 00:00:00 | |
| POL1PZ | 2026-08-30 13:17:35 | 51.25386 | 17.81490 | 98° | 62km/h | 8414m | -12.6m/s | 0°C | 0% | 0hPa | 0V | 00:00:00 | 00:00:00 | 00:00:00 | |
| POL1PZ | 2026-08-30 13:17:14 | 51.25401 | 17.80943 | 92° | 66km/h | 8665m | -10.8m/s | 0°C | 0% | 0hPa | 0V | 00:00:00 | 00:00:00 | 00:00:00 | |
| SP6BVK | 2026-08-30 13:17:10 | 51.25403 | 17.80839 | 94° | 66km/h | 8713m | -10.6m/s | 0°C | 0% | 0hPa | 0V | 00:00:00 | 00:00:00 | 00:00:00 | |
| POL1PZ | 2026-08-30 13:16:54 | 51.25409 | 17.80427 | 94° | 64km/h | 8861m | -8.0m/s | 0°C | 0% | 0hPa | 0V | 00:00:00 | 00:00:00 | 00:00:00 | |
| SP6BVK | 2026-08-30 13:16:49 | 51.25410 | 17.80297 | 91° | 68km/h | 8902m | -6.4m/s | 0°C | 0% | 0hPa | 0V | 00:00:00 | 00:00:00 | 00:00:00 | |
| POL1PZ | 2026-08-30 13:16:33 | 51.25410 | 17.79880 | 91° | 64km/h | 9028m | -8.0m/s | 0°C | 0% | 0hPa | 0V | 00:00:00 | 00:00:00 | 00:00:00 | |
| SP6BVK | 2026-08-30 13:16:28 | 51.25410 | 17.79751 | 91° | 66km/h | 9069m | -8.0m/s | 0°C | 0% | 0hPa | 0V | 00:00:00 | 00:00:00 | 00:00:00 | |
| SQ6EMJ | 2026-08-30 13:16:14 | 51.25404 | 17.79384 | 89° | 69km/h | 9182m | -7.2m/s | 0°C | 0% | 0hPa | 0V | 00:00:00 | 00:00:00 | 00:00:00 | |
| POL1PZ | 2026-08-30 13:16:13 | 51.25403 | 17.79357 | 89° | 66km/h | 9190m | -7.2m/s | 0°C | 0% | 0hPa | 0V | 00:00:00 | 00:00:00 | 00:00:00 | |
| SP6BVK | 2026-08-30 13:16:07 | 51.25399 | 17.79197 | 88° | 66km/h | 9238m | -6.9m/s | 0°C | 0% | 0hPa | 0V | 00:00:00 | 00:00:00 | 00:00:00 | |
| POL1PZ | 2026-08-30 13:15:52 | 51.25386 | 17.78803 | 87° | 66km/h | 9359m | -7.8m/s | 0°C | 0% | 0hPa | 0V | 00:00:00 | 00:00:00 | 00:00:00 | |
| SQ6EMJ | 2026-08-30 13:15:48 | 51.25382 | 17.78698 | 87° | 66km/h | 9393m | -7.8m/s | 0°C | 0% | 0hPa | 0V | 00:00:00 | 00:00:00 | 00:00:00 | |
| SP6BVK | 2026-08-30 13:15:46 | 51.25380 | 17.78646 | 86° | 64km/h | 9407m | -7.1m/s | 0°C | 0% | 0hPa | 0V | 00:00:00 | 00:00:00 | 00:00:00 | |
| SQ6EMJ | 2026-08-30 13:15:39 | 51.25372 | 17.78464 | 88° | 66km/h | 9466m | -5.6m/s | 0°C | 0% | 0hPa | 0V | 00:00:00 | 00:00:00 | 00:00:00 | |
| SQ6EMJ | 2026-08-30 13:15:34 | 51.25367 | 17.78333 | 90° | 66km/h | 9505m | -7.8m/s | 0°C | 0% | 0hPa | 0V | 00:00:00 | 00:00:00 | 00:00:00 | |
| POL1PZ | 2026-08-30 13:15:32 | 51.25366 | 17.78282 | 91° | 64km/h | 9521m | -7.8m/s | 0°C | 0% | 0hPa | 0V | 00:00:00 | 00:00:00 | 00:00:00 | |
| SP6BVK | 2026-08-30 13:15:26 | 51.25367 | 17.78126 | 95° | 66km/h | 9571m | -8.5m/s | 0°C | 0% | 0hPa | 0V | 00:00:00 | 00:00:00 | 00:00:00 | |
| SQ6EMJ | 2026-08-30 13:15:18 | 51.25381 | 17.77887 | 98° | 71km/h | 9644m | -8.0m/s | 0°C | 0% | 0hPa | 0V | 00:00:00 | 00:00:00 | 00:00:00 | |
| SQ6EMJ | 2026-08-30 13:15:12 | 51.25392 | 17.77747 | 99° | 73km/h | 9684m | -7.7m/s | 0°C | 0% | 0hPa | 0V | 00:00:00 | 00:00:00 | 00:00:00 | |
| POL1PZ | 2026-08-30 13:15:11 | 51.25395 | 17.77718 | 96° | 71km/h | 9692m | -7.1m/s | 0°C | 0% | 0hPa | 0V | 00:00:00 | 00:00:00 | 00:00:00 | |
| SQ6EMJ | 2026-08-30 13:15:07 | 51.25402 | 17.77602 | 96° | 75km/h | 9724m | -7.3m/s | 0°C | 0% | 0hPa | 0V | 00:00:00 | 00:00:00 | 00:00:00 | |
| SP6BVK | 2026-08-30 13:15:06 | 51.25404 | 17.77572 | 94° | 75km/h | 9732m | -6.7m/s | 0°C | 0% | 0hPa | 0V | 00:00:00 | 00:00:00 | 00:00:00 | |
| SQ6EMJ | 2026-08-30 13:14:59 | 51.25413 | 17.77362 | 94° | 77km/h | 9788m | -7.9m/s | 0°C | 0% | 0hPa | 0V | 00:00:00 | 00:00:00 | 00:00:00 | |
| SQ6EMJ | 2026-08-30 13:14:53 | 51.25419 | 17.77177 | 93° | 77km/h | 9838m | -7.3m/s | 0°C | 0% | 0hPa | 0V | 00:00:00 | 00:00:00 | 00:00:00 | |
| POL1PZ | 2026-08-30 13:14:50 | 51.25422 | 17.77088 | 93° | 75km/h | 9862m | -7.5m/s | 0°C | 0% | 0hPa | 0V | 00:00:00 | 00:00:00 | 00:00:00 | |
| SQ6EMJ | 2026-08-30 13:14:48 | 51.25424 | 17.77027 | 94° | 77km/h | 9879m | -7.1m/s | 0°C | 0% | 0hPa | 0V | 00:00:00 | 00:00:00 | 00:00:00 | |
| SP6BVK | 2026-08-30 13:14:45 | 51.25427 | 17.76938 | 93° | 75km/h | 9904m | -8.0m/s | 0°C | 0% | 0hPa | 0V | 00:00:00 | 00:00:00 | 00:00:00 | |
| SQ6EMJ | 2026-08-30 13:14:41 | 51.25431 | 17.76820 | 94° | 71km/h | 9934m | -8.6m/s | 0°C | 0% | 0hPa | 0V | 00:00:00 | 00:00:00 | 00:00:00 | |
| SQ6EMJ | 2026-08-30 13:14:35 | 51.25437 | 17.76644 | 93° | 73km/h | 9985m | -7.7m/s | 0°C | 0% | 0hPa | 0V | 00:00:00 | 00:00:00 | 00:00:00 | |
| SQ6EMJ | 2026-08-30 13:14:30 | 51.25442 | 17.76497 | 95° | 75km/h | 10025m | -6.3m/s | 0°C | 0% | 0hPa | 0V | 00:00:00 | 00:00:00 | 00:00:00 | |
| POL1PZ | 2026-08-30 13:14:29 | 51.25443 | 17.76467 | 96° | 75km/h | 10032m | -6.3m/s | 0°C | 0% | 0hPa | 0V | 00:00:00 | 00:00:00 | 00:00:00 | |
| SQ6EMJ | 2026-08-30 13:14:25 | 51.25450 | 17.76347 | 95° | 77km/h | 10064m | -7.7m/s | 0°C | 0% | 0hPa | 0V | 00:00:00 | 00:00:00 | 00:00:00 | |
| SP6BVK | 2026-08-30 13:14:24 | 51.25451 | 17.76317 | 95° | 75km/h | 10072m | -7.9m/s | 0°C | 0% | 0hPa | 0V | 00:00:00 | 00:00:00 | 00:00:00 | |
| SQ6EMJ | 2026-08-30 13:14:20 | 51.25457 | 17.76196 | 95° | 77km/h | 10109m | -6.7m/s | 0°C | 0% | 0hPa | 0V | 00:00:00 | 00:00:00 | 00:00:00 | |
| SQ6EMJ | 2026-08-30 13:14:14 | 51.25468 | 17.75983 | 98° | 75km/h | 10166m | -8.6m/s | 0°C | 0% | 0hPa | 0V | 00:00:00 | 00:00:00 | 00:00:00 | |
| SQ6EMJ | 2026-08-30 13:14:09 | 51.25478 | 17.75830 | 98° | 78km/h | 10210m | -8.9m/s | 0°C | 0% | 0hPa | 0V | 00:00:00 | 00:00:00 | 00:00:00 | |
| SP6BVK | 2026-08-30 13:14:03 | 51.25490 | 17.75674 | 98° | 80km/h | 10249m | -7.8m/s | 0°C | 0% | 0hPa | 0V | 00:00:00 | 00:00:00 | 00:00:00 | |
| SQ6EMJ | 2026-08-30 13:13:53 | 51.25519 | 17.75353 | 99° | 84km/h | 10338m | -7.6m/s | 0°C | 0% | 0hPa | 0V | 00:00:00 | 00:00:00 | 00:00:00 | |
| POL1PZ | 2026-08-30 13:13:48 | 51.25534 | 17.75188 | 99° | 82km/h | 10384m | -8.7m/s | 0°C | 0% | 0hPa | 0V | 00:00:00 | 00:00:00 | 00:00:00 | |
| POL1PZ | 2026-08-30 13:13:25 | 51.25597 | 17.74410 | 98° | 86km/h | 10583m | -8.6m/s | 0°C | 0% | 0hPa | 0V | 00:00:00 | 00:00:00 | 00:00:00 | |
| SP6BVK | 2026-08-30 13:13:21 | 51.25610 | 17.74269 | 99° | 86km/h | 10618m | -8.8m/s | 0°C | 0% | 0hPa | 0V | 00:00:00 | 00:00:00 | 00:00:00 | |
| SQ6EMJ | 2026-08-30 13:13:20 | 51.25612 | 17.74234 | 99° | 88km/h | 10627m | -9.2m/s | 0°C | 0% | 0hPa | 0V | 00:00:00 | 00:00:00 | 00:00:00 | |
| KRY50SP | 2026-08-30 13:13:16 | 51.25624 | 17.74090 | 97° | 89km/h | 10668m | -8.7m/s | 0°C | 0% | 0hPa | 0V | 00:00:00 | 00:00:00 | 00:00:00 | |
| SQ6EMJ | 2026-08-30 13:13:07 | 51.25648 | 17.73761 | 97° | 89km/h | 10754m | -6.9m/s | 0°C | 0% | 0hPa | 0V | 00:00:00 | 00:00:00 | 00:00:00 | |
| POL1PZ | 2026-08-30 13:13:05 | 51.25653 | 17.73688 | 97° | 91km/h | 10770m | -7.8m/s | 0°C | 0% | 0hPa | 0V | 00:00:00 | 00:00:00 | 00:00:00 | |
| SP6BVK | 2026-08-30 13:13:00 | 51.25664 | 17.73507 | 96° | 88km/h | 10818m | -10.5m/s | 0°C | 0% | 0hPa | 0V | 00:00:00 | 00:00:00 | 00:00:00 | |
| POL1PZ | 2026-08-30 13:12:44 | 51.25696 | 17.72952 | 97° | 84km/h | 10966m | -9.4m/s | 0°C | 0% | 0hPa | 0V | 00:00:00 | 00:00:00 | 00:00:00 | |
| SP6BVK | 2026-08-30 13:12:40 | 51.25704 | 17.72820 | 96° | 84km/h | 11009m | -10.2m/s | 0°C | 0% | 0hPa | 0V | 00:00:00 | 00:00:00 | 00:00:00 | |
| SQ6EMJ | 2026-08-30 13:12:38 | 51.25708 | 17.72754 | 97° | 80km/h | 11031m | -9.3m/s | 0°C | 0% | 0hPa | 0V | 00:00:00 | 00:00:00 | 00:00:00 | |
| POL1PZ | 2026-08-30 13:12:23 | 51.25746 | 17.72263 | 97° | 80km/h | 11178m | -8.6m/s | 0°C | 0% | 0hPa | 0V | 00:00:00 | 00:00:00 | 00:00:00 | |
| SP6BVK | 2026-08-30 13:12:19 | 51.25754 | 17.72135 | 95° | 78km/h | 11214m | -8.4m/s | 0°C | 0% | 0hPa | 0V | 00:00:00 | 00:00:00 | 00:00:00 | |
| SQ6EMJ | 2026-08-30 13:12:17 | 51.25758 | 17.72073 | 96° | 78km/h | 11232m | -8.8m/s | 0°C | 0% | 0hPa | 0V | 00:00:00 | 00:00:00 | 00:00:00 | |
| SQ6EMJ | 2026-08-30 13:12:12 | 51.25765 | 17.71911 | 93° | 82km/h | 11279m | -9.4m/s | 0°C | 0% | 0hPa | 0V | 00:00:00 | 00:00:00 | 00:00:00 | |
| SQ6EMJ | 2026-08-30 13:12:05 | 51.25769 | 17.71680 | 92° | 82km/h | 11353m | -9.2m/s | 0°C | 0% | 0hPa | 0V | 00:00:00 | 00:00:00 | 00:00:00 | |
| POL1PZ | 2026-08-30 13:12:02 | 51.25770 | 17.71579 | 91° | 82km/h | 11383m | -8.4m/s | 0°C | 0% | 0hPa | 0V | 00:00:00 | 00:00:00 | 00:00:00 | |
| SP6BVK | 2026-08-30 13:11:58 | 51.25770 | 17.71445 | 91° | 84km/h | 11421m | -8.2m/s | 0°C | 0% | 0hPa | 0V | 00:00:00 | 00:00:00 | 00:00:00 | |
| SQ6EMJ | 2026-08-30 13:11:55 | 51.25769 | 17.71342 | 90° | 88km/h | 11450m | -9.4m/s | 0°C | 0% | 0hPa | 0V | 00:00:00 | 00:00:00 | 00:00:00 | |
| SQ6EMJ | 2026-08-30 13:11:48 | 51.25767 | 17.71103 | 89° | 82km/h | 11518m | -8.6m/s | 0°C | 0% | 0hPa | 0V | 00:00:00 | 00:00:00 | 00:00:00 | |
| POL1PZ | 2026-08-30 13:11:42 | 51.25763 | 17.70899 | 88° | 86km/h | 11577m | -8.5m/s | 0°C | 0% | 0hPa | 0V | 00:00:00 | 00:00:00 | 00:00:00 | |
| SP6BVK | 2026-08-30 13:11:38 | 51.25759 | 17.70766 | 87° | 84km/h | 11615m | -9.1m/s | 0°C | 0% | 0hPa | 0V | 00:00:00 | 00:00:00 | 00:00:00 | |
| SQ6EMJ | 2026-08-30 13:11:35 | 51.25755 | 17.70669 | 88° | 80km/h | 11642m | -7.1m/s | 0°C | 0% | 0hPa | 0V | 00:00:00 | 00:00:00 | 00:00:00 | |
| SQ6EMJ | 2026-08-30 13:11:29 | 51.25744 | 17.70476 | 83° | 84km/h | 11701m | -9.0m/s | 0°C | 0% | 0hPa | 0V | 00:00:00 | 00:00:00 | 00:00:00 | |
| SQ6EMJ | 2026-08-30 13:11:22 | 51.25723 | 17.70243 | 83° | 86km/h | 11765m | -10.1m/s | 0°C | 0% | 0hPa | 0V | 00:00:00 | 00:00:00 | 00:00:00 | |
| POL1PZ | 2026-08-30 13:11:21 | 51.25720 | 17.70208 | 81° | 89km/h | 11775m | -10.4m/s | 0°C | 0% | 0hPa | 0V | 00:00:00 | 00:00:00 | 00:00:00 | |
| SP6BVK | 2026-08-30 13:11:17 | 51.25707 | 17.70067 | 86° | 89km/h | 11811m | -7.7m/s | 0°C | 0% | 0hPa | 0V | 00:00:00 | 00:00:00 | 00:00:00 | |
| SQ6EMJ | 2026-08-30 13:11:11 | 51.25686 | 17.69862 | 82° | 84km/h | 11872m | -8.4m/s | 0°C | 0% | 0hPa | 0V | 00:00:00 | 00:00:00 | 00:00:00 | |
| SQ6EMJ | 2026-08-30 13:11:05 | 51.25666 | 17.69664 | 91° | 80km/h | 11920m | -10.5m/s | 0°C | 0% | 0hPa | 0V | 00:00:00 | 00:00:00 | 00:00:00 | |
| POL1PZ | 2026-08-30 12:40:10 | 51.21769 | 17.56276 | 226° | 35km/h | 27213m | -18.5m/s | 0°C | 0% | 0hPa | 0V | 00:00:00 | 00:00:00 | 00:00:00 | |
| KRY50SP | 2026-08-30 12:40:05 | 51.21787 | 17.56310 | 190° | 11km/h | 27283m | 0.2m/s | 0°C | 0% | 0hPa | 0V | 00:00:00 | 00:00:00 | 00:00:00 | |
| SQ6EMJ | 2026-08-30 12:39:59 | 51.21769 | 17.56316 | 28° | 16km/h | 27261m | 6.9m/s | 0°C | 0% | 0hPa | 0V | 00:00:00 | 00:00:00 | 00:00:00 | |
| SQ6EMJ | 2026-08-30 12:39:53 | 51.21742 | 17.56315 | 342° | 26km/h | 27237m | 3.5m/s | 0°C | 0% | 0hPa | 0V | 00:00:00 | 00:00:00 | 00:00:00 | |
| POL1PZ | 2026-08-30 12:39:50 | 51.21719 | 17.56314 | 340° | 7km/h | 27252m | 10.1m/s | 0°C | 0% | 0hPa | 0V | 00:00:00 | 00:00:00 | 00:00:00 | |
| PETON7-10 | 2026-08-30 12:39:48 | 51.21708 | 17.56305 | 358° | 18km/h | 27234m | 11.3m/s | 0°C | 0% | 0hPa | 0V | 00:00:00 | 00:00:00 | 00:00:00 | |
| SP3BTT-10 | 2026-08-30 12:39:44 | 51.21716 | 17.56322 | 4° | 24km/h | 27177m | 3.3m/s | 0°C | 0% | 0hPa | 0V | 00:00:00 | 00:00:00 | 00:00:00 | |
| SQ6EMJ | 2026-08-30 12:39:41 | 51.21699 | 17.56326 | 284° | 37km/h | 27168m | 4.5m/s | 0°C | 0% | 0hPa | 0V | 00:00:00 | 00:00:00 | 00:00:00 | |
| KRY50SP | 2026-08-30 12:39:38 | 51.21695 | 17.56344 | 98° | 7km/h | 27160m | 6.3m/s | 0°C | 0% | 0hPa | 0V | 00:00:00 | 00:00:00 | 00:00:00 | |
| PETON7-10 | 2026-08-30 12:39:33 | 51.21682 | 17.56328 | 3° | 16km/h | 27152m | 5.2m/s | 0°C | 0% | 0hPa | 0V | 00:00:00 | 00:00:00 | 00:00:00 | |
| SQ6EMJ | 2026-08-30 12:39:30 | 51.21660 | 17.56310 | 302° | 18km/h | 27159m | 16.9m/s | 0°C | 0% | 0hPa | 0V | 00:00:00 | 00:00:00 | 00:00:00 | |
| POL1PZ | 2026-08-30 12:39:29 | 51.21650 | 17.56296 | 260° | 26km/h | 27145m | 14.3m/s | 0°C | 0% | 0hPa | 0V | 00:00:00 | 00:00:00 | 00:00:00 | |
| SQ6EMJ | 2026-08-30 12:39:24 | 51.21661 | 17.56310 | 345° | 29km/h | 27106m | 5.7m/s | 0°C | 0% | 0hPa | 0V | 00:00:00 | 00:00:00 | 00:00:00 | |
| KRY50SP | 2026-08-30 12:39:22 | 51.21644 | 17.56308 | 288° | 13km/h | 27101m | 4.0m/s | 0°C | 0% | 0hPa | 0V | 00:00:00 | 00:00:00 | 00:00:00 | |
| PETON7-10 | 2026-08-30 12:39:18 | 51.21629 | 17.56303 | 271° | 27km/h | 27091m | 11.0m/s | 0°C | 0% | 0hPa | 0V | 00:00:00 | 00:00:00 | 00:00:00 | |
| POL1PZ | 2026-08-30 12:39:09 | 51.21641 | 17.56327 | 240° | 58km/h | 27020m | 18.3m/s | 0°C | 0% | 0hPa | 0V | 00:00:00 | 00:00:00 | 00:00:00 | |
| KRY50SP | 2026-08-30 12:39:07 | 51.21644 | 17.56339 | 296° | 35km/h | 27023m | 28.0m/s | 0°C | 0% | 0hPa | 0V | 00:00:00 | 00:00:00 | 00:00:00 | |
| SQ6EMJ | 2026-08-30 12:39:06 | 51.21635 | 17.56340 | 225° | 38km/h | 27018m | 25.1m/s | 0°C | 0% | 0hPa | 0V | 00:00:00 | 00:00:00 | 00:00:00 | |
| PETON7-10 | 2026-08-30 12:39:03 | 51.21611 | 17.56301 | 305° | 20km/h | 27071m | 12.0m/s | 0°C | 0% | 0hPa | 0V | 00:00:00 | 00:00:00 | 00:00:00 | |
| SQ6EMJ | 2026-08-30 12:39:01 | 51.21574 | 17.56245 | 165° | 15km/h | 27150m | 3.6m/s | 0°C | 0% | 0hPa | 0V | 00:00:00 | 00:00:00 | 00:00:00 | |
| SQ6EMJ | 2026-08-30 12:38:54 | 51.21512 | 17.56160 | 142° | 27km/h | 27279m | 10.9m/s | 0°C | 0% | 0hPa | 0V | 00:00:00 | 00:00:00 | 00:00:00 | |
| KRY50SP | 2026-08-30 12:38:52 | 51.21526 | 17.56116 | 142° | 20km/h | 27264m | 18.4m/s | 0°C | 0% | 0hPa | 0V | 00:00:00 | 00:00:00 | 00:00:00 | |
| PETON7-10 | 2026-08-30 12:38:48 | 51.21563 | 17.56115 | 199° | 26km/h | 27202m | 17.8m/s | 0°C | 0% | 0hPa | 0V | 00:00:00 | 00:00:00 | 00:00:00 | |
| SP3BTT-10 | 2026-08-30 12:38:45 | 51.21602 | 17.56112 | 112° | 22km/h | 27123m | 12.0m/s | 0°C | 0% | 0hPa | 0V | 00:00:00 | 00:00:00 | 00:00:00 | |
| SQ6EMJ | 2026-08-30 12:38:41 | 51.21700 | 17.56119 | 338° | 29km/h | 27127m | 29.8m/s | 0°C | 0% | 0hPa | 0V | 00:00:00 | 00:00:00 | 00:00:00 | |
| SQ6EMJ | 2026-08-30 12:38:35 | 51.21677 | 17.56160 | 20° | 26km/h | 26905m | 28.4m/s | 0°C | 0% | 0hPa | 0V | 00:00:00 | 00:00:00 | 00:00:00 | |
| PETON7-10 | 2026-08-30 12:38:32 | 51.21674 | 17.56128 | 95° | 26km/h | 26789m | 22.7m/s | 0°C | 0% | 0hPa | 0V | 00:00:00 | 00:00:00 | 00:00:00 | |
| SQ6EMJ | 2026-08-30 12:38:29 | 51.21675 | 17.56101 | 6° | 95km/h | 26662m | 19.5m/s | 0°C | 0% | 0hPa | 0V | 00:00:00 | 00:00:00 | 00:00:00 | |
| POL1PZ | 2026-08-30 12:38:26 | 51.21565 | 17.56084 | 5° | 22km/h | 26664m | 5.9m/s | 0°C | 0% | 0hPa | 0V | 00:00:00 | 00:00:00 | 00:00:00 | |
| SQ6EMJ | 2026-08-30 12:38:23 | 51.21547 | 17.56096 | 343° | 18km/h | 26646m | 3.1m/s | 0°C | 0% | 0hPa | 0V | 00:00:00 | 00:00:00 | 00:00:00 | |
| SQ6EMJ | 2026-08-30 12:38:19 | 51.21544 | 17.56132 | 11° | 15km/h | 26627m | 2.0m/s | 0°C | 0% | 0hPa | 0V | 00:00:00 | 00:00:00 | 00:00:00 | |
| PETON7-10 | 2026-08-30 12:38:18 | 51.21540 | 17.56131 | 358° | 22km/h | 26626m | 1.9m/s | 0°C | 0% | 0hPa | 0V | 00:00:00 | 00:00:00 | 00:00:00 | |
| SP3BTT-10 | 2026-08-30 12:38:14 | 51.21527 | 17.56125 | 329° | 13km/h | 26627m | 0.8m/s | 0°C | 0% | 0hPa | 0V | 00:00:00 | 00:00:00 | 00:00:00 | |
| SQ6EMJ | 2026-08-30 12:38:12 | 51.21518 | 17.56123 | 31° | 16km/h | 26638m | 3.1m/s | 0°C | 0% | 0hPa | 0V | 00:00:00 | 00:00:00 | 00:00:00 | |
| POL1PZ | 2026-08-30 12:38:06 | 51.21487 | 17.56102 | 239° | 24km/h | 26645m | 17.1m/s | 0°C | 0% | 0hPa | 0V | 00:00:00 | 00:00:00 | 00:00:00 | |
| PETON7-10 | 2026-08-30 12:38:02 | 51.21487 | 17.56156 | 312° | 26km/h | 26566m | 9.7m/s | 0°C | 0% | 0hPa | 0V | 00:00:00 | 00:00:00 | 00:00:00 | |
| SQ6EMJ | 2026-08-30 12:38:01 | 51.21486 | 17.56165 | 314° | 40km/h | 26547m | 9.3m/s | 0°C | 0% | 0hPa | 0V | 00:00:00 | 00:00:00 | 00:00:00 | |
| SQ6EMJ | 2026-08-30 12:37:56 | 51.21453 | 17.56172 | 11° | 18km/h | 26505m | 5.3m/s | 0°C | 0% | 0hPa | 0V | 00:00:00 | 00:00:00 | 00:00:00 | |
| SQ6EMJ | 2026-08-30 12:37:50 | 51.21417 | 17.56183 | 327° | 27km/h | 26480m | 4.3m/s | 0°C | 0% | 0hPa | 0V | 00:00:00 | 00:00:00 | 00:00:00 | |
| PETON7-10 | 2026-08-30 12:37:47 | 51.21410 | 17.56194 | 12° | 13km/h | 26468m | 3.8m/s | 0°C | 0% | 0hPa | 0V | 00:00:00 | 00:00:00 | 00:00:00 | |
| POL1PZ | 2026-08-30 12:37:46 | 51.21408 | 17.56194 | 5° | 4km/h | 26468m | 5.9m/s | 0°C | 0% | 0hPa | 0V | 00:00:00 | 00:00:00 | 00:00:00 | |
| SQ6EMJ | 2026-08-30 12:37:45 | 51.21407 | 17.56195 | 8° | 18km/h | 26461m | 5.3m/s | 0°C | 0% | 0hPa | 0V | 00:00:00 | 00:00:00 | 00:00:00 | |
| SQ6EMJ | 2026-08-30 12:37:40 | 51.21403 | 17.56207 | 340° | 5km/h | 26435m | 7.1m/s | 0°C | 0% | 0hPa | 0V | 00:00:00 | 00:00:00 | 00:00:00 | |
| SQ6EMJ | 2026-08-30 12:37:34 | 51.21384 | 17.56231 | 351° | 5km/h | 26400m | 9.2m/s | 0°C | 0% | 0hPa | 0V | 00:00:00 | 00:00:00 | 00:00:00 | |
| PETON7-10 | 2026-08-30 12:37:32 | 51.21382 | 17.56235 | 13° | 35km/h | 26395m | 3.5m/s | 0°C | 0% | 0hPa | 0V | 00:00:00 | 00:00:00 | 00:00:00 | |
| SQ6EMJ | 2026-08-30 12:37:28 | 51.21342 | 17.56232 | 348° | 77km/h | 26444m | -20.4m/s | 0°C | 0% | 0hPa | 0V | 00:00:00 | 00:00:00 | 00:00:00 | |
| POL1PZ | 2026-08-30 12:37:26 | 51.21323 | 17.56233 | 4° | 88km/h | 26481m | -7.9m/s | 0°C | 0% | 0hPa | 0V | 00:00:00 | 00:00:00 | 00:00:00 | |
| SQ6EMJ | 2026-08-30 12:37:23 | 51.21358 | 17.56247 | 30° | 11km/h | 26467m | 23.7m/s | 0°C | 0% | 0hPa | 0V | 00:00:00 | 00:00:00 | 00:00:00 | |
| SQ6EMJ | 2026-08-30 12:37:17 | 51.21330 | 17.56267 | 350° | 42km/h | 26356m | 8.0m/s | 0°C | 0% | 0hPa | 0V | 00:00:00 | 00:00:00 | 00:00:00 | |
| PETON7-10 | 2026-08-30 12:37:16 | 51.21314 | 17.56265 | 9° | 22km/h | 26344m | 7.4m/s | 0°C | 0% | 0hPa | 0V | 00:00:00 | 00:00:00 | 00:00:00 | |
| KRY50SP | 2026-08-30 12:37:13 | 51.21277 | 17.56238 | 272° | 11km/h | 26293m | 8.9m/s | 0°C | 0% | 0hPa | 0V | 00:00:00 | 00:00:00 | 00:00:00 | |
| SQ6EMJ | 2026-08-30 12:37:12 | 51.21276 | 17.56241 | 242° | 11km/h | 26288m | 10.8m/s | 0°C | 0% | 0hPa | 0V | 00:00:00 | 00:00:00 | 00:00:00 | |
| SQ6EMJ | 2026-08-30 12:37:06 | 51.21277 | 17.56245 | 325° | 24km/h | 26176m | 8.4m/s | 0°C | 0% | 0hPa | 0V | 00:00:00 | 00:00:00 | 00:00:00 | |
| POL1PZ | 2026-08-30 12:37:05 | 51.21273 | 17.56249 | 323° | 22km/h | 26165m | 6.5m/s | 0°C | 0% | 0hPa | 0V | 00:00:00 | 00:00:00 | 00:00:00 | |
| PETON7-10 | 2026-08-30 12:37:01 | 51.21257 | 17.56245 | 7° | 13km/h | 26116m | 4.6m/s | 0°C | 0% | 0hPa | 0V | 00:00:00 | 00:00:00 | 00:00:00 | |
| SQ6EMJ | 2026-08-30 12:37:00 | 51.21251 | 17.56245 | 13° | 9km/h | 26110m | 2.2m/s | 0°C | 0% | 0hPa | 0V | 00:00:00 | 00:00:00 | 00:00:00 | |
| SP3BTT-10 | 2026-08-30 12:36:57 | 51.21236 | 17.56247 | 257° | 18km/h | 26098m | 2.5m/s | 0°C | 0% | 0hPa | 0V | 00:00:00 | 00:00:00 | 00:00:00 | |
| SQ6EMJ | 2026-08-30 12:36:55 | 51.21230 | 17.56261 | 200° | 78km/h | 26091m | -0.7m/s | 0°C | 0% | 0hPa | 0V | 00:00:00 | 00:00:00 | 00:00:00 | |
| SQ6EMJ | 2026-08-30 12:36:50 | 51.21272 | 17.56275 | 69° | 7km/h | 26078m | 6.9m/s | 0°C | 0% | 0hPa | 0V | 00:00:00 | 00:00:00 | 00:00:00 | |
| PETON7-10 | 2026-08-30 12:36:45 | 51.21269 | 17.56271 | 323° | 16km/h | 26058m | 7.2m/s | 0°C | 0% | 0hPa | 0V | 00:00:00 | 00:00:00 | 00:00:00 | |
| POL1PZ | 2026-08-30 12:36:44 | 51.21267 | 17.56275 | 308° | 13km/h | 26050m | 5.9m/s | 0°C | 0% | 0hPa | 0V | 00:00:00 | 00:00:00 | 00:00:00 | |
| SQ6EMJ | 2026-08-30 12:36:38 | 51.21246 | 17.56270 | 71° | 20km/h | 26026m | 5.9m/s | 0°C | 0% | 0hPa | 0V | 00:00:00 | 00:00:00 | 00:00:00 | |
| SQ6EMJ | 2026-08-30 12:36:33 | 51.21240 | 17.56254 | 355° | 24km/h | 26011m | 4.8m/s | 0°C | 0% | 0hPa | 0V | 00:00:00 | 00:00:00 | 00:00:00 | |
| PETON7-10 | 2026-08-30 12:36:30 | 51.21233 | 17.56252 | 102° | 16km/h | 25999m | 9.9m/s | 0°C | 0% | 0hPa | 0V | 00:00:00 | 00:00:00 | 00:00:00 | |
| KRY50SP | 2026-08-30 12:36:28 | 51.21229 | 17.56244 | 37° | 20km/h | 25982m | 9.3m/s | 0°C | 0% | 0hPa | 0V | 00:00:00 | 00:00:00 | 00:00:00 | |
| SP3BTT-10 | 2026-08-30 12:36:27 | 51.21226 | 17.56237 | 75° | 22km/h | 25971m | 7.4m/s | 0°C | 0% | 0hPa | 0V | 00:00:00 | 00:00:00 | 00:00:00 | |
| POL1PZ | 2026-08-30 12:36:22 | 51.21231 | 17.56201 | 17° | 7km/h | 25924m | 11.4m/s | 0°C | 0% | 0hPa | 0V | 00:00:00 | 00:00:00 | 00:00:00 | |
| SQ6EMJ | 2026-08-30 12:36:17 | 51.21213 | 17.56204 | 120° | 9km/h | 25881m | 10.6m/s | 0°C | 0% | 0hPa | 0V | 00:00:00 | 00:00:00 | 00:00:00 | |
| PETON7-10 | 2026-08-30 12:36:15 | 51.21211 | 17.56194 | 93° | 22km/h | 25872m | 9.5m/s | 0°C | 0% | 0hPa | 0V | 00:00:00 | 00:00:00 | 00:00:00 | |
| SQ6EMJ | 2026-08-30 12:36:11 | 51.21195 | 17.56173 | 18° | 20km/h | 25839m | 8.9m/s | 0°C | 0% | 0hPa | 0V | 00:00:00 | 00:00:00 | 00:00:00 | |
| OE5DRO-10 | 2026-08-30 12:36:07 | 51.21181 | 17.56156 | 22° | 22km/h | 25803m | 11.6m/s | 0°C | 0% | 0hPa | 0V | 00:00:00 | 00:00:00 | 00:00:00 | |
| SQ6EMJ | 2026-08-30 12:36:05 | 51.21169 | 17.56151 | 15° | 24km/h | 25790m | 7.9m/s | 0°C | 0% | 0hPa | 0V | 00:00:00 | 00:00:00 | 00:00:00 | |
| POL1PZ | 2026-08-30 12:36:02 | 51.21153 | 17.56142 | 12° | 27km/h | 25771m | 11.0m/s | 0°C | 0% | 0hPa | 0V | 00:00:00 | 00:00:00 | 00:00:00 | |
| PETON7-10 | 2026-08-30 12:36:00 | 51.21137 | 17.56142 | 7° | 18km/h | 25776m | 7.6m/s | 0°C | 0% | 0hPa | 0V | 00:00:00 | 00:00:00 | 00:00:00 | |
| SQ6EMJ | 2026-08-30 12:35:59 | 51.21131 | 17.56139 | 19° | 27km/h | 25768m | 14.4m/s | 0°C | 0% | 0hPa | 0V | 00:00:00 | 00:00:00 | 00:00:00 | |
| SQ6EMJ | 2026-08-30 12:35:53 | 51.21092 | 17.56136 | 13° | 16km/h | 25768m | 8.5m/s | 0°C | 0% | 0hPa | 0V | 00:00:00 | 00:00:00 | 00:00:00 | |
| OE5DRO-10 | 2026-08-30 12:35:48 | 51.21079 | 17.56150 | 333° | 22km/h | 25721m | 9.5m/s | 0°C | 0% | 0hPa | 0V | 00:00:00 | 00:00:00 | 00:00:00 | |
| SQ6EMJ | 2026-08-30 12:35:47 | 51.21073 | 17.56154 | 345° | 35km/h | 25712m | 6.7m/s | 0°C | 0% | 0hPa | 0V | 00:00:00 | 00:00:00 | 00:00:00 | |
| PETON7-10 | 2026-08-30 12:35:45 | 51.21051 | 17.56165 | 357° | 18km/h | 25703m | 5.6m/s | 0°C | 0% | 0hPa | 0V | 00:00:00 | 00:00:00 | 00:00:00 | |
| KRY50SP | 2026-08-30 12:35:42 | 51.21038 | 17.56169 | 336° | 11km/h | 25690m | 7.6m/s | 0°C | 0% | 0hPa | 0V | 00:00:00 | 00:00:00 | 00:00:00 | |
| POL1PZ | 2026-08-30 12:35:41 | 51.21034 | 17.56173 | 335° | 20km/h | 25682m | 7.5m/s | 0°C | 0% | 0hPa | 0V | 00:00:00 | 00:00:00 | 00:00:00 | |
| SQ6EMJ | 2026-08-30 12:35:37 | 51.21013 | 17.56188 | 312° | 15km/h | 25652m | 4.5m/s | 0°C | 0% | 0hPa | 0V | 00:00:00 | 00:00:00 | 00:00:00 | |
| SQ6EMJ | 2026-08-30 12:35:31 | 51.20978 | 17.56221 | 306° | 15km/h | 25640m | 3.0m/s | 0°C | 0% | 0hPa | 0V | 00:00:00 | 00:00:00 | 00:00:00 | |
| PETON7-10 | 2026-08-30 12:35:29 | 51.20966 | 17.56232 | 314° | 26km/h | 25633m | 3.2m/s | 0°C | 0% | 0hPa | 0V | 00:00:00 | 00:00:00 | 00:00:00 | |
| OE5DRO-10 | 2026-08-30 12:35:28 | 51.20961 | 17.56240 | 312° | 20km/h | 25633m | 6.3m/s | 0°C | 0% | 0hPa | 0V | 00:00:00 | 00:00:00 | 00:00:00 | |
| SP3BTT-10 | 2026-08-30 12:35:27 | 51.20959 | 17.56244 | 312° | 18km/h | 25628m | 9.2m/s | 0°C | 0% | 0hPa | 0V | 00:00:00 | 00:00:00 | 00:00:00 | |
| SQ6EMJ | 2026-08-30 12:35:26 | 51.20957 | 17.56248 | 309° | 16km/h | 25621m | 10.5m/s | 0°C | 0% | 0hPa | 0V | 00:00:00 | 00:00:00 | 00:00:00 | |
| POL1PZ | 2026-08-30 12:35:20 | 51.20940 | 17.56301 | 276° | 15km/h | 25553m | 9.5m/s | 0°C | 0% | 0hPa | 0V | 00:00:00 | 00:00:00 | 00:00:00 | |
| PETON7-10 | 2026-08-30 12:35:14 | 51.20925 | 17.56349 | 294° | 24km/h | 25487m | 7.4m/s | 0°C | 0% | 0hPa | 0V | 00:00:00 | 00:00:00 | 00:00:00 | |
| SQ6EMJ | 2026-08-30 12:35:13 | 51.20923 | 17.56356 | 277° | 15km/h | 25479m | 6.8m/s | 0°C | 0% | 0hPa | 0V | 00:00:00 | 00:00:00 | 00:00:00 | |
| SQ6EMJ | 2026-08-30 12:35:09 | 51.20924 | 17.56400 | 262° | 22km/h | 25451m | 4.3m/s | 0°C | 0% | 0hPa | 0V | 00:00:00 | 00:00:00 | 00:00:00 | |
| OE5DRO-10 | 2026-08-30 12:35:08 | 51.20924 | 17.56400 | 261° | 18km/h | 25451m | 4.2m/s | 0°C | 0% | 0hPa | 0V | 00:00:00 | 00:00:00 | 00:00:00 | |
| SQ6EMJ | 2026-08-30 12:35:02 | 51.20935 | 17.56431 | 249° | 29km/h | 25420m | 4.0m/s | 0°C | 0% | 0hPa | 0V | 00:00:00 | 00:00:00 | 00:00:00 | |
| PETON7-10 | 2026-08-30 12:34:59 | 51.20936 | 17.56453 | 280° | 15km/h | 25405m | 5.8m/s | 0°C | 0% | 0hPa | 0V | 00:00:00 | 00:00:00 | 00:00:00 | |
| SP3BTT-10 | 2026-08-30 12:34:57 | 51.20935 | 17.56463 | 258° | 18km/h | 25388m | 7.3m/s | 0°C | 0% | 0hPa | 0V | 00:00:00 | 00:00:00 | 00:00:00 | |
| SQ6EMJ | 2026-08-30 12:34:56 | 51.20937 | 17.56470 | 243° | 22km/h | 25379m | 4.7m/s | 0°C | 0% | 0hPa | 0V | 00:00:00 | 00:00:00 | 00:00:00 | |
| SQ6EMJ | 2026-08-30 12:34:51 | 51.20955 | 17.56475 | 259° | 15km/h | 25355m | 8.5m/s | 0°C | 0% | 0hPa | 0V | 00:00:00 | 00:00:00 | 00:00:00 | |
| SQ6EMJ | 2026-08-30 12:34:46 | 51.20956 | 17.56496 | 190° | 16km/h | 25291m | 4.3m/s | 0°C | 0% | 0hPa | 0V | 00:00:00 | 00:00:00 | 00:00:00 | |
| PETON7-10 | 2026-08-30 12:34:42 | 51.20963 | 17.56501 | 208° | 15km/h | 25275m | 9.8m/s | 0°C | 0% | 0hPa | 0V | 00:00:00 | 00:00:00 | 00:00:00 | |
| POL1PZ | 2026-08-30 12:34:39 | 51.20969 | 17.56507 | 200° | 13km/h | 25247m | 10.7m/s | 0°C | 0% | 0hPa | 0V | 00:00:00 | 00:00:00 | 00:00:00 | |
| SQ6EMJ | 2026-08-30 12:34:33 | 51.20984 | 17.56512 | 192° | 27km/h | 25190m | 11.9m/s | 0°C | 0% | 0hPa | 0V | 00:00:00 | 00:00:00 | 00:00:00 | |
| PETON7-10 | 2026-08-30 12:34:27 | 51.20996 | 17.56507 | 248° | 20km/h | 25111m | 10.0m/s | 0°C | 0% | 0hPa | 0V | 00:00:00 | 00:00:00 | 00:00:00 | |
| SQ6EMJ | 2026-08-30 12:34:26 | 51.20997 | 17.56512 | 245° | 22km/h | 25087m | 10.8m/s | 0°C | 0% | 0hPa | 0V | 00:00:00 | 00:00:00 | 00:00:00 | |
| SQ6EMJ | 2026-08-30 12:34:21 | 51.21001 | 17.56526 | 211° | 40km/h | 25050m | -12.4m/s | 0°C | 0% | 0hPa | 0V | 00:00:00 | 00:00:00 | 00:00:00 | |
| POL1PZ | 2026-08-30 12:34:18 | 51.20986 | 17.56537 | 335° | 11km/h | 25060m | 9.5m/s | 0°C | 0% | 0hPa | 0V | 00:00:00 | 00:00:00 | 00:00:00 | |
| SQ6EMJ | 2026-08-30 12:34:15 | 51.20959 | 17.56534 | 230° | 42km/h | 24996m | 8.6m/s | 0°C | 0% | 0hPa | 0V | 00:00:00 | 00:00:00 | 00:00:00 | |
| PETON7-10 | 2026-08-30 12:34:12 | 51.20945 | 17.56522 | 166° | 37km/h | 24914m | 2.9m/s | 0°C | 0% | 0hPa | 0V | 00:00:00 | 00:00:00 | 00:00:00 | |
| SQ6EMJ | 2026-08-30 12:34:09 | 51.20936 | 17.56529 | 159° | 18km/h | 24880m | 10.4m/s | 0°C | 0% | 0hPa | 0V | 00:00:00 | 00:00:00 | 00:00:00 | |
| KRY50SP | 2026-08-30 12:34:08 | 51.20940 | 17.56525 | 185° | 16km/h | 24862m | 8.2m/s | 0°C | 0% | 0hPa | 0V | 00:00:00 | 00:00:00 | 00:00:00 | |
| SQ6EMJ | 2026-08-30 12:34:03 | 51.20911 | 17.56591 | 159° | 26km/h | 24744m | -14.7m/s | 0°C | 0% | 0hPa | 0V | 00:00:00 | 00:00:00 | 00:00:00 | |
| POL1PZ | 2026-08-30 12:33:58 | 51.20967 | 17.56569 | 155° | 40km/h | 24844m | -10.2m/s | 0°C | 0% | 0hPa | 0V | 00:00:00 | 00:00:00 | 00:00:00 | |
| PETON7-10 | 2026-08-30 12:33:57 | 51.20978 | 17.56564 | 108° | 15km/h | 24868m | -3.9m/s | 0°C | 0% | 0hPa | 0V | 00:00:00 | 00:00:00 | 00:00:00 | |
| SQ6EMJ | 2026-08-30 12:33:52 | 51.21006 | 17.56550 | 98° | 13km/h | 24912m | 3.7m/s | 0°C | 0% | 0hPa | 0V | 00:00:00 | 00:00:00 | 00:00:00 | |
| OE5DRO-10 | 2026-08-30 12:33:50 | 51.20999 | 17.56541 | 167° | 27km/h | 24895m | 3.0m/s | 0°C | 0% | 0hPa | 0V | 00:00:00 | 00:00:00 | 00:00:00 | |
| SQ6EMJ | 2026-08-30 12:33:47 | 51.20997 | 17.56537 | 83° | 5km/h | 24881m | 4.2m/s | 0°C | 0% | 0hPa | 0V | 00:00:00 | 00:00:00 | 00:00:00 | |
| PETON7-10 | 2026-08-30 12:33:42 | 51.20957 | 17.56558 | 172° | 29km/h | 24824m | -6.6m/s | 0°C | 0% | 0hPa | 0V | 00:00:00 | 00:00:00 | 00:00:00 | |
| SP3BTT-10 | 2026-08-30 12:33:41 | 51.20971 | 17.56553 | 167° | 27km/h | 24827m | -4.9m/s | 0°C | 0% | 0hPa | 0V | 00:00:00 | 00:00:00 | 00:00:00 | |
| POL1PZ | 2026-08-30 12:33:37 | 51.21017 | 17.56549 | 210° | 24km/h | 24856m | 4.2m/s | 0°C | 0% | 0hPa | 0V | 00:00:00 | 00:00:00 | 00:00:00 | |
| SQ6EMJ | 2026-08-30 12:33:36 | 51.21021 | 17.56551 | 194° | 29km/h | 24848m | 2.3m/s | 0°C | 0% | 0hPa | 0V | 00:00:00 | 00:00:00 | 00:00:00 | |
| OE5DRO-10 | 2026-08-30 12:33:31 | 51.21058 | 17.56540 | 192° | 13km/h | 24860m | 1.3m/s | 0°C | 0% | 0hPa | 0V | 00:00:00 | 00:00:00 | 00:00:00 | |
| SQ6EMJ | 2026-08-30 12:33:30 | 51.21064 | 17.56539 | 201° | 4km/h | 24863m | 6.2m/s | 0°C | 0% | 0hPa | 0V | 00:00:00 | 00:00:00 | 00:00:00 | |
| PETON7-10 | 2026-08-30 12:33:27 | 51.21068 | 17.56546 | 240° | 18km/h | 24846m | 5.6m/s | 0°C | 0% | 0hPa | 0V | 00:00:00 | 00:00:00 | 00:00:00 | |
| SQ6EMJ | 2026-08-30 12:33:24 | 51.21075 | 17.56564 | 214° | 22km/h | 24828m | 3.7m/s | 0°C | 0% | 0hPa | 0V | 00:00:00 | 00:00:00 | 00:00:00 | |
| SQ6EMJ | 2026-08-30 12:33:18 | 51.21088 | 17.56588 | 210° | 24km/h | 24796m | 2.0m/s | 0°C | 0% | 0hPa | 0V | 00:00:00 | 00:00:00 | 00:00:00 | |
| POL1PZ | 2026-08-30 12:33:16 | 51.21097 | 17.56595 | 224° | 22km/h | 24789m | 5.7m/s | 0°C | 0% | 0hPa | 0V | 00:00:00 | 00:00:00 | 00:00:00 | |
| KRY50SP | 2026-08-30 12:33:15 | 51.21101 | 17.56602 | 234° | 20km/h | 24783m | 7.6m/s | 0°C | 0% | 0hPa | 0V | 00:00:00 | 00:00:00 | 00:00:00 | |
| SQ6EMJ | 2026-08-30 12:33:13 | 51.21110 | 17.56618 | 223° | 29km/h | 24761m | 6.5m/s | 0°C | 0% | 0hPa | 0V | 00:00:00 | 00:00:00 | 00:00:00 | |
| PETON7-10 | 2026-08-30 12:33:12 | 51.21114 | 17.56625 | 210° | 13km/h | 24755m | 4.8m/s | 0°C | 0% | 0hPa | 0V | 00:00:00 | 00:00:00 | 00:00:00 | |
| SP3BTT-10 | 2026-08-30 12:33:11 | 51.21117 | 17.56629 | 178° | 15km/h | 24751m | 6.8m/s | 0°C | 0% | 0hPa | 0V | 00:00:00 | 00:00:00 | 00:00:00 | |
| SQ6EMJ | 2026-08-30 12:33:09 | 51.21123 | 17.56628 | 165° | 16km/h | 24734m | 8.6m/s | 0°C | 0% | 0hPa | 0V | 00:00:00 | 00:00:00 | 00:00:00 | |
| KRY50SP | 2026-08-30 12:33:08 | 51.21123 | 17.56628 | 165° | 16km/h | 24734m | 8.6m/s | 0°C | 0% | 0hPa | 0V | 00:00:00 | 00:00:00 | 00:00:00 | |
| OE5DRO-10 | 2026-08-30 12:33:05 | 51.21133 | 17.56638 | 191° | 26km/h | 24716m | 2.6m/s | 0°C | 0% | 0hPa | 0V | 00:00:00 | 00:00:00 | 00:00:00 | |
| SQ6EMJ | 2026-08-30 12:32:58 | 51.21134 | 17.56629 | 108° | 18km/h | 24718m | 1.9m/s | 0°C | 0% | 0hPa | 0V | 00:00:00 | 00:00:00 | 00:00:00 | |
| PETON7-10 | 2026-08-30 12:32:57 | 51.21133 | 17.56625 | 166° | 15km/h | 24721m | 2.9m/s | 0°C | 0% | 0hPa | 0V | 00:00:00 | 00:00:00 | 00:00:00 | |
| POL1PZ | 2026-08-30 12:32:55 | 51.21135 | 17.56624 | 197° | 16km/h | 24725m | 7.0m/s | 0°C | 0% | 0hPa | 0V | 00:00:00 | 00:00:00 | 00:00:00 | |
| SQ6EMJ | 2026-08-30 12:32:52 | 51.21131 | 17.56630 | 0° | 0km/h | 24727m | 8.1m/s | 0°C | 0% | 0hPa | 0V | 00:00:00 | 00:00:00 | 00:00:00 | |
| SQ6EMJ | 2026-08-30 12:32:47 | 51.21125 | 17.56616 | 146° | 26km/h | 24735m | 9.2m/s | 0°C | 0% | 0hPa | 0V | 00:00:00 | 00:00:00 | 00:00:00 | |
| PETON7-10 | 2026-08-30 12:32:42 | 51.21128 | 17.56584 | 126° | 27km/h | 24712m | 8.6m/s | 0°C | 0% | 0hPa | 0V | 00:00:00 | 00:00:00 | 00:00:00 | |
| SQ6EMJ | 2026-08-30 12:32:40 | 51.21102 | 17.56578 | 167° | 37km/h | 24754m | 16.3m/s | 0°C | 0% | 0hPa | 0V | 00:00:00 | 00:00:00 | 00:00:00 | |
| POL1PZ | 2026-08-30 12:32:35 | 51.21105 | 17.56547 | 178° | 55km/h | 24737m | 31.5m/s | 0°C | 0% | 0hPa | 0V | 00:00:00 | 00:00:00 | 00:00:00 | |
| SQ6EMJ | 2026-08-30 12:32:34 | 51.21121 | 17.56543 | 176° | 60km/h | 24698m | 30.0m/s | 0°C | 0% | 0hPa | 0V | 00:00:00 | 00:00:00 | 00:00:00 | |
| KRY50SP | 2026-08-30 12:32:29 | 51.21191 | 17.56520 | 171° | 40km/h | 24534m | 29.1m/s | 0°C | 0% | 0hPa | 0V | 00:00:00 | 00:00:00 | 00:00:00 | |
| SQ6EMJ | 2026-08-30 12:32:23 | 51.21282 | 17.56480 | 165° | 16km/h | 24339m | 15.4m/s | 0°C | 0% | 0hPa | 0V | 00:00:00 | 00:00:00 | 00:00:00 | |
| SQ6EMJ | 2026-08-30 12:32:18 | 51.21302 | 17.56468 | 139° | 9km/h | 24287m | 8.6m/s | 0°C | 0% | 0hPa | 0V | 00:00:00 | 00:00:00 | 00:00:00 | |
| POL1PZ | 2026-08-30 12:32:15 | 51.21321 | 17.56470 | 348° | 15km/h | 24249m | -4.8m/s | 0°C | 0% | 0hPa | 0V | 00:00:00 | 00:00:00 | 00:00:00 | |
| PETON7-10 | 2026-08-30 12:32:11 | 51.21299 | 17.56474 | 14° | 15km/h | 24296m | -5.7m/s | 0°C | 0% | 0hPa | 0V | 00:00:00 | 00:00:00 | 00:00:00 | |
| SQ6EMJ | 2026-08-30 12:32:05 | 51.21279 | 17.56424 | 128° | 15km/h | 24313m | 6.0m/s | 0°C | 0% | 0hPa | 0V | 00:00:00 | 00:00:00 | 00:00:00 | |
| SQ6EMJ | 2026-08-30 12:32:01 | 51.21275 | 17.56407 | 62° | 7km/h | 24311m | 11.3m/s | 0°C | 0% | 0hPa | 0V | 00:00:00 | 00:00:00 | 00:00:00 | |
| OE5DRO-10 | 2026-08-30 12:31:58 | 51.21279 | 17.56410 | 27° | 13km/h | 24282m | 3.4m/s | 0°C | 0% | 0hPa | 0V | 00:00:00 | 00:00:00 | 00:00:00 | |
| PETON7-10 | 2026-08-30 12:31:56 | 51.21274 | 17.56404 | 69° | 13km/h | 24259m | -0.4m/s | 0°C | 0% | 0hPa | 0V | 00:00:00 | 00:00:00 | 00:00:00 | |
| SQ6EMJ | 2026-08-30 12:31:55 | 51.21267 | 17.56376 | 123° | 22km/h | 24268m | 3.6m/s | 0°C | 0% | 0hPa | 0V | 00:00:00 | 00:00:00 | 00:00:00 | |
| POL1PZ | 2026-08-30 12:31:54 | 51.21267 | 17.56376 | 123° | 22km/h | 24268m | 3.6m/s | 0°C | 0% | 0hPa | 0V | 00:00:00 | 00:00:00 | 00:00:00 | |
| OM5KV | 2026-08-30 12:31:49 | 51.21249 | 17.56361 | 20° | 15km/h | 24253m | 7.5m/s | 0°C | 0% | 0hPa | 0V | 00:00:00 | 00:00:00 | 00:00:00 | |
| SQ6EMJ | 2026-08-30 12:31:44 | 51.21247 | 17.56345 | 141° | 5km/h | 24218m | 5.7m/s | 0°C | 0% | 0hPa | 0V | 00:00:00 | 00:00:00 | 00:00:00 | |
| KRY50SP | 2026-08-30 12:31:40 | 51.21251 | 17.56331 | 58° | 13km/h | 24179m | 5.9m/s | 0°C | 0% | 0hPa | 0V | 00:00:00 | 00:00:00 | 00:00:00 | |
| PETON7-10 | 2026-08-30 12:31:39 | 51.21251 | 17.56328 | 28° | 7km/h | 24169m | 6.0m/s | 0°C | 0% | 0hPa | 0V | 00:00:00 | 00:00:00 | 00:00:00 | |
| SQ6EMJ | 2026-08-30 12:31:38 | 51.21252 | 17.56327 | 0° | 0km/h | 24158m | 3.4m/s | 0°C | 0% | 0hPa | 0V | 00:00:00 | 00:00:00 | 00:00:00 | |
| OM5KV | 2026-08-30 12:31:34 | 51.21259 | 17.56321 | 50° | 7km/h | 24112m | 7.5m/s | 0°C | 0% | 0hPa | 0V | 00:00:00 | 00:00:00 | 00:00:00 | |
| POL1PZ | 2026-08-30 12:31:33 | 51.21260 | 17.56318 | 119° | 9km/h | 24101m | 11.4m/s | 0°C | 0% | 0hPa | 0V | 00:00:00 | 00:00:00 | 00:00:00 | |
| SQ6EMJ | 2026-08-30 12:31:32 | 51.21263 | 17.56316 | 0° | 0km/h | 24084m | 11.7m/s | 0°C | 0% | 0hPa | 0V | 00:00:00 | 00:00:00 | 00:00:00 | |
| SQ6EMJ | 2026-08-30 12:31:26 | 51.21277 | 17.56294 | 197° | 5km/h | 23985m | 8.9m/s | 0°C | 0% | 0hPa | 0V | 00:00:00 | 00:00:00 | 00:00:00 | |
| PETON7-10 | 2026-08-30 12:31:24 | 51.21288 | 17.56293 | 16° | 20km/h | 23941m | 4.8m/s | 0°C | 0% | 0hPa | 0V | 00:00:00 | 00:00:00 | 00:00:00 | |
| SQ6EMJ | 2026-08-30 12:31:22 | 51.21268 | 17.56280 | 14° | 31km/h | 23929m | -4.0m/s | 0°C | 0% | 0hPa | 0V | 00:00:00 | 00:00:00 | 00:00:00 | |
| OM5KV | 2026-08-30 12:31:16 | 51.21225 | 17.56267 | 81° | 9km/h | 23977m | -0.9m/s | 0°C | 0% | 0hPa | 0V | 00:00:00 | 00:00:00 | 00:00:00 | |
| KRY50SP | 2026-08-30 12:31:15 | 51.21224 | 17.56265 | 321° | 5km/h | 23976m | -2.0m/s | 0°C | 0% | 0hPa | 0V | 00:00:00 | 00:00:00 | 00:00:00 | |
| SQ6EMJ | 2026-08-30 12:31:14 | 51.21221 | 17.56267 | 339° | 26km/h | 23976m | -7.4m/s | 0°C | 0% | 0hPa | 0V | 00:00:00 | 00:00:00 | 00:00:00 | |
| POL1PZ | 2026-08-30 12:31:12 | 51.21206 | 17.56281 | 335° | 20km/h | 24006m | -1.9m/s | 0°C | 0% | 0hPa | 0V | 00:00:00 | 00:00:00 | 00:00:00 | |
| OM5KV | 2026-08-30 12:31:10 | 51.21193 | 17.56284 | 356° | 15km/h | 24019m | 0.6m/s | 0°C | 0% | 0hPa | 0V | 00:00:00 | 00:00:00 | 00:00:00 | |
| PETON7-10 | 2026-08-30 12:31:09 | 51.21189 | 17.56287 | 335° | 13km/h | 24023m | 1.7m/s | 0°C | 0% | 0hPa | 0V | 00:00:00 | 00:00:00 | 00:00:00 | |
| SQ6EMJ | 2026-08-30 12:31:02 | 51.21190 | 17.56294 | 282° | 16km/h | 24000m | 6.9m/s | 0°C | 0% | 0hPa | 0V | 00:00:00 | 00:00:00 | 00:00:00 | |
| KRY50SP | 2026-08-30 12:31:01 | 51.21188 | 17.56301 | 327° | 27km/h | 23994m | 3.7m/s | 0°C | 0% | 0hPa | 0V | 00:00:00 | 00:00:00 | 00:00:00 | |
| OM5KV | 2026-08-30 12:30:59 | 51.21178 | 17.56310 | 322° | 15km/h | 23985m | 4.9m/s | 0°C | 0% | 0hPa | 0V | 00:00:00 | 00:00:00 | 00:00:00 | |
| SQ6EMJ | 2026-08-30 12:30:56 | 51.21177 | 17.56321 | 263° | 13km/h | 23972m | 3.5m/s | 0°C | 0% | 0hPa | 0V | 00:00:00 | 00:00:00 | 00:00:00 | |
| SP3BTT-10 | 2026-08-30 12:30:55 | 51.21178 | 17.56326 | 228° | 7km/h | 23969m | 6.0m/s | 0°C | 0% | 0hPa | 0V | 00:00:00 | 00:00:00 | 00:00:00 | |
| PETON7-10 | 2026-08-30 12:30:53 | 51.21180 | 17.56330 | 298° | 13km/h | 23954m | 7.6m/s | 0°C | 0% | 0hPa | 0V | 00:00:00 | 00:00:00 | 00:00:00 | |
| POL1PZ | 2026-08-30 12:30:52 | 51.21179 | 17.56331 | 315° | 7km/h | 23948m | 3.9m/s | 0°C | 0% | 0hPa | 0V | 00:00:00 | 00:00:00 | 00:00:00 | |
| SQ6EMJ | 2026-08-30 12:30:51 | 51.21178 | 17.56335 | 294° | 13km/h | 23941m | 7.4m/s | 0°C | 0% | 0hPa | 0V | 00:00:00 | 00:00:00 | 00:00:00 | |
| KRY50SP | 2026-08-30 12:30:49 | 51.21177 | 17.56349 | 277° | 20km/h | 23931m | 4.3m/s | 0°C | 0% | 0hPa | 0V | 00:00:00 | 00:00:00 | 00:00:00 | |
| SQ6EMJ | 2026-08-30 12:30:45 | 51.21178 | 17.56368 | 235° | 15km/h | 23906m | 7.8m/s | 0°C | 0% | 0hPa | 0V | 00:00:00 | 00:00:00 | 00:00:00 | |
| OM5KV | 2026-08-30 12:30:43 | 51.21183 | 17.56379 | 238° | 16km/h | 23894m | 5.8m/s | 0°C | 0% | 0hPa | 0V | 00:00:00 | 00:00:00 | 00:00:00 | |
| OM5KV | 2026-08-30 12:30:42 | 51.21184 | 17.56384 | 256° | 9km/h | 23887m | 7.6m/s | 0°C | 0% | 0hPa | 0V | 00:00:00 | 00:00:00 | 00:00:00 | |
| KRY50SP | 2026-08-30 12:30:41 | 51.21185 | 17.56387 | 281° | 7km/h | 23881m | 4.3m/s | 0°C | 0% | 0hPa | 0V | 00:00:00 | 00:00:00 | 00:00:00 | |
| SQ6EMJ | 2026-08-30 12:30:40 | 51.21184 | 17.56391 | 284° | 11km/h | 23876m | 5.8m/s | 0°C | 0% | 0hPa | 0V | 00:00:00 | 00:00:00 | 00:00:00 | |
| PETON7-10 | 2026-08-30 12:30:38 | 51.21184 | 17.56404 | 268° | 15km/h | 23864m | 5.1m/s | 0°C | 0% | 0hPa | 0V | 00:00:00 | 00:00:00 | 00:00:00 | |
| OM5KV | 2026-08-30 12:30:37 | 51.21184 | 17.56412 | 264° | 18km/h | 23859m | 5.0m/s | 0°C | 0% | 0hPa | 0V | 00:00:00 | 00:00:00 | 00:00:00 | |
| SQ6EMJ | 2026-08-30 12:30:34 | 51.21187 | 17.56422 | 221° | 7km/h | 23841m | 4.0m/s | 0°C | 0% | 0hPa | 0V | 00:00:00 | 00:00:00 | 00:00:00 | |
| OM5KV | 2026-08-30 12:30:30 | 51.21191 | 17.56445 | 272° | 16km/h | 23819m | 7.1m/s | 0°C | 0% | 0hPa | 0V | 00:00:00 | 00:00:00 | 00:00:00 | |
| SQ6EMJ | 2026-08-30 12:30:29 | 51.21191 | 17.56450 | 294° | 9km/h | 23811m | 7.1m/s | 0°C | 0% | 0hPa | 0V | 00:00:00 | 00:00:00 | 00:00:00 | |
| SQ6EMJ | 2026-08-30 12:30:25 | 51.21200 | 17.56466 | 197° | 15km/h | 23781m | 7.6m/s | 0°C | 0% | 0hPa | 0V | 00:00:00 | 00:00:00 | 00:00:00 | |
| OM5KV | 2026-08-30 12:30:24 | 51.21200 | 17.56466 | 197° | 15km/h | 23781m | 7.6m/s | 0°C | 0% | 0hPa | 0V | 00:00:00 | 00:00:00 | 00:00:00 | |
| PETON7-10 | 2026-08-30 12:30:20 | 51.21209 | 17.56477 | 253° | 13km/h | 23757m | 5.5m/s | 0°C | 0% | 0hPa | 0V | 00:00:00 | 00:00:00 | 00:00:00 | |
| OM5KV | 2026-08-30 12:30:19 | 51.21210 | 17.56485 | 260° | 20km/h | 23752m | 5.1m/s | 0°C | 0% | 0hPa | 0V | 00:00:00 | 00:00:00 | 00:00:00 | |
| SQ6EMJ | 2026-08-30 12:30:18 | 51.21211 | 17.56492 | 261° | 15km/h | 23745m | 6.5m/s | 0°C | 0% | 0hPa | 0V | 00:00:00 | 00:00:00 | 00:00:00 | |
| KRY50SP | 2026-08-30 12:30:16 | 51.21215 | 17.56499 | 209° | 15km/h | 23735m | 5.3m/s | 0°C | 0% | 0hPa | 0V | 00:00:00 | 00:00:00 | 00:00:00 | |
| OM5KV | 2026-08-30 12:30:13 | 51.21230 | 17.56508 | 191° | 18km/h | 23718m | 5.0m/s | 0°C | 0% | 0hPa | 0V | 00:00:00 | 00:00:00 | 00:00:00 | |
| POL1PZ | 2026-08-30 12:30:11 | 51.21237 | 17.56507 | 153° | 7km/h | 23706m | 4.9m/s | 0°C | 0% | 0hPa | 0V | 00:00:00 | 00:00:00 | 00:00:00 | |
| SQ6EMJ | 2026-08-30 12:30:08 | 51.21245 | 17.56510 | 223° | 5km/h | 23684m | 6.3m/s | 0°C | 0% | 0hPa | 0V | 00:00:00 | 00:00:00 | 00:00:00 | |
| OM5KV | 2026-08-30 12:30:07 | 51.21245 | 17.56510 | 223° | 5km/h | 23684m | 6.3m/s | 0°C | 0% | 0hPa | 0V | 00:00:00 | 00:00:00 | 00:00:00 | |
| PETON7-10 | 2026-08-30 12:30:05 | 51.21246 | 17.56513 | 229° | 7km/h | 23672m | 4.3m/s | 0°C | 0% | 0hPa | 0V | 00:00:00 | 00:00:00 | 00:00:00 | |
| OM5KV | 2026-08-30 12:30:01 | 51.21256 | 17.56522 | 174° | 9km/h | 23651m | 7.2m/s | 0°C | 0% | 0hPa | 0V | 00:00:00 | 00:00:00 | 00:00:00 | |
| KRY50SP | 2026-08-30 12:30:00 | 51.21258 | 17.56521 | 89° | 7km/h | 23645m | 5.5m/s | 0°C | 0% | 0hPa | 0V | 00:00:00 | 00:00:00 | 00:00:00 | |
| SQ6EMJ | 2026-08-30 12:29:56 | 51.21255 | 17.56517 | 11° | 5km/h | 23615m | 8.1m/s | 0°C | 0% | 0hPa | 0V | 00:00:00 | 00:00:00 | 00:00:00 | |
| SP3BTT-10 | 2026-08-30 12:29:55 | 51.21255 | 17.56517 | 10° | 13km/h | 23615m | 8.1m/s | 0°C | 0% | 0hPa | 0V | 00:00:00 | 00:00:00 | 00:00:00 | |
| KRY50SP | 2026-08-30 12:29:53 | 51.21252 | 17.56516 | 318° | 2km/h | 23604m | 6.4m/s | 0°C | 0% | 0hPa | 0V | 00:00:00 | 00:00:00 | 00:00:00 | |
| PETON7-10 | 2026-08-30 12:29:50 | 51.21253 | 17.56518 | 29° | 9km/h | 23587m | 6.5m/s | 0°C | 0% | 0hPa | 0V | 00:00:00 | 00:00:00 | 00:00:00 | |
| SQ6EMJ | 2026-08-30 12:29:49 | 51.21252 | 17.56516 | 45° | 13km/h | 23580m | 7.6m/s | 0°C | 0% | 0hPa | 0V | 00:00:00 | 00:00:00 | 00:00:00 | |
| KRY50SP | 2026-08-30 12:29:47 | 51.21246 | 17.56510 | 31° | 13km/h | 23570m | 5.7m/s | 0°C | 0% | 0hPa | 0V | 00:00:00 | 00:00:00 | 00:00:00 | |
| OM5KV | 2026-08-30 12:29:45 | 51.21244 | 17.56510 | 299° | 5km/h | 23559m | 5.0m/s | 0°C | 0% | 0hPa | 0V | 00:00:00 | 00:00:00 | 00:00:00 | |
| OM5KV | 2026-08-30 12:29:44 | 51.21243 | 17.56512 | 309° | 7km/h | 23554m | 6.1m/s | 0°C | 0% | 0hPa | 0V | 00:00:00 | 00:00:00 | 00:00:00 | |
| SQ6EMJ | 2026-08-30 12:29:43 | 51.21241 | 17.56514 | 336° | 7km/h | 23547m | 7.1m/s | 0°C | 0% | 0hPa | 0V | 00:00:00 | 00:00:00 | 00:00:00 | |
| KRY50SP | 2026-08-30 12:29:40 | 51.21237 | 17.56513 | 0° | 0km/h | 23531m | 6.1m/s | 0°C | 0% | 0hPa | 0V | 00:00:00 | 00:00:00 | 00:00:00 | |
| OM5KV | 2026-08-30 12:29:39 | 51.21237 | 17.56513 | 264° | 2km/h | 23525m | 5.5m/s | 0°C | 0% | 0hPa | 0V | 00:00:00 | 00:00:00 | 00:00:00 | |
| SQ6EMJ | 2026-08-30 12:29:38 | 51.21236 | 17.56514 | 335° | 7km/h | 23519m | 5.7m/s | 0°C | 0% | 0hPa | 0V | 00:00:00 | 00:00:00 | 00:00:00 | |
| OM5KV | 2026-08-30 12:29:37 | 51.21234 | 17.56515 | 356° | 13km/h | 23513m | 6.9m/s | 0°C | 0% | 0hPa | 0V | 00:00:00 | 00:00:00 | 00:00:00 | |
| PETON7-10 | 2026-08-30 12:29:35 | 51.21227 | 17.56516 | 348° | 9km/h | 23503m | 4.5m/s | 0°C | 0% | 0hPa | 0V | 00:00:00 | 00:00:00 | 00:00:00 | |
| KRY50SP | 2026-08-30 12:29:34 | 51.21225 | 17.56518 | 312° | 9km/h | 23496m | 8.0m/s | 0°C | 0% | 0hPa | 0V | 00:00:00 | 00:00:00 | 00:00:00 | |
| OM5KV | 2026-08-30 12:29:31 | 51.21223 | 17.56527 | 308° | 7km/h | 23480m | 7.9m/s | 0°C | 0% | 0hPa | 0V | 00:00:00 | 00:00:00 | 00:00:00 | |
| POL1PZ | 2026-08-30 12:29:30 | 51.21221 | 17.56529 | 352° | 15km/h | 23472m | 6.2m/s | 0°C | 0% | 0hPa | 0V | 00:00:00 | 00:00:00 | 00:00:00 | |
| SQ6EMJ | 2026-08-30 12:29:28 | 51.21215 | 17.56532 | 322° | 9km/h | 23460m | 6.5m/s | 0°C | 0% | 0hPa | 0V | 00:00:00 | 00:00:00 | 00:00:00 | |
| KRY50SP | 2026-08-30 12:29:27 | 51.21214 | 17.56534 | 324° | 11km/h | 23454m | 4.4m/s | 0°C | 0% | 0hPa | 0V | 00:00:00 | 00:00:00 | 00:00:00 | |
| SQ6EMJ | 2026-08-30 12:29:23 | 51.21206 | 17.56540 | 286° | 5km/h | 23431m | 7.6m/s | 0°C | 0% | 0hPa | 0V | 00:00:00 | 00:00:00 | 00:00:00 | |
| KRY50SP | 2026-08-30 12:29:22 | 51.21206 | 17.56542 | 255° | 9km/h | 23425m | 4.4m/s | 0°C | 0% | 0hPa | 0V | 00:00:00 | 00:00:00 | 00:00:00 | |
| PETON7-10 | 2026-08-30 12:29:21 | 51.21204 | 17.56550 | 317° | 11km/h | 23414m | 7.5m/s | 0°C | 0% | 0hPa | 0V | 00:00:00 | 00:00:00 | 00:00:00 | |
| OM5KV | 2026-08-30 12:29:18 | 51.21197 | 17.56555 | 333° | 16km/h | 23403m | 4.5m/s | 0°C | 0% | 0hPa | 0V | 00:00:00 | 00:00:00 | 00:00:00 | |
| SQ6EMJ | 2026-08-30 12:29:17 | 51.21194 | 17.56559 | 311° | 15km/h | 23397m | 6.8m/s | 0°C | 0% | 0hPa | 0V | 00:00:00 | 00:00:00 | 00:00:00 | |
| KRY50SP | 2026-08-30 12:29:16 | 51.21193 | 17.56564 | 276° | 15km/h | 23391m | 5.1m/s | 0°C | 0% | 0hPa | 0V | 00:00:00 | 00:00:00 | 00:00:00 | |
| OM5KV | 2026-08-30 12:29:14 | 51.21192 | 17.56576 | 289° | 13km/h | 23380m | 7.8m/s | 0°C | 0% | 0hPa | 0V | 00:00:00 | 00:00:00 | 00:00:00 | |
| KRY50SP | 2026-08-30 12:29:11 | 51.21193 | 17.56588 | 236° | 13km/h | 23364m | 7.0m/s | 0°C | 0% | 0hPa | 0V | 00:00:00 | 00:00:00 | 00:00:00 | |
| POL1PZ | 2026-08-30 12:29:09 | 51.21196 | 17.56595 | 265° | 7km/h | 23354m | 5.7m/s | 0°C | 0% | 0hPa | 0V | 00:00:00 | 00:00:00 | 00:00:00 | |
| OM5KV | 2026-08-30 12:29:07 | 51.21192 | 17.56599 | 337° | 13km/h | 23342m | 4.7m/s | 0°C | 0% | 0hPa | 0V | 00:00:00 | 00:00:00 | 00:00:00 | |
| PETON7-10 | 2026-08-30 12:29:05 | 51.21189 | 17.56607 | 271° | 15km/h | 23332m | 6.4m/s | 0°C | 0% | 0hPa | 0V | 00:00:00 | 00:00:00 | 00:00:00 | |
| OM5KV | 2026-08-30 12:29:00 | 51.21203 | 17.56634 | 203° | 9km/h | 23304m | 5.6m/s | 0°C | 0% | 0hPa | 0V | 00:00:00 | 00:00:00 | 00:00:00 | |
| KRY50SP | 2026-08-30 12:28:56 | 51.21213 | 17.56646 | 252° | 15km/h | 23282m | 6.0m/s | 0°C | 0% | 0hPa | 0V | 00:00:00 | 00:00:00 | 00:00:00 | |
| SQ6EMJ | 2026-08-30 12:28:54 | 51.21212 | 17.56656 | 280° | 13km/h | 23270m | 4.5m/s | 0°C | 0% | 0hPa | 0V | 00:00:00 | 00:00:00 | 00:00:00 | |
| KRY50SP | 2026-08-30 12:28:51 | 51.21221 | 17.56670 | 198° | 26km/h | 23253m | 4.7m/s | 0°C | 0% | 0hPa | 0V | 00:00:00 | 00:00:00 | 00:00:00 | |
| KRY50SP | 2026-08-30 12:28:45 | 51.21242 | 17.56675 | 225° | 13km/h | 23219m | 4.6m/s | 0°C | 0% | 0hPa | 0V | 00:00:00 | 00:00:00 | 00:00:00 | |
| PETON7-10 | 2026-08-30 12:28:44 | 51.21243 | 17.56678 | 238° | 13km/h | 23214m | 6.9m/s | 0°C | 0% | 0hPa | 0V | 00:00:00 | 00:00:00 | 00:00:00 | |
| SQ6EMJ | 2026-08-30 12:28:43 | 51.21244 | 17.56681 | 235° | 7km/h | 23207m | 5.2m/s | 0°C | 0% | 0hPa | 0V | 00:00:00 | 00:00:00 | 00:00:00 | |
| SP3BTT-10 | 2026-08-30 12:28:39 | 51.21265 | 17.56680 | 168° | 11km/h | 23186m | 3.8m/s | 0°C | 0% | 0hPa | 0V | 00:00:00 | 00:00:00 | 00:00:00 | |
| SQ6EMJ | 2026-08-30 12:28:37 | 51.21277 | 17.56673 | 150° | 16km/h | 23175m | 6.3m/s | 0°C | 0% | 0hPa | 0V | 00:00:00 | 00:00:00 | 00:00:00 | |
| SQ6EMJ | 2026-08-30 12:28:33 | 51.21284 | 17.56676 | 191° | 11km/h | 23148m | 3.9m/s | 0°C | 0% | 0hPa | 0V | 00:00:00 | 00:00:00 | 00:00:00 | |
| OM5KV | 2026-08-30 12:28:32 | 51.21284 | 17.56676 | 191° | 11km/h | 23148m | 3.9m/s | 0°C | 0% | 0hPa | 0V | 00:00:00 | 00:00:00 | 00:00:00 | |
| PETON7-10 | 2026-08-30 12:28:29 | 51.21288 | 17.56667 | 89° | 9km/h | 23130m | 5.7m/s | 0°C | 0% | 0hPa | 0V | 00:00:00 | 00:00:00 | 00:00:00 | |
| KRY50SP | 2026-08-30 12:28:28 | 51.21289 | 17.56660 | 106° | 16km/h | 23125m | 5.2m/s | 0°C | 0% | 0hPa | 0V | 00:00:00 | 00:00:00 | 00:00:00 | |
| SQ6EMJ | 2026-08-30 12:28:26 | 51.21293 | 17.56652 | 173° | 11km/h | 23114m | 4.3m/s | 0°C | 0% | 0hPa | 0V | 00:00:00 | 00:00:00 | 00:00:00 | |
| KRY50SP | 2026-08-30 12:28:22 | 51.21292 | 17.56658 | 359° | 11km/h | 23091m | 5.4m/s | 0°C | 0% | 0hPa | 0V | 00:00:00 | 00:00:00 | 00:00:00 | |
| SQ6EMJ | 2026-08-30 12:28:20 | 51.21290 | 17.56655 | 108° | 7km/h | 23079m | 6.1m/s | 0°C | 0% | 0hPa | 0V | 00:00:00 | 00:00:00 | 00:00:00 | |
| OM5KV | 2026-08-30 12:28:19 | 51.21291 | 17.56651 | 121° | 13km/h | 23074m | 4.4m/s | 0°C | 0% | 0hPa | 0V | 00:00:00 | 00:00:00 | 00:00:00 | |
| KRY50SP | 2026-08-30 12:28:16 | 51.21292 | 17.56639 | 61° | 5km/h | 23058m | 4.7m/s | 0°C | 0% | 0hPa | 0V | 00:00:00 | 00:00:00 | 00:00:00 | |
| SQ6EMJ | 2026-08-30 12:28:15 | 51.21292 | 17.56637 | 0° | 0km/h | 23053m | 5.8m/s | 0°C | 0% | 0hPa | 0V | 00:00:00 | 00:00:00 | 00:00:00 | |
| PETON7-10 | 2026-08-30 12:28:13 | 51.21293 | 17.56637 | 161° | 11km/h | 23041m | 4.2m/s | 0°C | 0% | 0hPa | 0V | 00:00:00 | 00:00:00 | 00:00:00 | |
| KRY50SP | 2026-08-30 12:28:11 | 51.21292 | 17.56634 | 36° | 13km/h | 23030m | 6.8m/s | 0°C | 0% | 0hPa | 0V | 00:00:00 | 00:00:00 | 00:00:00 | |
| OM5KV | 2026-08-30 12:28:10 | 51.21288 | 17.56629 | 40° | 20km/h | 23024m | 5.4m/s | 0°C | 0% | 0hPa | 0V | 00:00:00 | 00:00:00 | 00:00:00 | |
| SP3BTT-10 | 2026-08-30 12:28:09 | 51.21285 | 17.56624 | 52° | 16km/h | 23018m | 5.6m/s | 0°C | 0% | 0hPa | 0V | 00:00:00 | 00:00:00 | 00:00:00 | |
| POL1PZ | 2026-08-30 12:28:07 | 51.21282 | 17.56610 | 98° | 7km/h | 23002m | 4.5m/s | 0°C | 0% | 0hPa | 0V | 00:00:00 | 00:00:00 | 00:00:00 | |
| KRY50SP | 2026-08-30 12:28:06 | 51.21282 | 17.56610 | 98° | 7km/h | 23002m | 4.5m/s | 0°C | 0% | 0hPa | 0V | 00:00:00 | 00:00:00 | 00:00:00 | |
| SQ6EMJ | 2026-08-30 12:28:04 | 51.21280 | 17.56606 | 20° | 11km/h | 22990m | 6.0m/s | 0°C | 0% | 0hPa | 0V | 00:00:00 | 00:00:00 | 00:00:00 | |
| KRY50SP | 2026-08-30 12:28:00 | 51.21271 | 17.56595 | 45° | 15km/h | 22968m | 5.6m/s | 0°C | 0% | 0hPa | 0V | 00:00:00 | 00:00:00 | 00:00:00 | |
| SQ6EMJ | 2026-08-30 12:27:59 | 51.21268 | 17.56591 | 36° | 20km/h | 22962m | 6.8m/s | 0°C | 0% | 0hPa | 0V | 00:00:00 | 00:00:00 | 00:00:00 | |
| PETON7-10 | 2026-08-30 12:27:58 | 51.21264 | 17.56587 | 24° | 16km/h | 22957m | 3.8m/s | 0°C | 0% | 0hPa | 0V | 00:00:00 | 00:00:00 | 00:00:00 | |
| KRY50SP | 2026-08-30 12:27:55 | 51.21259 | 17.56586 | 237° | 5km/h | 22940m | 5.0m/s | 0°C | 0% | 0hPa | 0V | 00:00:00 | 00:00:00 | 00:00:00 | |
| SQ6EMJ | 2026-08-30 12:27:53 | 51.21258 | 17.56590 | 325° | 11km/h | 22929m | 6.5m/s | 0°C | 0% | 0hPa | 0V | 00:00:00 | 00:00:00 | 00:00:00 | |
| KRY50SP | 2026-08-30 12:27:49 | 51.21240 | 17.56591 | 16° | 15km/h | 22907m | 5.7m/s | 0°C | 0% | 0hPa | 0V | 00:00:00 | 00:00:00 | 00:00:00 | |
| SQ6EMJ | 2026-08-30 12:27:48 | 51.21233 | 17.56588 | 15° | 18km/h | 22896m | 5.9m/s | 0°C | 0% | 0hPa | 0V | 00:00:00 | 00:00:00 | 00:00:00 | |
| POL1PZ | 2026-08-30 12:27:45 | 51.21222 | 17.56586 | 357° | 22km/h | 22884m | 4.1m/s | 0°C | 0% | 0hPa | 0V | 00:00:00 | 00:00:00 | 00:00:00 | |
| KRY50SP | 2026-08-30 12:27:43 | 51.21213 | 17.56589 | 332° | 13km/h | 22873m | 6.4m/s | 0°C | 0% | 0hPa | 0V | 00:00:00 | 00:00:00 | 00:00:00 | |
| SQ6EMJ | 2026-08-30 12:27:41 | 51.21206 | 17.56594 | 342° | 18km/h | 22864m | 5.9m/s | 0°C | 0% | 0hPa | 0V | 00:00:00 | 00:00:00 | 00:00:00 | |
| PETON7-10 | 2026-08-30 12:27:40 | 51.21201 | 17.56596 | 352° | 26km/h | 22857m | 7.3m/s | 0°C | 0% | 0hPa | 0V | 00:00:00 | 00:00:00 | 00:00:00 | |
| KRY50SP | 2026-08-30 12:27:38 | 51.21188 | 17.56598 | 359° | 26km/h | 22845m | 7.7m/s | 0°C | 0% | 0hPa | 0V | 00:00:00 | 00:00:00 | 00:00:00 | |
| OE5DRO-10 | 2026-08-30 12:27:29 | 51.21132 | 17.56642 | 329° | 22km/h | 22790m | 4.1m/s | 0°C | 0% | 0hPa | 0V | 00:00:00 | 00:00:00 | 00:00:00 | |
| KRY50SP | 2026-08-30 12:27:27 | 51.21127 | 17.56648 | 325° | 26km/h | 22786m | 5.1m/s | 0°C | 0% | 0hPa | 0V | 00:00:00 | 00:00:00 | 00:00:00 | |
| POL1PZ | 2026-08-30 12:27:24 | 51.21113 | 17.56664 | 334° | 24km/h | 22769m | 6.1m/s | 0°C | 0% | 0hPa | 0V | 00:00:00 | 00:00:00 | 00:00:00 | |
| SQ6EMJ | 2026-08-30 12:27:23 | 51.21107 | 17.56669 | 341° | 29km/h | 22762m | 6.6m/s | 0°C | 0% | 0hPa | 0V | 00:00:00 | 00:00:00 | 00:00:00 | |
| PETON7-10 | 2026-08-30 12:27:22 | 51.21100 | 17.56673 | 337° | 26km/h | 22756m | 4.4m/s | 0°C | 0% | 0hPa | 0V | 00:00:00 | 00:00:00 | 00:00:00 | |
| KRY50SP | 2026-08-30 12:27:21 | 51.21093 | 17.56679 | 328° | 29km/h | 22751m | 6.4m/s | 0°C | 0% | 0hPa | 0V | 00:00:00 | 00:00:00 | 00:00:00 | |
| SQ6EMJ | 2026-08-30 12:27:17 | 51.21073 | 17.56715 | 315° | 31km/h | 22727m | 5.4m/s | 0°C | 0% | 0hPa | 0V | 00:00:00 | 00:00:00 | 00:00:00 | |
| KRY50SP | 2026-08-30 12:27:15 | 51.21065 | 17.56732 | 301° | 22km/h | 22716m | 7.6m/s | 0°C | 0% | 0hPa | 0V | 00:00:00 | 00:00:00 | 00:00:00 | |
| SQ6EMJ | 2026-08-30 12:27:12 | 51.21058 | 17.56753 | 312° | 24km/h | 22699m | 7.3m/s | 0°C | 0% | 0hPa | 0V | 00:00:00 | 00:00:00 | 00:00:00 | |
| KRY50SP | 2026-08-30 12:27:09 | 51.21045 | 17.56774 | 308° | 20km/h | 22681m | 6.1m/s | 0°C | 0% | 0hPa | 0V | 00:00:00 | 00:00:00 | 00:00:00 | |
| SQ6EMJ | 2026-08-30 12:27:07 | 51.21040 | 17.56788 | 300° | 22km/h | 22672m | 5.6m/s | 0°C | 0% | 0hPa | 0V | 00:00:00 | 00:00:00 | 00:00:00 | |
| PETON7-10 | 2026-08-30 12:27:06 | 51.21037 | 17.56795 | 309° | 16km/h | 22666m | 6.6m/s | 0°C | 0% | 0hPa | 0V | 00:00:00 | 00:00:00 | 00:00:00 | |
| POL1PZ | 2026-08-30 12:27:03 | 51.21032 | 17.56815 | 263° | 16km/h | 22648m | 6.2m/s | 0°C | 0% | 0hPa | 0V | 00:00:00 | 00:00:00 | 00:00:00 | |
| SQ6EMJ | 2026-08-30 12:27:01 | 51.21033 | 17.56829 | 280° | 18km/h | 22637m | 7.0m/s | 0°C | 0% | 0hPa | 0V | 00:00:00 | 00:00:00 | 00:00:00 | |
| KRY50SP | 2026-08-30 12:26:57 | 51.21026 | 17.56858 | 276° | 16km/h | 22614m | 5.4m/s | 0°C | 0% | 0hPa | 0V | 00:00:00 | 00:00:00 | 00:00:00 | |
| SQ6EMJ | 2026-08-30 12:26:55 | 51.21024 | 17.56869 | 303° | 13km/h | 22603m | 6.7m/s | 0°C | 0% | 0hPa | 0V | 00:00:00 | 00:00:00 | 00:00:00 | |
| SP3BTT-10 | 2026-08-30 12:26:54 | 51.21023 | 17.56872 | 307° | 18km/h | 22598m | 3.8m/s | 0°C | 0% | 0hPa | 0V | 00:00:00 | 00:00:00 | 00:00:00 | |
| KRY50SP | 2026-08-30 12:26:52 | 51.21023 | 17.56877 | 214° | 13km/h | 22587m | 7.6m/s | 0°C | 0% | 0hPa | 0V | 00:00:00 | 00:00:00 | 00:00:00 | |
| PETON7-10 | 2026-08-30 12:26:51 | 51.21027 | 17.56880 | 215° | 15km/h | 22581m | 4.8m/s | 0°C | 0% | 0hPa | 0V | 00:00:00 | 00:00:00 | 00:00:00 | |
| SQ6EMJ | 2026-08-30 12:26:50 | 51.21030 | 17.56885 | 230° | 18km/h | 22575m | 5.4m/s | 0°C | 0% | 0hPa | 0V | 00:00:00 | 00:00:00 | 00:00:00 | |
| OE5DRO-10 | 2026-08-30 12:26:49 | 51.21032 | 17.56898 | 272° | 15km/h | 22564m | 5.4m/s | 0°C | 0% | 0hPa | 0V | 00:00:00 | 00:00:00 | 00:00:00 | |
| KRY50SP | 2026-08-30 12:26:46 | 51.21033 | 17.56912 | 252° | 16km/h | 22552m | 6.1m/s | 0°C | 0% | 0hPa | 0V | 00:00:00 | 00:00:00 | 00:00:00 | |
| SQ6EMJ | 2026-08-30 12:26:45 | 51.21034 | 17.56917 | 246° | 11km/h | 22547m | 3.6m/s | 0°C | 0% | 0hPa | 0V | 00:00:00 | 00:00:00 | 00:00:00 | |
| POL1PZ | 2026-08-30 12:26:43 | 51.21035 | 17.56923 | 293° | 4km/h | 22535m | 6.0m/s | 0°C | 0% | 0hPa | 0V | 00:00:00 | 00:00:00 | 00:00:00 | |
| KRY50SP | 2026-08-30 12:26:41 | 51.21037 | 17.56924 | 193° | 9km/h | 22524m | 7.0m/s | 0°C | 0% | 0hPa | 0V | 00:00:00 | 00:00:00 | 00:00:00 | |
| SQ6EMJ | 2026-08-30 12:26:40 | 51.21040 | 17.56925 | 188° | 16km/h | 22518m | 5.4m/s | 0°C | 0% | 0hPa | 0V | 00:00:00 | 00:00:00 | 00:00:00 | |
| PETON7-10 | 2026-08-30 12:26:36 | 51.21053 | 17.56934 | 204° | 9km/h | 22496m | 4.3m/s | 0°C | 0% | 0hPa | 0V | 00:00:00 | 00:00:00 | 00:00:00 | |
| SQ6EMJ | 2026-08-30 12:26:34 | 51.21058 | 17.56933 | 159° | 11km/h | 22486m | 4.8m/s | 0°C | 0% | 0hPa | 0V | 00:00:00 | 00:00:00 | 00:00:00 | |
| KRY50SP | 2026-08-30 12:26:30 | 51.21063 | 17.56928 | 155° | 7km/h | 22466m | 4.8m/s | 0°C | 0% | 0hPa | 0V | 00:00:00 | 00:00:00 | 00:00:00 | |
| SQ6EMJ | 2026-08-30 12:26:29 | 51.21066 | 17.56926 | 161° | 15km/h | 22460m | 6.6m/s | 0°C | 0% | 0hPa | 0V | 00:00:00 | 00:00:00 | 00:00:00 | |
| KRY50SP | 2026-08-30 12:26:25 | 51.21078 | 17.56918 | 186° | 4km/h | 22438m | 4.7m/s | 0°C | 0% | 0hPa | 0V | 00:00:00 | 00:00:00 | 00:00:00 | |
| SQ6EMJ | 2026-08-30 12:26:24 | 51.21080 | 17.56918 | 188° | 7km/h | 22433m | 5.5m/s | 0°C | 0% | 0hPa | 0V | 00:00:00 | 00:00:00 | 00:00:00 | |
| POL1PZ | 2026-08-30 12:26:22 | 51.21085 | 17.56919 | 180° | 13km/h | 22422m | 3.8m/s | 0°C | 0% | 0hPa | 0V | 00:00:00 | 00:00:00 | 00:00:00 | |
| PETON7-10 | 2026-08-30 12:26:21 | 51.21088 | 17.56918 | 166° | 18km/h | 22417m | 5.6m/s | 0°C | 0% | 0hPa | 0V | 00:00:00 | 00:00:00 | 00:00:00 | |
| KRY50SP | 2026-08-30 12:26:20 | 51.21090 | 17.56916 | 147° | 7km/h | 22411m | 6.1m/s | 0°C | 0% | 0hPa | 0V | 00:00:00 | 00:00:00 | 00:00:00 | |
| SQ6EMJ | 2026-08-30 12:26:18 | 51.21095 | 17.56909 | 137° | 16km/h | 22400m | 6.8m/s | 0°C | 0% | 0hPa | 0V | 00:00:00 | 00:00:00 | 00:00:00 | |
| KRY50SP | 2026-08-30 12:26:14 | 51.21109 | 17.56894 | 165° | 9km/h | 22378m | 4.9m/s | 0°C | 0% | 0hPa | 0V | 00:00:00 | 00:00:00 | 00:00:00 | |
| SQ6EMJ | 2026-08-30 12:26:13 | 51.21111 | 17.56893 | 181° | 11km/h | 22373m | 4.4m/s | 0°C | 0% | 0hPa | 0V | 00:00:00 | 00:00:00 | 00:00:00 | |
| KRY50SP | 2026-08-30 12:26:08 | 51.21129 | 17.56875 | 124° | 22km/h | 22345m | 3.7m/s | 0°C | 0% | 0hPa | 0V | 00:00:00 | 00:00:00 | 00:00:00 | |
| SQ6EMJ | 2026-08-30 12:26:07 | 51.21132 | 17.56867 | 132° | 24km/h | 22340m | 6.6m/s | 0°C | 0% | 0hPa | 0V | 00:00:00 | 00:00:00 | 00:00:00 | |
| PETON7-10 | 2026-08-30 12:26:05 | 51.21142 | 17.56853 | 139° | 22km/h | 22330m | 4.9m/s | 0°C | 0% | 0hPa | 0V | 00:00:00 | 00:00:00 | 00:00:00 | |
| POL1PZ | 2026-08-30 12:26:02 | 51.21152 | 17.56838 | 143° | 15km/h | 22314m | 5.2m/s | 0°C | 0% | 0hPa | 0V | 00:00:00 | 00:00:00 | 00:00:00 | |
| KRY50SP | 2026-08-30 12:25:57 | 51.21167 | 17.56809 | 107° | 26km/h | 22288m | 3.7m/s | 0°C | 0% | 0hPa | 0V | 00:00:00 | 00:00:00 | 00:00:00 | |
| SQ6EMJ | 2026-08-30 12:25:56 | 51.21169 | 17.56799 | 113° | 27km/h | 22283m | 5.7m/s | 0°C | 0% | 0hPa | 0V | 00:00:00 | 00:00:00 | 00:00:00 | |
| SP3BTT-10 | 2026-08-30 12:25:54 | 51.21177 | 17.56779 | 132° | 11km/h | 22272m | 4.1m/s | 0°C | 0% | 0hPa | 0V | 00:00:00 | 00:00:00 | 00:00:00 | |
| KRY50SP | 2026-08-30 12:25:51 | 51.21186 | 17.56759 | 131° | 15km/h | 22254m | 5.0m/s | 0°C | 0% | 0hPa | 0V | 00:00:00 | 00:00:00 | 00:00:00 | |
| PETON7-10 | 2026-08-30 12:25:50 | 51.21189 | 17.56755 | 144° | 20km/h | 22249m | 6.8m/s | 0°C | 0% | 0hPa | 0V | 00:00:00 | 00:00:00 | 00:00:00 | |
| KRY50SP | 2026-08-30 12:25:46 | 51.21201 | 17.56727 | 103° | 26km/h | 22227m | 4.4m/s | 0°C | 0% | 0hPa | 0V | 00:00:00 | 00:00:00 | 00:00:00 | |
| SQ6EMJ | 2026-08-30 12:25:45 | 51.21202 | 17.56718 | 109° | 26km/h | 22222m | 5.2m/s | 0°C | 0% | 0hPa | 0V | 00:00:00 | 00:00:00 | 00:00:00 | |
| KRY50SP | 2026-08-30 12:25:41 | 51.21216 | 17.56692 | 145° | 11km/h | 22201m | 6.4m/s | 0°C | 0% | 0hPa | 0V | 00:00:00 | 00:00:00 | 00:00:00 | |
| SQ6EMJ | 2026-08-30 12:25:39 | 51.21218 | 17.56688 | 127° | 5km/h | 22191m | 3.6m/s | 0°C | 0% | 0hPa | 0V | 00:00:00 | 00:00:00 | 00:00:00 | |
| KRY50SP | 2026-08-30 12:25:36 | 51.21227 | 17.56679 | 144° | 18km/h | 22177m | 4.0m/s | 0°C | 0% | 0hPa | 0V | 00:00:00 | 00:00:00 | 00:00:00 | |
| PETON7-10 | 2026-08-30 12:25:34 | 51.21231 | 17.56670 | 113° | 13km/h | 22167m | 5.2m/s | 0°C | 0% | 0hPa | 0V | 00:00:00 | 00:00:00 | 00:00:00 | |
| SQ6EMJ | 2026-08-30 12:25:33 | 51.21232 | 17.56665 | 103° | 13km/h | 22162m | 4.5m/s | 0°C | 0% | 0hPa | 0V | 00:00:00 | 00:00:00 | 00:00:00 | |
| KRY50SP | 2026-08-30 12:25:30 | 51.21236 | 17.56647 | 111° | 15km/h | 22147m | 4.2m/s | 0°C | 0% | 0hPa | 0V | 00:00:00 | 00:00:00 | 00:00:00 | |
| SQ6EMJ | 2026-08-30 12:25:27 | 51.21236 | 17.56639 | 235° | 4km/h | 22130m | 4.7m/s | 0°C | 0% | 0hPa | 0V | 00:00:00 | 00:00:00 | 00:00:00 | |
| KRY50SP | 2026-08-30 12:25:25 | 51.21240 | 17.56642 | 204° | 15km/h | 22119m | 3.7m/s | 0°C | 0% | 0hPa | 0V | 00:00:00 | 00:00:00 | 00:00:00 | |
| POL1PZ | 2026-08-30 12:25:21 | 51.21248 | 17.56641 | 120° | 11km/h | 22097m | 7.2m/s | 0°C | 0% | 0hPa | 0V | 00:00:00 | 00:00:00 | 00:00:00 | |
| PETON7-10 | 2026-08-30 12:25:19 | 51.21251 | 17.56633 | 106° | 7km/h | 22087m | 3.8m/s | 0°C | 0% | 0hPa | 0V | 00:00:00 | 00:00:00 | 00:00:00 | |
| SQ6EMJ | 2026-08-30 12:25:15 | 51.21246 | 17.56636 | 261° | 5km/h | 22064m | 5.4m/s | 0°C | 0% | 0hPa | 0V | 00:00:00 | 00:00:00 | 00:00:00 | |
| SQ6EMJ | 2026-08-30 12:25:10 | 51.21245 | 17.56626 | 104° | 15km/h | 22036m | 6.3m/s | 0°C | 0% | 0hPa | 0V | 00:00:00 | 00:00:00 | 00:00:00 | |
| KRY50SP | 2026-08-30 12:25:08 | 51.21246 | 17.56613 | 83° | 15km/h | 22026m | 5.3m/s | 0°C | 0% | 0hPa | 0V | 00:00:00 | 00:00:00 | 00:00:00 | |
| SQ6EMJ | 2026-08-30 12:25:04 | 51.21239 | 17.56609 | 305° | 5km/h | 22005m | 5.1m/s | 0°C | 0% | 0hPa | 0V | 00:00:00 | 00:00:00 | 00:00:00 | |
| PETON7-10 | 2026-08-30 12:25:03 | 51.21238 | 17.56611 | 325° | 9km/h | 22000m | 4.7m/s | 0°C | 0% | 0hPa | 0V | 00:00:00 | 00:00:00 | 00:00:00 | |
| KRY50SP | 2026-08-30 12:25:02 | 51.21236 | 17.56611 | 2° | 9km/h | 21994m | 7.1m/s | 0°C | 0% | 0hPa | 0V | 00:00:00 | 00:00:00 | 00:00:00 | |
| POL1PZ | 2026-08-30 12:25:00 | 51.21232 | 17.56608 | 54° | 7km/h | 21984m | 6.1m/s | 0°C | 0% | 0hPa | 0V | 00:00:00 | 00:00:00 | 00:00:00 | |
| SQ6EMJ | 2026-08-30 12:24:58 | 51.21231 | 17.56603 | 88° | 5km/h | 21973m | 4.3m/s | 0°C | 0% | 0hPa | 0V | 00:00:00 | 00:00:00 | 00:00:00 | |
| KRY50SP | 2026-08-30 12:24:57 | 51.21231 | 17.56601 | 41° | 7km/h | 21968m | 6.1m/s | 0°C | 0% | 0hPa | 0V | 00:00:00 | 00:00:00 | 00:00:00 | |
| SP3BTT-10 | 2026-08-30 12:24:53 | 51.21223 | 17.56600 | 280° | 7km/h | 21947m | 4.0m/s | 0°C | 0% | 0hPa | 0V | 00:00:00 | 00:00:00 | 00:00:00 | |
| SQ6EMJ | 2026-08-30 12:24:52 | 51.21222 | 17.56601 | 326° | 4km/h | 21942m | 4.9m/s | 0°C | 0% | 0hPa | 0V | 00:00:00 | 00:00:00 | 00:00:00 | |
| KRY50SP | 2026-08-30 12:24:51 | 51.21221 | 17.56601 | 356° | 7km/h | 21936m | 6.7m/s | 0°C | 0% | 0hPa | 0V | 00:00:00 | 00:00:00 | 00:00:00 | |
| SQ6EMJ | 2026-08-30 12:24:47 | 51.21214 | 17.56602 | 331° | 9km/h | 21910m | 4.6m/s | 0°C | 0% | 0hPa | 0V | 00:00:00 | 00:00:00 | 00:00:00 | |
| KRY50SP | 2026-08-30 12:24:45 | 51.21211 | 17.56604 | 341° | 15km/h | 21905m | 6.3m/s | 0°C | 0% | 0hPa | 0V | 00:00:00 | 00:00:00 | 00:00:00 | |
| PETON7-10 | 2026-08-30 12:24:44 | 51.21207 | 17.56606 | 347° | 15km/h | 21899m | 5.4m/s | 0°C | 0% | 0hPa | 0V | 00:00:00 | 00:00:00 | 00:00:00 | |
| SQ6EMJ | 2026-08-30 12:24:41 | 51.21199 | 17.56614 | 291° | 9km/h | 21882m | 4.1m/s | 0°C | 0% | 0hPa | 0V | 00:00:00 | 00:00:00 | 00:00:00 | |
| POL1PZ | 2026-08-30 12:24:40 | 51.21199 | 17.56617 | 301° | 11km/h | 21877m | 5.8m/s | 0°C | 0% | 0hPa | 0V | 00:00:00 | 00:00:00 | 00:00:00 | |
| KRY50SP | 2026-08-30 12:24:38 | 51.21193 | 17.56623 | 343° | 16km/h | 21865m | 4.5m/s | 0°C | 0% | 0hPa | 0V | 00:00:00 | 00:00:00 | 00:00:00 | |
| SQ6EMJ | 2026-08-30 12:24:35 | 51.21182 | 17.56627 | 2° | 16km/h | 21850m | 4.4m/s | 0°C | 0% | 0hPa | 0V | 00:00:00 | 00:00:00 | 00:00:00 | |
| KRY50SP | 2026-08-30 12:24:32 | 51.21168 | 17.56627 | 347° | 15km/h | 21836m | 4.2m/s | 0°C | 0% | 0hPa | 0V | 00:00:00 | 00:00:00 | 00:00:00 | |
| SQ6EMJ | 2026-08-30 12:24:30 | 51.21165 | 17.56632 | 271° | 11km/h | 21826m | 3.4m/s | 0°C | 0% | 0hPa | 0V | 00:00:00 | 00:00:00 | 00:00:00 | |
| PETON7-10 | 2026-08-30 12:24:27 | 51.21162 | 17.56647 | 319° | 16km/h | 21810m | 3.5m/s | 0°C | 0% | 0hPa | 0V | 00:00:00 | 00:00:00 | 00:00:00 | |
| SQ6EMJ | 2026-08-30 12:24:24 | 51.21151 | 17.56653 | 12° | 18km/h | 21795m | 4.9m/s | 0°C | 0% | 0hPa | 0V | 00:00:00 | 00:00:00 | 00:00:00 | |
| KRY50SP | 2026-08-30 12:24:21 | 51.21137 | 17.56646 | 25° | 13km/h | 21779m | 5.7m/s | 0°C | 0% | 0hPa | 0V | 00:00:00 | 00:00:00 | 00:00:00 | |
| POL1PZ | 2026-08-30 12:24:19 | 51.21136 | 17.56647 | 231° | 9km/h | 21766m | 4.9m/s | 0°C | 0% | 0hPa | 0V | 00:00:00 | 00:00:00 | 00:00:00 | |
| SQ6EMJ | 2026-08-30 12:24:18 | 51.21137 | 17.56650 | 257° | 11km/h | 21762m | 4.9m/s | 0°C | 0% | 0hPa | 0V | 00:00:00 | 00:00:00 | 00:00:00 | |
| KRY50SP | 2026-08-30 12:24:15 | 51.21131 | 17.56660 | 3° | 18km/h | 21745m | 5.0m/s | 0°C | 0% | 0hPa | 0V | 00:00:00 | 00:00:00 | 00:00:00 | |
| SQ6EMJ | 2026-08-30 12:24:14 | 51.21123 | 17.56656 | 51° | 13km/h | 21733m | 5.6m/s | 0°C | 0% | 0hPa | 0V | 00:00:00 | 00:00:00 | 00:00:00 | |
| PETON7-10 | 2026-08-30 12:24:12 | 51.21122 | 17.56651 | 80° | 9km/h | 21728m | 4.6m/s | 0°C | 0% | 0hPa | 0V | 00:00:00 | 00:00:00 | 00:00:00 | |
| KRY50SP | 2026-08-30 12:24:09 | 51.21117 | 17.56644 | 344° | 13km/h | 21713m | 5.7m/s | 0°C | 0% | 0hPa | 0V | 00:00:00 | 00:00:00 | 00:00:00 | |
| SQ6EMJ | 2026-08-30 12:24:07 | 51.21112 | 17.56650 | 304° | 9km/h | 21704m | 6.7m/s | 0°C | 0% | 0hPa | 0V | 00:00:00 | 00:00:00 | 00:00:00 | |
| SQ6EMJ | 2026-08-30 12:24:03 | 51.21107 | 17.56653 | 29° | 11km/h | 21676m | 4.2m/s | 0°C | 0% | 0hPa | 0V | 00:00:00 | 00:00:00 | 00:00:00 | |
| POL1PZ | 2026-08-30 12:23:58 | 51.21103 | 17.56642 | 40° | 2km/h | 21655m | 6.4m/s | 0°C | 0% | 0hPa | 0V | 00:00:00 | 00:00:00 | 00:00:00 | |
| PETON7-10 | 2026-08-30 12:23:56 | 51.21101 | 17.56643 | 331° | 7km/h | 21644m | 4.5m/s | 0°C | 0% | 0hPa | 0V | 00:00:00 | 00:00:00 | 00:00:00 | |
| KRY50SP | 2026-08-30 12:23:53 | 51.21096 | 17.56640 | 64° | 11km/h | 21628m | 5.1m/s | 0°C | 0% | 0hPa | 0V | 00:00:00 | 00:00:00 | 00:00:00 | |
| SQ6EMJ | 2026-08-30 12:23:50 | 51.21092 | 17.56627 | 80° | 11km/h | 21610m | 7.4m/s | 0°C | 0% | 0hPa | 0V | 00:00:00 | 00:00:00 | 00:00:00 | |
| KRY50SP | 2026-08-30 12:23:47 | 51.21093 | 17.56619 | 95° | 4km/h | 21593m | 7.0m/s | 0°C | 0% | 0hPa | 0V | 00:00:00 | 00:00:00 | 00:00:00 | |
| SQ6EMJ | 2026-08-30 12:23:44 | 51.21093 | 17.56614 | 116° | 5km/h | 21575m | 5.8m/s | 0°C | 0% | 0hPa | 0V | 00:00:00 | 00:00:00 | 00:00:00 | |
| SQ6EMJ | 2026-08-30 12:23:39 | 51.21094 | 17.56602 | 170° | 4km/h | 21548m | 6.6m/s | 0°C | 0% | 0hPa | 0V | 00:00:00 | 00:00:00 | 00:00:00 | |
| POL1PZ | 2026-08-30 12:23:37 | 51.21097 | 17.56603 | 199° | 5km/h | 21536m | 5.3m/s | 0°C | 0% | 0hPa | 0V | 00:00:00 | 00:00:00 | 00:00:00 | |
| KRY50SP | 2026-08-30 12:23:35 | 51.21096 | 17.56603 | 31° | 5km/h | 21524m | 4.1m/s | 0°C | 0% | 0hPa | 0V | 00:00:00 | 00:00:00 | 00:00:00 | |
| SQ6EMJ | 2026-08-30 12:23:34 | 51.21096 | 17.56597 | 110° | 11km/h | 21513m | 5.9m/s | 0°C | 0% | 0hPa | 0V | 00:00:00 | 00:00:00 | 00:00:00 | |
| KRY50SP | 2026-08-30 12:23:29 | 51.21096 | 17.56586 | 50° | 5km/h | 21491m | 5.4m/s | 0°C | 0% | 0hPa | 0V | 00:00:00 | 00:00:00 | 00:00:00 | |
| SQ6EMJ | 2026-08-30 12:23:28 | 51.21098 | 17.56583 | 151° | 7km/h | 21481m | 3.2m/s | 0°C | 0% | 0hPa | 0V | 00:00:00 | 00:00:00 | 00:00:00 | |
| PETON7-10 | 2026-08-30 12:23:24 | 51.21097 | 17.56582 | 359° | 7km/h | 21464m | 5.4m/s | 0°C | 0% | 0hPa | 0V | 00:00:00 | 00:00:00 | 00:00:00 | |
| KRY50SP | 2026-08-30 12:23:23 | 51.21095 | 17.56582 | 353° | 4km/h | 21458m | 6.2m/s | 0°C | 0% | 0hPa | 0V | 00:00:00 | 00:00:00 | 00:00:00 | |
| SQ6EMJ | 2026-08-30 12:23:21 | 51.21095 | 17.56581 | 135° | 4km/h | 21448m | 4.8m/s | 0°C | 0% | 0hPa | 0V | 00:00:00 | 00:00:00 | 00:00:00 | |
| POL1PZ | 2026-08-30 12:23:17 | 51.21094 | 17.56574 | 99° | 5km/h | 21427m | 6.2m/s | 0°C | 0% | 0hPa | 0V | 00:00:00 | 00:00:00 | 00:00:00 | |
| SQ6EMJ | 2026-08-30 12:23:15 | 51.21096 | 17.56570 | 148° | 5km/h | 21417m | 4.3m/s | 0°C | 0% | 0hPa | 0V | 00:00:00 | 00:00:00 | 00:00:00 | |
| KRY50SP | 2026-08-30 12:23:12 | 51.21093 | 17.56569 | 344° | 9km/h | 21400m | 3.8m/s | 0°C | 0% | 0hPa | 0V | 00:00:00 | 00:00:00 | 00:00:00 | |
| SQ6EMJ | 2026-08-30 12:23:09 | 51.21091 | 17.56579 | 263° | 9km/h | 21384m | 5.0m/s | 0°C | 0% | 0hPa | 0V | 00:00:00 | 00:00:00 | 00:00:00 | |
| PETON7-10 | 2026-08-30 12:23:08 | 51.21091 | 17.56582 | 275° | 11km/h | 21377m | 6.5m/s | 0°C | 0% | 0hPa | 0V | 00:00:00 | 00:00:00 | 00:00:00 | |
| KRY50SP | 2026-08-30 12:23:07 | 51.21091 | 17.56585 | 282° | 5km/h | 21372m | 4.8m/s | 0°C | 0% | 0hPa | 0V | 00:00:00 | 00:00:00 | 00:00:00 | |
| SQ6EMJ | 2026-08-30 12:23:04 | 51.21092 | 17.56590 | 0° | 0km/h | 21356m | 4.2m/s | 0°C | 0% | 0hPa | 0V | 00:00:00 | 00:00:00 | 00:00:00 | |
| KRY50SP | 2026-08-30 12:23:01 | 51.21086 | 17.56583 | 53° | 15km/h | 21340m | 5.0m/s | 0°C | 0% | 0hPa | 0V | 00:00:00 | 00:00:00 | 00:00:00 | |
| SQ6EMJ | 2026-08-30 12:23:00 | 51.21085 | 17.56579 | 205° | 4km/h | 21328m | 6.7m/s | 0°C | 0% | 0hPa | 0V | 00:00:00 | 00:00:00 | 00:00:00 | |
| POL1PZ | 2026-08-30 12:22:57 | 51.21090 | 17.56580 | 183° | 13km/h | 21318m | 5.6m/s | 0°C | 0% | 0hPa | 0V | 00:00:00 | 00:00:00 | 00:00:00 | |
| KRY50SP | 2026-08-30 12:22:55 | 51.21094 | 17.56578 | 164° | 7km/h | 21306m | 5.0m/s | 0°C | 0% | 0hPa | 0V | 00:00:00 | 00:00:00 | 00:00:00 | |
| SQ6EMJ | 2026-08-30 12:22:53 | 51.21096 | 17.56578 | 0° | 0km/h | 21295m | 4.4m/s | 0°C | 0% | 0hPa | 0V | 00:00:00 | 00:00:00 | 00:00:00 | |
| PETON7-10 | 2026-08-30 12:22:52 | 51.21096 | 17.56578 | 27° | 5km/h | 21289m | 6.4m/s | 0°C | 0% | 0hPa | 0V | 00:00:00 | 00:00:00 | 00:00:00 | |
| KRY50SP | 2026-08-30 12:22:49 | 51.21093 | 17.56573 | 139° | 4km/h | 21273m | 6.1m/s | 0°C | 0% | 0hPa | 0V | 00:00:00 | 00:00:00 | 00:00:00 | |
| SQ6EMJ | 2026-08-30 12:22:47 | 51.21098 | 17.56574 | 198° | 16km/h | 21262m | 3.9m/s | 0°C | 0% | 0hPa | 0V | 00:00:00 | 00:00:00 | 00:00:00 | |
| KRY50SP | 2026-08-30 12:22:43 | 51.21104 | 17.56574 | 20° | 7km/h | 21242m | 4.9m/s | 0°C | 0% | 0hPa | 0V | 00:00:00 | 00:00:00 | 00:00:00 | |
| SQ6EMJ | 2026-08-30 12:22:42 | 51.21103 | 17.56574 | 322° | 2km/h | 21237m | 6.3m/s | 0°C | 0% | 0hPa | 0V | 00:00:00 | 00:00:00 | 00:00:00 | |
| KRY50SP | 2026-08-30 12:22:38 | 51.21102 | 17.56585 | 298° | 5km/h | 21214m | 4.2m/s | 0°C | 0% | 0hPa | 0V | 00:00:00 | 00:00:00 | 00:00:00 | |
| POL1PZ | 2026-08-30 12:22:37 | 51.21102 | 17.56586 | 203° | 2km/h | 21209m | 5.2m/s | 0°C | 0% | 0hPa | 0V | 00:00:00 | 00:00:00 | 00:00:00 | |
| SQ6EMJ | 2026-08-30 12:22:36 | 51.21103 | 17.56586 | 159° | 7km/h | 21203m | 6.6m/s | 0°C | 0% | 0hPa | 0V | 00:00:00 | 00:00:00 | 00:00:00 | |
| PETON7-10 | 2026-08-30 12:22:35 | 51.21106 | 17.56584 | 161° | 15km/h | 21198m | 5.3m/s | 0°C | 0% | 0hPa | 0V | 00:00:00 | 00:00:00 | 00:00:00 | |
| KRY50SP | 2026-08-30 12:22:32 | 51.21109 | 17.56580 | 306° | 4km/h | 21181m | 4.8m/s | 0°C | 0% | 0hPa | 0V | 00:00:00 | 00:00:00 | 00:00:00 | |
| SQ6EMJ | 2026-08-30 12:22:30 | 51.21110 | 17.56585 | 242° | 11km/h | 21168m | 4.2m/s | 0°C | 0% | 0hPa | 0V | 00:00:00 | 00:00:00 | 00:00:00 | |
| SQ6EMJ | 2026-08-30 12:22:24 | 51.21114 | 17.56579 | 137° | 11km/h | 21135m | 4.0m/s | 0°C | 0% | 0hPa | 0V | 00:00:00 | 00:00:00 | 00:00:00 | |
| KRY50SP | 2026-08-30 12:22:22 | 51.21119 | 17.56573 | 140° | 9km/h | 21123m | 5.7m/s | 0°C | 0% | 0hPa | 0V | 00:00:00 | 00:00:00 | 00:00:00 | |
| SQ6EMJ | 2026-08-30 12:22:19 | 51.21122 | 17.56573 | 58° | 4km/h | 21101m | 4.7m/s | 0°C | 0% | 0hPa | 0V | 00:00:00 | 00:00:00 | 00:00:00 | |
| POL1PZ | 2026-08-30 12:22:16 | 51.21118 | 17.56566 | 48° | 18km/h | 21090m | 4.7m/s | 0°C | 0% | 0hPa | 0V | 00:00:00 | 00:00:00 | 00:00:00 | |
| KRY50SP | 2026-08-30 12:22:15 | 51.21115 | 17.56559 | 63° | 18km/h | 21085m | 4.5m/s | 0°C | 0% | 0hPa | 0V | 00:00:00 | 00:00:00 | 00:00:00 | |
| SQ6EMJ | 2026-08-30 12:22:12 | 51.21116 | 17.56543 | 113° | 13km/h | 21073m | 4.8m/s | 0°C | 0% | 0hPa | 0V | 00:00:00 | 00:00:00 | 00:00:00 | |
| KRY50SP | 2026-08-30 12:22:10 | 51.21116 | 17.56534 | 60° | 13km/h | 21060m | 5.7m/s | 0°C | 0% | 0hPa | 0V | 00:00:00 | 00:00:00 | 00:00:00 | |
| SQ6EMJ | 2026-08-30 12:22:06 | 51.21109 | 17.56525 | 52° | 7km/h | 21041m | 3.8m/s | 0°C | 0% | 0hPa | 0V | 00:00:00 | 00:00:00 | 00:00:00 | |
| KRY50SP | 2026-08-30 12:22:05 | 51.21107 | 17.56520 | 58° | 20km/h | 21036m | 7.3m/s | 0°C | 0% | 0hPa | 0V | 00:00:00 | 00:00:00 | 00:00:00 | |
| SQ6EMJ | 2026-08-30 12:22:01 | 51.21103 | 17.56484 | 111° | 15km/h | 21014m | 5.6m/s | 0°C | 0% | 0hPa | 0V | 00:00:00 | 00:00:00 | 00:00:00 | |
| KRY50SP | 2026-08-30 12:21:59 | 51.21103 | 17.56474 | 86° | 11km/h | 21003m | 6.1m/s | 0°C | 0% | 0hPa | 0V | 00:00:00 | 00:00:00 | 00:00:00 | |
| PETON7-10 | 2026-08-30 12:21:56 | 51.21099 | 17.56458 | 66° | 15km/h | 20988m | 5.0m/s | 0°C | 0% | 0hPa | 0V | 00:00:00 | 00:00:00 | 00:00:00 | |
| POL1PZ | 2026-08-30 12:21:55 | 51.21098 | 17.56453 | 81° | 9km/h | 20983m | 5.4m/s | 0°C | 0% | 0hPa | 0V | 00:00:00 | 00:00:00 | 00:00:00 | |
| KRY50SP | 2026-08-30 12:21:53 | 51.21097 | 17.56447 | 55° | 11km/h | 20974m | 5.3m/s | 0°C | 0% | 0hPa | 0V | 00:00:00 | 00:00:00 | 00:00:00 | |
| OE5DRO-10 | 2026-08-30 12:21:52 | 51.21086 | 17.56427 | 77° | 18km/h | 20952m | 5.6m/s | 0°C | 0% | 0hPa | 0V | 00:00:00 | 00:00:00 | 00:00:00 | |
| SQ6EMJ | 2026-08-30 12:21:50 | 51.21086 | 17.56427 | 78° | 16km/h | 20952m | 5.7m/s | 0°C | 0% | 0hPa | 0V | 00:00:00 | 00:00:00 | 00:00:00 | |
| KRY50SP | 2026-08-30 12:21:48 | 51.21085 | 17.56420 | 94° | 16km/h | 20947m | 3.9m/s | 0°C | 0% | 0hPa | 0V | 00:00:00 | 00:00:00 | 00:00:00 | |
| SQ6EMJ | 2026-08-30 12:21:44 | 51.21080 | 17.56395 | 77° | 16km/h | 20925m | 6.7m/s | 0°C | 0% | 0hPa | 0V | 00:00:00 | 00:00:00 | 00:00:00 | |
| KRY50SP | 2026-08-30 12:21:42 | 51.21077 | 17.56380 | 67° | 20km/h | 20913m | 5.4m/s | 0°C | 0% | 0hPa | 0V | 00:00:00 | 00:00:00 | 00:00:00 | |
| PETON7-10 | 2026-08-30 12:21:41 | 51.21074 | 17.56373 | 51° | 18km/h | 20908m | 5.2m/s | 0°C | 0% | 0hPa | 0V | 00:00:00 | 00:00:00 | 00:00:00 | |
| SQ6EMJ | 2026-08-30 12:21:38 | 51.21064 | 17.56354 | 53° | 15km/h | 20893m | 5.9m/s | 0°C | 0% | 0hPa | 0V | 00:00:00 | 00:00:00 | 00:00:00 | |
| KRY50SP | 2026-08-30 12:21:36 | 51.21059 | 17.56344 | 57° | 16km/h | 20881m | 6.3m/s | 0°C | 0% | 0hPa | 0V | 00:00:00 | 00:00:00 | 00:00:00 | |
| OE5DRO-10 | 2026-08-30 12:21:33 | 51.21040 | 17.56314 | 40° | 16km/h | 20851m | 6.0m/s | 0°C | 0% | 0hPa | 0V | 00:00:00 | 00:00:00 | 00:00:00 | |
| KRY50SP | 2026-08-30 12:21:29 | 51.21037 | 17.56310 | 35° | 16km/h | 20845m | 5.4m/s | 0°C | 0% | 0hPa | 0V | 00:00:00 | 00:00:00 | 00:00:00 | |
| SQ6EMJ | 2026-08-30 12:21:27 | 51.21030 | 17.56306 | 14° | 15km/h | 20835m | 6.5m/s | 0°C | 0% | 0hPa | 0V | 00:00:00 | 00:00:00 | 00:00:00 | |
| PETON7-10 | 2026-08-30 12:21:26 | 51.21027 | 17.56304 | 20° | 11km/h | 20829m | 4.5m/s | 0°C | 0% | 0hPa | 0V | 00:00:00 | 00:00:00 | 00:00:00 | |
| KRY50SP | 2026-08-30 12:21:23 | 51.21017 | 17.56298 | 28° | 18km/h | 20816m | 4.8m/s | 0°C | 0% | 0hPa | 0V | 00:00:00 | 00:00:00 | 00:00:00 | |
| SP3BTT-10 | 2026-08-30 12:21:22 | 51.21014 | 17.56294 | 38° | 16km/h | 20811m | 6.5m/s | 0°C | 0% | 0hPa | 0V | 00:00:00 | 00:00:00 | 00:00:00 | |
| SQ6EMJ | 2026-08-30 12:21:21 | 51.21011 | 17.56291 | 24° | 9km/h | 20804m | 5.4m/s | 0°C | 0% | 0hPa | 0V | 00:00:00 | 00:00:00 | 00:00:00 | |
| KRY50SP | 2026-08-30 12:21:17 | 51.20997 | 17.56293 | 351° | 22km/h | 20783m | 4.7m/s | 0°C | 0% | 0hPa | 0V | 00:00:00 | 00:00:00 | 00:00:00 | |
| SQ6EMJ | 2026-08-30 12:21:15 | 51.20988 | 17.56297 | 342° | 16km/h | 20773m | 5.7m/s | 0°C | 0% | 0hPa | 0V | 00:00:00 | 00:00:00 | 00:00:00 | |
| OE5DRO-10 | 2026-08-30 12:21:14 | 51.20981 | 17.56301 | 350° | 11km/h | 20759m | 5.7m/s | 0°C | 0% | 0hPa | 0V | 00:00:00 | 00:00:00 | 00:00:00 | |
| PETON7-10 | 2026-08-30 12:21:10 | 51.20976 | 17.56301 | 6° | 13km/h | 20749m | 4.7m/s | 0°C | 0% | 0hPa | 0V | 00:00:00 | 00:00:00 | 00:00:00 | |
| SQ6EMJ | 2026-08-30 12:21:09 | 51.20973 | 17.56300 | 7° | 9km/h | 20743m | 7.0m/s | 0°C | 0% | 0hPa | 0V | 00:00:00 | 00:00:00 | 00:00:00 | |
| KRY50SP | 2026-08-30 12:21:05 | 51.20962 | 17.56303 | 335° | 18km/h | 20719m | 3.9m/s | 0°C | 0% | 0hPa | 0V | 00:00:00 | 00:00:00 | 00:00:00 | |
| SQ6EMJ | 2026-08-30 12:21:04 | 51.20958 | 17.56306 | 325° | 16km/h | 20715m | 6.6m/s | 0°C | 0% | 0hPa | 0V | 00:00:00 | 00:00:00 | 00:00:00 | |
| KRY50SP | 2026-08-30 12:20:59 | 51.20944 | 17.56312 | 2° | 9km/h | 20687m | 6.8m/s | 0°C | 0% | 0hPa | 0V | 00:00:00 | 00:00:00 | 00:00:00 | |
| SQ6EMJ | 2026-08-30 12:20:58 | 51.20942 | 17.56312 | 4° | 11km/h | 20682m | 4.5m/s | 0°C | 0% | 0hPa | 0V | 00:00:00 | 00:00:00 | 00:00:00 | |
| POL1PZ | 2026-08-30 12:20:54 | 51.20929 | 17.56308 | 73° | 4km/h | 20657m | 5.7m/s | 0°C | 0% | 0hPa | 0V | 00:00:00 | 00:00:00 | 00:00:00 | |
| KRY50SP | 2026-08-30 12:20:50 | 51.20925 | 17.56308 | 360° | 16km/h | 20641m | 6.1m/s | 0°C | 0% | 0hPa | 0V | 00:00:00 | 00:00:00 | 00:00:00 | |
| SQ6EMJ | 2026-08-30 12:20:47 | 51.20913 | 17.56298 | 63° | 16km/h | 20625m | 6.8m/s | 0°C | 0% | 0hPa | 0V | 00:00:00 | 00:00:00 | 00:00:00 | |
| KRY50SP | 2026-08-30 12:20:42 | 51.20899 | 17.56279 | 38° | 9km/h | 20597m | 5.0m/s | 0°C | 0% | 0hPa | 0V | 00:00:00 | 00:00:00 | 00:00:00 | |
| KRY50SP | 2026-08-30 12:20:36 | 51.20879 | 17.56254 | 62° | 20km/h | 20566m | 4.2m/s | 0°C | 0% | 0hPa | 0V | 00:00:00 | 00:00:00 | 00:00:00 | |
| OE5DRO-10 | 2026-08-30 12:20:35 | 51.20877 | 17.56248 | 55° | 18km/h | 20561m | 6.0m/s | 0°C | 0% | 0hPa | 0V | 00:00:00 | 00:00:00 | 00:00:00 | |
| POL1PZ | 2026-08-30 12:20:32 | 51.20869 | 17.56238 | 32° | 7km/h | 20544m | 6.3m/s | 0°C | 0% | 0hPa | 0V | 00:00:00 | 00:00:00 | 00:00:00 | |
| SQ6EMJ | 2026-08-30 12:20:30 | 51.20865 | 17.56235 | 9° | 15km/h | 20535m | 7.0m/s | 0°C | 0% | 0hPa | 0V | 00:00:00 | 00:00:00 | 00:00:00 | |
| KRY50SP | 2026-08-30 12:20:26 | 51.20842 | 17.56222 | 40° | 27km/h | 20517m | 4.4m/s | 0°C | 0% | 0hPa | 0V | 00:00:00 | 00:00:00 | 00:00:00 | |
| SQ6EMJ | 2026-08-30 12:20:24 | 51.20831 | 17.56210 | 25° | 26km/h | 20507m | 6.2m/s | 0°C | 0% | 0hPa | 0V | 00:00:00 | 00:00:00 | 00:00:00 | |
| KRY50SP | 2026-08-30 12:20:18 | 51.20808 | 17.56198 | 357° | 20km/h | 20477m | 5.1m/s | 0°C | 0% | 0hPa | 0V | 00:00:00 | 00:00:00 | 00:00:00 | |
| OE5DRO-10 | 2026-08-30 12:20:17 | 51.20796 | 17.56195 | 22° | 18km/h | 20470m | 4.1m/s | 0°C | 0% | 0hPa | 0V | 00:00:00 | 00:00:00 | 00:00:00 | |
| SQ6EMJ | 2026-08-30 12:20:14 | 51.20781 | 17.56176 | 42° | 20km/h | 20456m | 4.9m/s | 0°C | 0% | 0hPa | 0V | 00:00:00 | 00:00:00 | 00:00:00 | |
| KRY50SP | 2026-08-30 12:20:11 | 51.20773 | 17.56172 | 340° | 16km/h | 20444m | 4.3m/s | 0°C | 0% | 0hPa | 0V | 00:00:00 | 00:00:00 | 00:00:00 | |
| SP3BTT-10 | 2026-08-30 12:20:07 | 51.20761 | 17.56184 | 351° | 15km/h | 20424m | 6.1m/s | 0°C | 0% | 0hPa | 0V | 00:00:00 | 00:00:00 | 00:00:00 | |
| KRY50SP | 2026-08-30 12:20:05 | 51.20751 | 17.56181 | 21° | 22km/h | 20413m | 5.2m/s | 0°C | 0% | 0hPa | 0V | 00:00:00 | 00:00:00 | 00:00:00 | |
| SQ6EMJ | 2026-08-30 12:20:01 | 51.20737 | 17.56176 | 341° | 16km/h | 20393m | 7.1m/s | 0°C | 0% | 0hPa | 0V | 00:00:00 | 00:00:00 | 00:00:00 | |
| KRY50SP | 2026-08-30 12:19:59 | 51.20730 | 17.56183 | 326° | 15km/h | 20384m | 5.3m/s | 0°C | 0% | 0hPa | 0V | 00:00:00 | 00:00:00 | 00:00:00 | |
| OE5DRO-10 | 2026-08-30 12:19:56 | 51.20724 | 17.56189 | 352° | 11km/h | 20369m | 6.0m/s | 0°C | 0% | 0hPa | 0V | 00:00:00 | 00:00:00 | 00:00:00 | |
| SQ6EMJ | 2026-08-30 12:19:55 | 51.20720 | 17.56190 | 359° | 15km/h | 20364m | 4.7m/s | 0°C | 0% | 0hPa | 0V | 00:00:00 | 00:00:00 | 00:00:00 | |
| KRY50SP | 2026-08-30 12:19:52 | 51.20712 | 17.56184 | 31° | 11km/h | 20348m | 3.7m/s | 0°C | 0% | 0hPa | 0V | 00:00:00 | 00:00:00 | 00:00:00 | |
| SQ6EMJ | 2026-08-30 12:19:50 | 51.20705 | 17.56183 | 350° | 15km/h | 20339m | 5.0m/s | 0°C | 0% | 0hPa | 0V | 00:00:00 | 00:00:00 | 00:00:00 | |
| SQ6EMJ | 2026-08-30 12:19:44 | 51.20692 | 17.56188 | 21° | 13km/h | 20308m | 4.5m/s | 0°C | 0% | 0hPa | 0V | 00:00:00 | 00:00:00 | 00:00:00 | |
| KRY50SP | 2026-08-30 12:19:43 | 51.20690 | 17.56186 | 36° | 11km/h | 20303m | 4.3m/s | 0°C | 0% | 0hPa | 0V | 00:00:00 | 00:00:00 | 00:00:00 | |
| OE5DRO-10 | 2026-08-30 12:19:38 | 51.20684 | 17.56182 | 310° | 5km/h | 20273m | 6.4m/s | 0°C | 0% | 0hPa | 0V | 00:00:00 | 00:00:00 | 00:00:00 | |
| KRY50SP | 2026-08-30 12:19:36 | 51.20683 | 17.56184 | 0° | 0km/h | 20267m | 5.3m/s | 0°C | 0% | 0hPa | 0V | 00:00:00 | 00:00:00 | 00:00:00 | |
| SQ6EMJ | 2026-08-30 12:19:33 | 51.20680 | 17.56183 | 40° | 5km/h | 20253m | 4.0m/s | 0°C | 0% | 0hPa | 0V | 00:00:00 | 00:00:00 | 00:00:00 | |
| KRY50SP | 2026-08-30 12:19:30 | 51.20683 | 17.56178 | 179° | 11km/h | 20237m | 3.9m/s | 0°C | 0% | 0hPa | 0V | 00:00:00 | 00:00:00 | 00:00:00 | |
| POL1PZ | 2026-08-30 12:19:29 | 51.20685 | 17.56179 | 197° | 5km/h | 20232m | 6.4m/s | 0°C | 0% | 0hPa | 0V | 00:00:00 | 00:00:00 | 00:00:00 | |
| SQ6EMJ | 2026-08-30 12:19:27 | 51.20686 | 17.56180 | 273° | 2km/h | 20220m | 4.8m/s | 0°C | 0% | 0hPa | 0V | 00:00:00 | 00:00:00 | 00:00:00 | |
| KRY50SP | 2026-08-30 12:19:25 | 51.20686 | 17.56181 | 98° | 4km/h | 20211m | 4.4m/s | 0°C | 0% | 0hPa | 0V | 00:00:00 | 00:00:00 | 00:00:00 | |
| SQ6EMJ | 2026-08-30 12:19:21 | 51.20683 | 17.56171 | 116° | 9km/h | 20189m | 6.4m/s | 0°C | 0% | 0hPa | 0V | 00:00:00 | 00:00:00 | 00:00:00 | |
| KRY50SP | 2026-08-30 12:19:19 | 51.20688 | 17.56164 | 133° | 13km/h | 20180m | 4.9m/s | 0°C | 0% | 0hPa | 0V | 00:00:00 | 00:00:00 | 00:00:00 | |
| SQ6EMJ | 2026-08-30 12:19:16 | 51.20690 | 17.56158 | 0° | 0km/h | 20163m | 6.0m/s | 0°C | 0% | 0hPa | 0V | 00:00:00 | 00:00:00 | 00:00:00 | |
| KRY50SP | 2026-08-30 12:19:12 | 51.20688 | 17.56148 | 60° | 13km/h | 20143m | 6.9m/s | 0°C | 0% | 0hPa | 0V | 00:00:00 | 00:00:00 | 00:00:00 | |
| SQ6EMJ | 2026-08-30 12:19:11 | 51.20687 | 17.56143 | 64° | 13km/h | 20137m | 4.1m/s | 0°C | 0% | 0hPa | 0V | 00:00:00 | 00:00:00 | 00:00:00 | |
| POL1PZ | 2026-08-30 12:19:08 | 51.20688 | 17.56126 | 112° | 16km/h | 20124m | 5.0m/s | 0°C | 0% | 0hPa | 0V | 00:00:00 | 00:00:00 | 00:00:00 | |
| SP3BTT-10 | 2026-08-30 12:19:05 | 51.20693 | 17.56104 | 94° | 18km/h | 20109m | 4.7m/s | 0°C | 0% | 0hPa | 0V | 00:00:00 | 00:00:00 | 00:00:00 | |
| KRY50SP | 2026-08-30 12:19:04 | 51.20694 | 17.56098 | 107° | 15km/h | 20103m | 6.8m/s | 0°C | 0% | 0hPa | 0V | 00:00:00 | 00:00:00 | 00:00:00 | |
| SQ6EMJ | 2026-08-30 12:18:59 | 51.20687 | 17.56077 | 58° | 13km/h | 20078m | 5.3m/s | 0°C | 0% | 0hPa | 0V | 00:00:00 | 00:00:00 | 00:00:00 | |
| KRY50SP | 2026-08-30 12:18:58 | 51.20686 | 17.56073 | 96° | 11km/h | 20072m | 5.1m/s | 0°C | 0% | 0hPa | 0V | 00:00:00 | 00:00:00 | 00:00:00 | |
| SQ6EMJ | 2026-08-30 12:18:54 | 51.20686 | 17.56056 | 78° | 18km/h | 20052m | 5.2m/s | 0°C | 0% | 0hPa | 0V | 00:00:00 | 00:00:00 | 00:00:00 | |
| KRY50SP | 2026-08-30 12:18:50 | 51.20683 | 17.56036 | 44° | 9km/h | 20035m | 6.1m/s | 0°C | 0% | 0hPa | 0V | 00:00:00 | 00:00:00 | 00:00:00 | |
| SQ6EMJ | 2026-08-30 12:18:48 | 51.20677 | 17.56031 | 10° | 13km/h | 20023m | 4.8m/s | 0°C | 0% | 0hPa | 0V | 00:00:00 | 00:00:00 | 00:00:00 | |
| POL1PZ | 2026-08-30 12:18:47 | 51.20674 | 17.56032 | 342° | 13km/h | 20018m | 6.4m/s | 0°C | 0% | 0hPa | 0V | 00:00:00 | 00:00:00 | 00:00:00 | |
| KRY50SP | 2026-08-30 12:18:43 | 51.20664 | 17.56028 | 44° | 18km/h | 19998m | 4.3m/s | 0°C | 0% | 0hPa | 0V | 00:00:00 | 00:00:00 | 00:00:00 | |
| SQ6EMJ | 2026-08-30 12:18:42 | 51.20662 | 17.56024 | 43° | 15km/h | 19993m | 6.1m/s | 0°C | 0% | 0hPa | 0V | 00:00:00 | 00:00:00 | 00:00:00 | |
| KRY50SP | 2026-08-30 12:18:37 | 51.20647 | 17.56012 | 30° | 15km/h | 19967m | 5.0m/s | 0°C | 0% | 0hPa | 0V | 00:00:00 | 00:00:00 | 00:00:00 | |
| SQ6EMJ | 2026-08-30 12:18:32 | 51.20635 | 17.56002 | 53° | 16km/h | 19941m | 5.1m/s | 0°C | 0% | 0hPa | 0V | 00:00:00 | 00:00:00 | 00:00:00 | |
| KRY50SP | 2026-08-30 12:18:30 | 51.20630 | 17.55994 | 28° | 9km/h | 19930m | 5.9m/s | 0°C | 0% | 0hPa | 0V | 00:00:00 | 00:00:00 | 00:00:00 | |
| POL1PZ | 2026-08-30 12:18:27 | 51.20619 | 17.55988 | 10° | 20km/h | 19914m | 6.3m/s | 0°C | 0% | 0hPa | 0V | 00:00:00 | 00:00:00 | 00:00:00 | |
| SQ6EMJ | 2026-08-30 12:18:26 | 51.20614 | 17.55988 | 6° | 18km/h | 19910m | 4.2m/s | 0°C | 0% | 0hPa | 0V | 00:00:00 | 00:00:00 | 00:00:00 | |
| KRY50SP | 2026-08-30 12:18:24 | 51.20606 | 17.55988 | 327° | 11km/h | 19898m | 6.0m/s | 0°C | 0% | 0hPa | 0V | 00:00:00 | 00:00:00 | 00:00:00 | |
| SQ6EMJ | 2026-08-30 12:18:21 | 51.20596 | 17.55990 | 19° | 20km/h | 19882m | 5.8m/s | 0°C | 0% | 0hPa | 0V | 00:00:00 | 00:00:00 | 00:00:00 | |
| KRY50SP | 2026-08-30 12:18:18 | 51.20581 | 17.55983 | 3° | 16km/h | 19866m | 5.3m/s | 0°C | 0% | 0hPa | 0V | 00:00:00 | 00:00:00 | 00:00:00 | |
| SQ6EMJ | 2026-08-30 12:18:16 | 51.20565 | 17.55989 | 345° | 22km/h | 19851m | 4.8m/s | 0°C | 0% | 0hPa | 0V | 00:00:00 | 00:00:00 | 00:00:00 | |
| KRY50SP | 2026-08-30 12:18:13 | 51.20556 | 17.55994 | 341° | 13km/h | 19840m | 5.8m/s | 0°C | 0% | 0hPa | 0V | 00:00:00 | 00:00:00 | 00:00:00 | |
| SQ6EMJ | 2026-08-30 12:18:10 | 51.20537 | 17.55997 | 12° | 27km/h | 19822m | 4.5m/s | 0°C | 0% | 0hPa | 0V | 00:00:00 | 00:00:00 | 00:00:00 | |
| KRY50SP | 2026-08-30 12:18:07 | 51.20526 | 17.55992 | 19° | 15km/h | 19811m | 6.4m/s | 0°C | 0% | 0hPa | 0V | 00:00:00 | 00:00:00 | 00:00:00 | |
| POL1PZ | 2026-08-30 12:18:06 | 51.20523 | 17.55991 | 18° | 9km/h | 19805m | 5.7m/s | 0°C | 0% | 0hPa | 0V | 00:00:00 | 00:00:00 | 00:00:00 | |
| SP3BTT-10 | 2026-08-30 12:18:05 | 51.20520 | 17.55991 | 1° | 18km/h | 19799m | 6.2m/s | 0°C | 0% | 0hPa | 0V | 00:00:00 | 00:00:00 | 00:00:00 | |
| SQ6EMJ | 2026-08-30 12:18:03 | 51.20515 | 17.55996 | 326° | 13km/h | 19787m | 4.0m/s | 0°C | 0% | 0hPa | 0V | 00:00:00 | 00:00:00 | 00:00:00 | |
| KRY50SP | 2026-08-30 12:18:00 | 51.20508 | 17.56001 | 356° | 13km/h | 19772m | 6.0m/s | 0°C | 0% | 0hPa | 0V | 00:00:00 | 00:00:00 | 00:00:00 | |
| SQ6EMJ | 2026-08-30 12:17:57 | 51.20496 | 17.55998 | 24° | 20km/h | 19757m | 5.8m/s | 0°C | 0% | 0hPa | 0V | 00:00:00 | 00:00:00 | 00:00:00 | |
| KRY50SP | 2026-08-30 12:17:54 | 51.20490 | 17.55991 | 346° | 5km/h | 19741m | 6.2m/s | 0°C | 0% | 0hPa | 0V | 00:00:00 | 00:00:00 | 00:00:00 | |
| SQ6EMJ | 2026-08-30 12:17:52 | 51.20485 | 17.55992 | 359° | 15km/h | 19729m | 5.3m/s | 0°C | 0% | 0hPa | 0V | 00:00:00 | 00:00:00 | 00:00:00 | |
| KRY50SP | 2026-08-30 12:17:48 | 51.20477 | 17.55981 | 75° | 11km/h | 19709m | 5.4m/s | 0°C | 0% | 0hPa | 0V | 00:00:00 | 00:00:00 | 00:00:00 | |
| SQ6EMJ | 2026-08-30 12:17:46 | 51.20473 | 17.55975 | 19° | 15km/h | 19697m | 4.1m/s | 0°C | 0% | 0hPa | 0V | 00:00:00 | 00:00:00 | 00:00:00 | |
| POL1PZ | 2026-08-30 12:17:45 | 51.20470 | 17.55973 | 40° | 9km/h | 19692m | 7.8m/s | 0°C | 0% | 0hPa | 0V | 00:00:00 | 00:00:00 | 00:00:00 | |
| KRY50SP | 2026-08-30 12:17:43 | 51.20466 | 17.55968 | 27° | 13km/h | 19681m | 6.8m/s | 0°C | 0% | 0hPa | 0V | 00:00:00 | 00:00:00 | 00:00:00 | |
| SQ6EMJ | 2026-08-30 12:17:42 | 51.20458 | 17.55961 | 47° | 15km/h | 19672m | 3.5m/s | 0°C | 0% | 0hPa | 0V | 00:00:00 | 00:00:00 | 00:00:00 | |
| KRY50SP | 2026-08-30 12:17:37 | 51.20456 | 17.55934 | 88° | 18km/h | 19649m | 6.9m/s | 0°C | 0% | 0hPa | 0V | 00:00:00 | 00:00:00 | 00:00:00 | |
| SQ6EMJ | 2026-08-30 12:17:36 | 51.20455 | 17.55927 | 61° | 18km/h | 19643m | 6.0m/s | 0°C | 0% | 0hPa | 0V | 00:00:00 | 00:00:00 | 00:00:00 | |
| KRY50SP | 2026-08-30 12:17:32 | 51.20446 | 17.55903 | 77° | 15km/h | 19620m | 5.0m/s | 0°C | 0% | 0hPa | 0V | 00:00:00 | 00:00:00 | 00:00:00 | |
| SQ6EMJ | 2026-08-30 12:17:30 | 51.20444 | 17.55893 | 68° | 13km/h | 19609m | 5.7m/s | 0°C | 0% | 0hPa | 0V | 00:00:00 | 00:00:00 | 00:00:00 | |
| KRY50SP | 2026-08-30 12:17:26 | 51.20447 | 17.55864 | 92° | 24km/h | 19586m | 7.9m/s | 0°C | 0% | 0hPa | 0V | 00:00:00 | 00:00:00 | 00:00:00 | |
| POL1PZ | 2026-08-30 12:17:24 | 51.20446 | 17.55845 | 78° | 26km/h | 19575m | 5.7m/s | 0°C | 0% | 0hPa | 0V | 00:00:00 | 00:00:00 | 00:00:00 | |
| KRY50SP | 2026-08-30 12:17:20 | 51.20443 | 17.55808 | 71° | 22km/h | 19555m | 7.0m/s | 0°C | 0% | 0hPa | 0V | 00:00:00 | 00:00:00 | 00:00:00 | |
| SQ6EMJ | 2026-08-30 12:17:19 | 51.20441 | 17.55800 | 74° | 18km/h | 19550m | 4.3m/s | 0°C | 0% | 0hPa | 0V | 00:00:00 | 00:00:00 | 00:00:00 | |
| KRY50SP | 2026-08-30 12:17:14 | 51.20441 | 17.55762 | 55° | 18km/h | 19517m | 5.2m/s | 0°C | 0% | 0hPa | 0V | 00:00:00 | 00:00:00 | 00:00:00 | |
| KRY50SP | 2026-08-30 12:17:08 | 51.20431 | 17.55722 | 59° | 24km/h | 19487m | 6.9m/s | 0°C | 0% | 0hPa | 0V | 00:00:00 | 00:00:00 | 00:00:00 | |
| SQ6EMJ | 2026-08-30 12:17:07 | 51.20427 | 17.55714 | 50° | 22km/h | 19482m | 3.4m/s | 0°C | 0% | 0hPa | 0V | 00:00:00 | 00:00:00 | 00:00:00 | |
| SP3BTT-10 | 2026-08-30 12:17:05 | 51.20423 | 17.55698 | 61° | 13km/h | 19474m | 3.2m/s | 0°C | 0% | 0hPa | 0V | 00:00:00 | 00:00:00 | 00:00:00 | |
| POL1PZ | 2026-08-30 12:17:03 | 51.20418 | 17.55684 | 38° | 20km/h | 19466m | 6.3m/s | 0°C | 0% | 0hPa | 0V | 00:00:00 | 00:00:00 | 00:00:00 | |
| SQ6EMJ | 2026-08-30 12:17:02 | 51.20414 | 17.55679 | 43° | 20km/h | 19461m | 4.7m/s | 0°C | 0% | 0hPa | 0V | 00:00:00 | 00:00:00 | 00:00:00 | |
| KRY50SP | 2026-08-30 12:16:56 | 51.20394 | 17.55640 | 64° | 24km/h | 19426m | 6.8m/s | 0°C | 0% | 0hPa | 0V | 00:00:00 | 00:00:00 | 00:00:00 | |
| KRY50SP | 2026-08-30 12:16:50 | 51.20368 | 17.55609 | 37° | 16km/h | 19397m | 5.0m/s | 0°C | 0% | 0hPa | 0V | 00:00:00 | 00:00:00 | 00:00:00 | |
| SQ6EMJ | 2026-08-30 12:16:46 | 51.20351 | 17.55585 | 58° | 22km/h | 19372m | 5.7m/s | 0°C | 0% | 0hPa | 0V | 00:00:00 | 00:00:00 | 00:00:00 | |
| KRY50SP | 2026-08-30 12:16:45 | 51.20351 | 17.55585 | 58° | 22km/h | 19372m | 5.7m/s | 0°C | 0% | 0hPa | 0V | 00:00:00 | 00:00:00 | 00:00:00 | |
| POL1PZ | 2026-08-30 12:16:43 | 51.20344 | 17.55572 | 38° | 24km/h | 19362m | 6.4m/s | 0°C | 0% | 0hPa | 0V | 00:00:00 | 00:00:00 | 00:00:00 | |
| KRY50SP | 2026-08-30 12:16:40 | 51.20329 | 17.55565 | 11° | 16km/h | 19348m | 6.4m/s | 0°C | 0% | 0hPa | 0V | 00:00:00 | 00:00:00 | 00:00:00 | |
| SQ6EMJ | 2026-08-30 12:16:39 | 51.20326 | 17.55564 | 349° | 9km/h | 19342m | 5.9m/s | 0°C | 0% | 0hPa | 0V | 00:00:00 | 00:00:00 | 00:00:00 | |
| KRY50SP | 2026-08-30 12:16:34 | 51.20311 | 17.55551 | 36° | 16km/h | 19317m | 5.2m/s | 0°C | 0% | 0hPa | 0V | 00:00:00 | 00:00:00 | 00:00:00 | |
| SQ6EMJ | 2026-08-30 12:16:33 | 51.20308 | 17.55548 | 32° | 16km/h | 19313m | 5.0m/s | 0°C | 0% | 0hPa | 0V | 00:00:00 | 00:00:00 | 00:00:00 | |
| KRY50SP | 2026-08-30 12:16:28 | 51.20287 | 17.55544 | 13° | 4km/h | 19283m | 6.3m/s | 0°C | 0% | 0hPa | 0V | 00:00:00 | 00:00:00 | 00:00:00 | |
| SQ6EMJ | 2026-08-30 12:16:27 | 51.20286 | 17.55542 | 44° | 7km/h | 19277m | 5.2m/s | 0°C | 0% | 0hPa | 0V | 00:00:00 | 00:00:00 | 00:00:00 | |
| POL1PZ | 2026-08-30 12:16:23 | 51.20269 | 17.55528 | 35° | 20km/h | 19257m | 5.3m/s | 0°C | 0% | 0hPa | 0V | 00:00:00 | 00:00:00 | 00:00:00 | |
| KRY50SP | 2026-08-30 12:16:22 | 51.20265 | 17.55525 | 16° | 16km/h | 19251m | 5.1m/s | 0°C | 0% | 0hPa | 0V | 00:00:00 | 00:00:00 | 00:00:00 | |
| SQ6EMJ | 2026-08-30 12:16:21 | 51.20261 | 17.55523 | 19° | 13km/h | 19248m | 3.4m/s | 0°C | 0% | 0hPa | 0V | 00:00:00 | 00:00:00 | 00:00:00 | |
| KRY50SP | 2026-08-30 12:16:17 | 51.20244 | 17.55519 | 3° | 15km/h | 19231m | 6.6m/s | 0°C | 0% | 0hPa | 0V | 00:00:00 | 00:00:00 | 00:00:00 | |
| SQ6EMJ | 2026-08-30 12:16:16 | 51.20240 | 17.55519 | 5° | 18km/h | 19225m | 5.5m/s | 0°C | 0% | 0hPa | 0V | 00:00:00 | 00:00:00 | 00:00:00 | |
| KRY50SP | 2026-08-30 12:16:11 | 51.20216 | 17.55505 | 17° | 11km/h | 19198m | 5.7m/s | 0°C | 0% | 0hPa | 0V | 00:00:00 | 00:00:00 | 00:00:00 | |
| KRY50SP | 2026-08-30 12:16:05 | 51.20200 | 17.55504 | 15° | 11km/h | 19167m | 6.5m/s | 0°C | 0% | 0hPa | 0V | 00:00:00 | 00:00:00 | 00:00:00 | |
| POL1PZ | 2026-08-30 12:16:02 | 51.20190 | 17.55496 | 46° | 15km/h | 19150m | 6.9m/s | 0°C | 0% | 0hPa | 0V | 00:00:00 | 00:00:00 | 00:00:00 | |
| KRY50SP | 2026-08-30 12:15:59 | 51.20183 | 17.55492 | 358° | 13km/h | 19137m | 6.2m/s | 0°C | 0% | 0hPa | 0V | 00:00:00 | 00:00:00 | 00:00:00 | |
| KRY50SP | 2026-08-30 12:15:53 | 51.20167 | 17.55492 | 21° | 9km/h | 19104m | 6.0m/s | 0°C | 0% | 0hPa | 0V | 00:00:00 | 00:00:00 | 00:00:00 | |
| SP3BTT-10 | 2026-08-30 12:15:49 | 51.20158 | 17.55480 | 50° | 9km/h | 19083m | 3.2m/s | 0°C | 0% | 0hPa | 0V | 00:00:00 | 00:00:00 | 00:00:00 | |
| KRY50SP | 2026-08-30 12:15:47 | 51.20153 | 17.55475 | 21° | 15km/h | 19073m | 5.8m/s | 0°C | 0% | 0hPa | 0V | 00:00:00 | 00:00:00 | 00:00:00 | |
| KRY50SP | 2026-08-30 12:15:42 | 51.20141 | 17.55461 | 37° | 13km/h | 19047m | 5.1m/s | 0°C | 0% | 0hPa | 0V | 00:00:00 | 00:00:00 | 00:00:00 | |
| POL1PZ | 2026-08-30 12:15:41 | 51.20138 | 17.55458 | 32° | 15km/h | 19042m | 6.1m/s | 0°C | 0% | 0hPa | 0V | 00:00:00 | 00:00:00 | 00:00:00 | |
| KRY50SP | 2026-08-30 12:15:37 | 51.20122 | 17.55441 | 29° | 16km/h | 19015m | 3.8m/s | 0°C | 0% | 0hPa | 0V | 00:00:00 | 00:00:00 | 00:00:00 | |
| KRY50SP | 2026-08-30 12:15:30 | 51.20106 | 17.55401 | 60° | 22km/h | 18986m | 6.3m/s | 0°C | 0% | 0hPa | 0V | 00:00:00 | 00:00:00 | 00:00:00 | |
| KRY50SP | 2026-08-30 12:15:24 | 51.20090 | 17.55362 | 53° | 16km/h | 18956m | 4.4m/s | 0°C | 0% | 0hPa | 0V | 00:00:00 | 00:00:00 | 00:00:00 | |
| POL1PZ | 2026-08-30 12:15:21 | 51.20082 | 17.55343 | 52° | 20km/h | 18941m | 4.6m/s | 0°C | 0% | 0hPa | 0V | 00:00:00 | 00:00:00 | 00:00:00 | |
| SQ6EMJ | 2026-08-30 12:15:19 | 51.20076 | 17.55326 | 64° | 18km/h | 18927m | 5.8m/s | 0°C | 0% | 0hPa | 0V | 00:00:00 | 00:00:00 | 00:00:00 | |
| KRY50SP | 2026-08-30 12:15:18 | 51.20076 | 17.55326 | 64° | 18km/h | 18927m | 5.8m/s | 0°C | 0% | 0hPa | 0V | 00:00:00 | 00:00:00 | 00:00:00 | |
| KRY50SP | 2026-08-30 12:15:12 | 51.20061 | 17.55295 | 44° | 16km/h | 18895m | 5.4m/s | 0°C | 0% | 0hPa | 0V | 00:00:00 | 00:00:00 | 00:00:00 | |
| KRY50SP | 2026-08-30 12:15:07 | 51.20047 | 17.55274 | 49° | 18km/h | 18870m | 6.1m/s | 0°C | 0% | 0hPa | 0V | 00:00:00 | 00:00:00 | 00:00:00 | |
| SQ6EMJ | 2026-08-30 12:15:06 | 51.20044 | 17.55269 | 43° | 16km/h | 18865m | 4.1m/s | 0°C | 0% | 0hPa | 0V | 00:00:00 | 00:00:00 | 00:00:00 | |
| SQ6EMJ | 2026-08-30 12:15:01 | 51.20031 | 17.55254 | 5° | 15km/h | 18838m | 4.3m/s | 0°C | 0% | 0hPa | 0V | 00:00:00 | 00:00:00 | 00:00:00 | |
| POL1PZ | 2026-08-30 12:15:00 | 51.20029 | 17.55253 | 31° | 9km/h | 18832m | 6.2m/s | 0°C | 0% | 0hPa | 0V | 00:00:00 | 00:00:00 | 00:00:00 | |
| SQ6EMJ | 2026-08-30 12:14:56 | 51.20021 | 17.55242 | 34° | 13km/h | 18811m | 4.3m/s | 0°C | 0% | 0hPa | 0V | 00:00:00 | 00:00:00 | 00:00:00 | |
| KRY50SP | 2026-08-30 12:14:55 | 51.20018 | 17.55239 | 9° | 16km/h | 18807m | 4.1m/s | 0°C | 0% | 0hPa | 0V | 00:00:00 | 00:00:00 | 00:00:00 | |
| SQ6EMJ | 2026-08-30 12:14:50 | 51.20005 | 17.55245 | 307° | 11km/h | 18781m | 5.5m/s | 0°C | 0% | 0hPa | 0V | 00:00:00 | 00:00:00 | 00:00:00 | |
| KRY50SP | 2026-08-30 12:14:49 | 51.20004 | 17.55248 | 298° | 5km/h | 18775m | 4.8m/s | 0°C | 0% | 0hPa | 0V | 00:00:00 | 00:00:00 | 00:00:00 | |
| SQ6EMJ | 2026-08-30 12:14:45 | 51.19994 | 17.55249 | 350° | 13km/h | 18751m | 4.5m/s | 0°C | 0% | 0hPa | 0V | 00:00:00 | 00:00:00 | 00:00:00 | |
| KRY50SP | 2026-08-30 12:14:43 | 51.19991 | 17.55249 | 355° | 13km/h | 18746m | 5.1m/s | 0°C | 0% | 0hPa | 0V | 00:00:00 | 00:00:00 | 00:00:00 | |
| POL1PZ | 2026-08-30 12:14:39 | 51.19984 | 17.55256 | 195° | 7km/h | 18725m | 5.2m/s | 0°C | 0% | 0hPa | 0V | 00:00:00 | 00:00:00 | 00:00:00 | |
| KRY50SP | 2026-08-30 12:14:38 | 51.19986 | 17.55257 | 215° | 5km/h | 18721m | 4.0m/s | 0°C | 0% | 0hPa | 0V | 00:00:00 | 00:00:00 | 00:00:00 | |
| KRY50SP | 2026-08-30 12:14:34 | 51.19982 | 17.55261 | 299° | 4km/h | 18696m | 4.6m/s | 0°C | 0% | 0hPa | 0V | 00:00:00 | 00:00:00 | 00:00:00 | |
| KRY50SP | 2026-08-30 12:14:28 | 51.19981 | 17.55268 | 209° | 5km/h | 18674m | 4.7m/s | 0°C | 0% | 0hPa | 0V | 00:00:00 | 00:00:00 | 00:00:00 | |
| SQ6EMJ | 2026-08-30 12:14:27 | 51.19983 | 17.55269 | 207° | 11km/h | 18670m | 4.6m/s | 0°C | 0% | 0hPa | 0V | 00:00:00 | 00:00:00 | 00:00:00 | |
| SQ6EMJ | 2026-08-30 12:14:22 | 51.19983 | 17.55273 | 269° | 4km/h | 18644m | 4.1m/s | 0°C | 0% | 0hPa | 0V | 00:00:00 | 00:00:00 | 00:00:00 | |
| POL1PZ | 2026-08-30 12:14:19 | 51.19986 | 17.55270 | 114° | 5km/h | 18629m | 3.8m/s | 0°C | 0% | 0hPa | 0V | 00:00:00 | 00:00:00 | 00:00:00 | |
| SQ6EMJ | 2026-08-30 12:14:17 | 51.19989 | 17.55269 | 0° | 0km/h | 18617m | 5.2m/s | 0°C | 0% | 0hPa | 0V | 00:00:00 | 00:00:00 | 00:00:00 | |
| KRY50SP | 2026-08-30 12:14:16 | 51.19989 | 17.55269 | 0° | 0km/h | 18617m | 5.2m/s | 0°C | 0% | 0hPa | 0V | 00:00:00 | 00:00:00 | 00:00:00 | |
| KRY50SP | 2026-08-30 12:14:11 | 51.19993 | 17.55265 | 160° | 15km/h | 18592m | 5.0m/s | 0°C | 0% | 0hPa | 0V | 00:00:00 | 00:00:00 | 00:00:00 | |
| SQ6EMJ | 2026-08-30 12:14:10 | 51.19996 | 17.55262 | 141° | 13km/h | 18587m | 4.3m/s | 0°C | 0% | 0hPa | 0V | 00:00:00 | 00:00:00 | 00:00:00 | |
| KRY50SP | 2026-08-30 12:14:05 | 51.20001 | 17.55238 | 99° | 16km/h | 18564m | 4.7m/s | 0°C | 0% | 0hPa | 0V | 00:00:00 | 00:00:00 | 00:00:00 | |
| SQ6EMJ | 2026-08-30 12:14:04 | 51.20001 | 17.55233 | 110° | 13km/h | 18558m | 7.3m/s | 0°C | 0% | 0hPa | 0V | 00:00:00 | 00:00:00 | 00:00:00 | |
| KRY50SP | 2026-08-30 12:14:00 | 51.20009 | 17.55214 | 132° | 15km/h | 18539m | 3.8m/s | 0°C | 0% | 0hPa | 0V | 00:00:00 | 00:00:00 | 00:00:00 | |
| SQ6EMJ | 2026-08-30 12:13:59 | 51.20011 | 17.55209 | 111° | 16km/h | 18534m | 5.6m/s | 0°C | 0% | 0hPa | 0V | 00:00:00 | 00:00:00 | 00:00:00 | |
| POL1PZ | 2026-08-30 12:13:58 | 51.20012 | 17.55202 | 110° | 18km/h | 18529m | 4.3m/s | 0°C | 0% | 0hPa | 0V | 00:00:00 | 00:00:00 | 00:00:00 | |
| SQ6EMJ | 2026-08-30 12:13:54 | 51.20018 | 17.55151 | 82° | 24km/h | 18506m | 5.3m/s | 0°C | 0% | 0hPa | 0V | 00:00:00 | 00:00:00 | 00:00:00 | |
| KRY50SP | 2026-08-30 12:13:49 | 51.20022 | 17.55120 | 117° | 18km/h | 18486m | 4.4m/s | 0°C | 0% | 0hPa | 0V | 00:00:00 | 00:00:00 | 00:00:00 | |
| SQ6EMJ | 2026-08-30 12:13:47 | 51.20024 | 17.55106 | 94° | 18km/h | 18476m | 4.9m/s | 0°C | 0% | 0hPa | 0V | 00:00:00 | 00:00:00 | 00:00:00 | |
| KRY50SP | 2026-08-30 12:13:44 | 51.20022 | 17.55085 | 96° | 15km/h | 18461m | 5.0m/s | 0°C | 0% | 0hPa | 0V | 00:00:00 | 00:00:00 | 00:00:00 | |
| SQ6EMJ | 2026-08-30 12:13:42 | 51.20023 | 17.55069 | 91° | 20km/h | 18453m | 5.0m/s | 0°C | 0% | 0hPa | 0V | 00:00:00 | 00:00:00 | 00:00:00 | |
| POL1PZ | 2026-08-30 12:13:38 | 51.20020 | 17.55033 | 91° | 22km/h | 18433m | 3.9m/s | 0°C | 0% | 0hPa | 0V | 00:00:00 | 00:00:00 | 00:00:00 | |
| SQ6EMJ | 2026-08-30 12:13:36 | 51.20017 | 17.55016 | 68° | 29km/h | 18425m | 6.9m/s | 0°C | 0% | 0hPa | 0V | 00:00:00 | 00:00:00 | 00:00:00 | |
| KRY50SP | 2026-08-30 12:13:33 | 51.20012 | 17.54984 | 86° | 22km/h | 18410m | 5.6m/s | 0°C | 0% | 0hPa | 0V | 00:00:00 | 00:00:00 | 00:00:00 | |
| SQ6EMJ | 2026-08-30 12:13:31 | 51.20011 | 17.54966 | 89° | 24km/h | 18400m | 4.2m/s | 0°C | 0% | 0hPa | 0V | 00:00:00 | 00:00:00 | 00:00:00 | |
| KRY50SP | 2026-08-30 12:13:27 | 51.19999 | 17.54931 | 48° | 22km/h | 18380m | 6.0m/s | 0°C | 0% | 0hPa | 0V | 00:00:00 | 00:00:00 | 00:00:00 | |
| SQ6EMJ | 2026-08-30 12:13:25 | 51.19992 | 17.54917 | 54° | 22km/h | 18370m | 4.6m/s | 0°C | 0% | 0hPa | 0V | 00:00:00 | 00:00:00 | 00:00:00 | |
| KRY50SP | 2026-08-30 12:13:21 | 51.19980 | 17.54874 | 79° | 27km/h | 18351m | 5.4m/s | 0°C | 0% | 0hPa | 0V | 00:00:00 | 00:00:00 | 00:00:00 | |
| SP3BTT-10 | 2026-08-30 12:13:19 | 51.19976 | 17.54853 | 59° | 22km/h | 18343m | 4.6m/s | 0°C | 0% | 0hPa | 0V | 00:00:00 | 00:00:00 | 00:00:00 | |
| POL1PZ | 2026-08-30 12:13:17 | 51.19966 | 17.54835 | 45° | 33km/h | 18334m | 4.2m/s | 0°C | 0% | 0hPa | 0V | 00:00:00 | 00:00:00 | 00:00:00 | |
| KRY50SP | 2026-08-30 12:13:15 | 51.19955 | 17.54817 | 52° | 27km/h | 18325m | 4.2m/s | 0°C | 0% | 0hPa | 0V | 00:00:00 | 00:00:00 | 00:00:00 | |
| SQ6EMJ | 2026-08-30 12:13:14 | 51.19950 | 17.54808 | 55° | 27km/h | 18321m | 3.9m/s | 0°C | 0% | 0hPa | 0V | 00:00:00 | 00:00:00 | 00:00:00 | |
| SQ6EMJ | 2026-08-30 12:13:09 | 51.19921 | 17.54751 | 32° | 20km/h | 18293m | 5.8m/s | 0°C | 0% | 0hPa | 0V | 00:00:00 | 00:00:00 | 00:00:00 | |
| KRY50SP | 2026-08-30 12:13:03 | 51.19891 | 17.54732 | 32° | 24km/h | 18268m | 4.9m/s | 0°C | 0% | 0hPa | 0V | 00:00:00 | 00:00:00 | 00:00:00 | |
| SQ6EMJ | 2026-08-30 12:13:02 | 51.19887 | 17.54727 | 39° | 20km/h | 18262m | 6.1m/s | 0°C | 0% | 0hPa | 0V | 00:00:00 | 00:00:00 | 00:00:00 | |
| KRY50SP | 2026-08-30 12:12:58 | 51.19868 | 17.54693 | 64° | 9km/h | 18235m | 5.2m/s | 0°C | 0% | 0hPa | 0V | 00:00:00 | 00:00:00 | 00:00:00 | |
| SQ6EMJ | 2026-08-30 12:12:56 | 51.19867 | 17.54690 | 48° | 7km/h | 18230m | 4.9m/s | 0°C | 0% | 0hPa | 0V | 00:00:00 | 00:00:00 | 00:00:00 | |
| KRY50SP | 2026-08-30 12:12:52 | 51.19852 | 17.54674 | 42° | 16km/h | 18209m | 7.0m/s | 0°C | 0% | 0hPa | 0V | 00:00:00 | 00:00:00 | 00:00:00 | |
| SQ6EMJ | 2026-08-30 12:12:51 | 51.19850 | 17.54669 | 52° | 18km/h | 18203m | 4.6m/s | 0°C | 0% | 0hPa | 0V | 00:00:00 | 00:00:00 | 00:00:00 | |
| SQ6EMJ | 2026-08-30 12:12:46 | 51.19839 | 17.54643 | 19° | 7km/h | 18178m | 4.1m/s | 0°C | 0% | 0hPa | 0V | 00:00:00 | 00:00:00 | 00:00:00 | |
| KRY50SP | 2026-08-30 12:12:40 | 51.19828 | 17.54624 | 92° | 9km/h | 18149m | 4.0m/s | 0°C | 0% | 0hPa | 0V | 00:00:00 | 00:00:00 | 00:00:00 | |
| POL1PZ | 2026-08-30 12:12:35 | 51.19830 | 17.54599 | 97° | 7km/h | 18126m | 4.0m/s | 0°C | 0% | 0hPa | 0V | 00:00:00 | 00:00:00 | 00:00:00 | |
| KRY50SP | 2026-08-30 12:12:34 | 51.19830 | 17.54595 | 85° | 13km/h | 18121m | 5.7m/s | 0°C | 0% | 0hPa | 0V | 00:00:00 | 00:00:00 | 00:00:00 | |
| SQ6EMJ | 2026-08-30 12:12:29 | 51.19827 | 17.54559 | 103° | 11km/h | 18097m | 4.3m/s | 0°C | 0% | 0hPa | 0V | 00:00:00 | 00:00:00 | 00:00:00 | |
| KRY50SP | 2026-08-30 12:12:28 | 51.19827 | 17.54554 | 106° | 11km/h | 18093m | 3.4m/s | 0°C | 0% | 0hPa | 0V | 00:00:00 | 00:00:00 | 00:00:00 | |
| KRY50SP | 2026-08-30 12:12:23 | 51.19832 | 17.54517 | 92° | 15km/h | 18070m | 4.9m/s | 0°C | 0% | 0hPa | 0V | 00:00:00 | 00:00:00 | 00:00:00 | |
| KRY50SP | 2026-08-30 12:12:19 | 51.19825 | 17.54482 | 78° | 7km/h | 18043m | 4.4m/s | 0°C | 0% | 0hPa | 0V | 00:00:00 | 00:00:00 | 00:00:00 | |
| SP3BTT-10 | 2026-08-30 12:12:18 | 51.19825 | 17.54482 | 77° | 29km/h | 18043m | 4.3m/s | 0°C | 0% | 0hPa | 0V | 00:00:00 | 00:00:00 | 00:00:00 | |
| SQ6EMJ | 2026-08-30 12:12:17 | 51.19825 | 17.54478 | 100° | 11km/h | 18039m | 5.6m/s | 0°C | 0% | 0hPa | 0V | 00:00:00 | 00:00:00 | 00:00:00 | |
| POL1PZ | 2026-08-30 12:12:15 | 51.19827 | 17.54466 | 98° | 18km/h | 18029m | 3.3m/s | 0°C | 0% | 0hPa | 0V | 00:00:00 | 00:00:00 | 00:00:00 | |
| KRY50SP | 2026-08-30 12:12:13 | 51.19827 | 17.54450 | 80° | 16km/h | 18019m | 5.2m/s | 0°C | 0% | 0hPa | 0V | 00:00:00 | 00:00:00 | 00:00:00 | |
| SQ6EMJ | 2026-08-30 12:12:12 | 51.19827 | 17.54443 | 80° | 15km/h | 18014m | 4.7m/s | 0°C | 0% | 0hPa | 0V | 00:00:00 | 00:00:00 | 00:00:00 | |
| KRY50SP | 2026-08-30 12:12:08 | 51.19822 | 17.54415 | 61° | 15km/h | 17987m | 4.1m/s | 0°C | 0% | 0hPa | 0V | 00:00:00 | 00:00:00 | 00:00:00 | |
| SQ6EMJ | 2026-08-30 12:12:06 | 51.19820 | 17.54409 | 69° | 16km/h | 17983m | 6.2m/s | 0°C | 0% | 0hPa | 0V | 00:00:00 | 00:00:00 | 00:00:00 | |
| KRY50SP | 2026-08-30 12:12:02 | 51.19816 | 17.54376 | 70° | 18km/h | 17962m | 4.9m/s | 0°C | 0% | 0hPa | 0V | 00:00:00 | 00:00:00 | 00:00:00 | |
| SQ6EMJ | 2026-08-30 12:12:00 | 51.19813 | 17.54363 | 72° | 16km/h | 17953m | 6.2m/s | 0°C | 0% | 0hPa | 0V | 00:00:00 | 00:00:00 | 00:00:00 | |
| KRY50SP | 2026-08-30 12:11:56 | 51.19804 | 17.54329 | 62° | 31km/h | 17934m | 5.0m/s | 0°C | 0% | 0hPa | 0V | 00:00:00 | 00:00:00 | 00:00:00 | |
| KRY50SP | 2026-08-30 12:11:51 | 51.19790 | 17.54272 | 57° | 26km/h | 17909m | 5.4m/s | 0°C | 0% | 0hPa | 0V | 00:00:00 | 00:00:00 | 00:00:00 | |
| SQ6EMJ | 2026-08-30 12:11:49 | 51.19783 | 17.54256 | 64° | 24km/h | 17898m | 5.1m/s | 0°C | 0% | 0hPa | 0V | 00:00:00 | 00:00:00 | 00:00:00 | |
| KRY50SP | 2026-08-30 12:11:45 | 51.19768 | 17.54219 | 54° | 33km/h | 17880m | 4.5m/s | 0°C | 0% | 0hPa | 0V | 00:00:00 | 00:00:00 | 00:00:00 | |
| SQ6EMJ | 2026-08-30 12:11:43 | 51.19760 | 17.54196 | 69° | 33km/h | 17871m | 5.4m/s | 0°C | 0% | 0hPa | 0V | 00:00:00 | 00:00:00 | 00:00:00 | |
| KRY50SP | 2026-08-30 12:11:40 | 51.19748 | 17.54167 | 38° | 26km/h | 17857m | 4.7m/s | 0°C | 0% | 0hPa | 0V | 00:00:00 | 00:00:00 | 00:00:00 | |
| SQ6EMJ | 2026-08-30 12:11:38 | 51.19738 | 17.54156 | 39° | 20km/h | 17848m | 5.8m/s | 0°C | 0% | 0hPa | 0V | 00:00:00 | 00:00:00 | 00:00:00 | |
| KRY50SP | 2026-08-30 12:11:35 | 51.19727 | 17.54137 | 39° | 29km/h | 17834m | 5.2m/s | 0°C | 0% | 0hPa | 0V | 00:00:00 | 00:00:00 | 00:00:00 | |
| POL1PZ | 2026-08-30 12:11:33 | 51.19713 | 17.54120 | 36° | 38km/h | 17825m | 4.6m/s | 0°C | 0% | 0hPa | 0V | 00:00:00 | 00:00:00 | 00:00:00 | |
| SQ6EMJ | 2026-08-30 12:11:32 | 51.19705 | 17.54110 | 43° | 40km/h | 17819m | 6.0m/s | 0°C | 0% | 0hPa | 0V | 00:00:00 | 00:00:00 | 00:00:00 | |
| KRY50SP | 2026-08-30 12:11:29 | 51.19686 | 17.54082 | 35° | 33km/h | 17803m | 5.6m/s | 0°C | 0% | 0hPa | 0V | 00:00:00 | 00:00:00 | 00:00:00 | |
| SQ6EMJ | 2026-08-30 12:11:26 | 51.19666 | 17.54060 | 43° | 31km/h | 17789m | 4.5m/s | 0°C | 0% | 0hPa | 0V | 00:00:00 | 00:00:00 | 00:00:00 | |
| KRY50SP | 2026-08-30 12:11:24 | 51.19653 | 17.54044 | 29° | 33km/h | 17779m | 6.7m/s | 0°C | 0% | 0hPa | 0V | 00:00:00 | 00:00:00 | 00:00:00 | |
| SQ6EMJ | 2026-08-30 12:11:21 | 51.19629 | 17.54023 | 34° | 38km/h | 17764m | 4.4m/s | 0°C | 0% | 0hPa | 0V | 00:00:00 | 00:00:00 | 00:00:00 | |
| SP3BTT-10 | 2026-08-30 12:11:18 | 51.19606 | 17.53998 | 26° | 29km/h | 17750m | 6.3m/s | 0°C | 0% | 0hPa | 0V | 00:00:00 | 00:00:00 | 00:00:00 | |
| SQ6EMJ | 2026-08-30 12:11:16 | 51.19594 | 17.53985 | 33° | 29km/h | 17740m | 6.7m/s | 0°C | 0% | 0hPa | 0V | 00:00:00 | 00:00:00 | 00:00:00 | |
| KRY50SP | 2026-08-30 12:11:13 | 51.19574 | 17.53964 | 28° | 37km/h | 17723m | 6.6m/s | 0°C | 0% | 0hPa | 0V | 00:00:00 | 00:00:00 | 00:00:00 | |
| POL1PZ | 2026-08-30 12:11:12 | 51.19566 | 17.53958 | 23° | 38km/h | 17718m | 4.7m/s | 0°C | 0% | 0hPa | 0V | 00:00:00 | 00:00:00 | 00:00:00 | |
| SQ6EMJ | 2026-08-30 12:11:10 | 51.19547 | 17.53942 | 32° | 42km/h | 17708m | 6.7m/s | 0°C | 0% | 0hPa | 0V | 00:00:00 | 00:00:00 | 00:00:00 | |
| KRY50SP | 2026-08-30 12:11:07 | 51.19524 | 17.53918 | 27° | 33km/h | 17691m | 5.8m/s | 0°C | 0% | 0hPa | 0V | 00:00:00 | 00:00:00 | 00:00:00 | |
| SQ6EMJ | 2026-08-30 12:11:04 | 51.19502 | 17.53899 | 34° | 37km/h | 17677m | 6.1m/s | 0°C | 0% | 0hPa | 0V | 00:00:00 | 00:00:00 | 00:00:00 | |
| KRY50SP | 2026-08-30 12:11:01 | 51.19477 | 17.53878 | 17° | 42km/h | 17662m | 5.2m/s | 0°C | 0% | 0hPa | 0V | 00:00:00 | 00:00:00 | 00:00:00 | |
| SQ6EMJ | 2026-08-30 12:10:59 | 51.19455 | 17.53869 | 17° | 44km/h | 17652m | 5.6m/s | 0°C | 0% | 0hPa | 0V | 00:00:00 | 00:00:00 | 00:00:00 | |
| KRY50SP | 2026-08-30 12:10:55 | 51.19414 | 17.53842 | 20° | 42km/h | 17635m | 4.2m/s | 0°C | 0% | 0hPa | 0V | 00:00:00 | 00:00:00 | 00:00:00 | |
| SQ6EMJ | 2026-08-30 12:10:54 | 51.19405 | 17.53836 | 26° | 38km/h | 17631m | 5.3m/s | 0°C | 0% | 0hPa | 0V | 00:00:00 | 00:00:00 | 00:00:00 | |
| POL1PZ | 2026-08-30 12:10:53 | 51.19389 | 17.53819 | 40° | 38km/h | 17620m | 5.0m/s | 0°C | 0% | 0hPa | 0V | 00:00:00 | 00:00:00 | 00:00:00 | |
| KRY50SP | 2026-08-30 12:10:49 | 51.19366 | 17.53797 | 21° | 37km/h | 17604m | 3.9m/s | 0°C | 0% | 0hPa | 0V | 00:00:00 | 00:00:00 | 00:00:00 | |
| SQ6EMJ | 2026-08-30 12:10:48 | 51.19357 | 17.53792 | 28° | 38km/h | 17600m | 6.4m/s | 0°C | 0% | 0hPa | 0V | 00:00:00 | 00:00:00 | 00:00:00 | |
| KRY50SP | 2026-08-30 12:10:44 | 51.19324 | 17.53757 | 29° | 35km/h | 17578m | 5.3m/s | 0°C | 0% | 0hPa | 0V | 00:00:00 | 00:00:00 | 00:00:00 | |
| SQ6EMJ | 2026-08-30 12:10:42 | 51.19308 | 17.53743 | 36° | 35km/h | 17568m | 4.8m/s | 0°C | 0% | 0hPa | 0V | 00:00:00 | 00:00:00 | 00:00:00 | |
| KRY50SP | 2026-08-30 12:10:39 | 51.19288 | 17.53717 | 48° | 29km/h | 17555m | 5.6m/s | 0°C | 0% | 0hPa | 0V | 00:00:00 | 00:00:00 | 00:00:00 | |
| SQ6EMJ | 2026-08-30 12:10:37 | 51.19277 | 17.53698 | 49° | 33km/h | 17546m | 5.5m/s | 0°C | 0% | 0hPa | 0V | 00:00:00 | 00:00:00 | 00:00:00 | |
| KRY50SP | 2026-08-30 12:10:33 | 51.19250 | 17.53661 | 34° | 31km/h | 17528m | 5.0m/s | 0°C | 0% | 0hPa | 0V | 00:00:00 | 00:00:00 | 00:00:00 | |
| POL1PZ | 2026-08-30 12:10:31 | 51.19237 | 17.53645 | 42° | 31km/h | 17518m | 6.6m/s | 0°C | 0% | 0hPa | 0V | 00:00:00 | 00:00:00 | 00:00:00 | |
| KRY50SP | 2026-08-30 12:10:27 | 51.19217 | 17.53610 | 33° | 27km/h | 17500m | 4.4m/s | 0°C | 0% | 0hPa | 0V | 00:00:00 | 00:00:00 | 00:00:00 | |
| SQ6EMJ | 2026-08-30 12:10:26 | 51.19211 | 17.53604 | 38° | 26km/h | 17495m | 6.8m/s | 0°C | 0% | 0hPa | 0V | 00:00:00 | 00:00:00 | 00:00:00 | |
| KRY50SP | 2026-08-30 12:10:22 | 51.19181 | 17.53579 | 19° | 38km/h | 17474m | 6.1m/s | 0°C | 0% | 0hPa | 0V | 00:00:00 | 00:00:00 | 00:00:00 | |
| SQ6EMJ | 2026-08-30 12:10:20 | 51.19164 | 17.53569 | 29° | 35km/h | 17462m | 5.7m/s | 0°C | 0% | 0hPa | 0V | 00:00:00 | 00:00:00 | 00:00:00 | |
| KRY50SP | 2026-08-30 12:10:17 | 51.19147 | 17.53549 | 38° | 22km/h | 17447m | 4.7m/s | 0°C | 0% | 0hPa | 0V | 00:00:00 | 00:00:00 | 00:00:00 | |
| SQ6EMJ | 2026-08-30 12:10:15 | 51.19137 | 17.53537 | 38° | 29km/h | 17438m | 5.6m/s | 0°C | 0% | 0hPa | 0V | 00:00:00 | 00:00:00 | 00:00:00 | |
| KRY50SP | 2026-08-30 12:10:12 | 51.19116 | 17.53516 | 28° | 31km/h | 17423m | 5.4m/s | 0°C | 0% | 0hPa | 0V | 00:00:00 | 00:00:00 | 00:00:00 | |
| KRY50SP | 2026-08-30 12:10:06 | 51.19079 | 17.53476 | 37° | 20km/h | 17392m | 5.5m/s | 0°C | 0% | 0hPa | 0V | 00:00:00 | 00:00:00 | 00:00:00 | |
| SP3BTT-10 | 2026-08-30 12:10:04 | 51.19069 | 17.53467 | 26° | 22km/h | 17382m | 5.8m/s | 0°C | 0% | 0hPa | 0V | 00:00:00 | 00:00:00 | 00:00:00 | |
| KRY50SP | 2026-08-30 12:10:00 | 51.19045 | 17.53445 | 31° | 26km/h | 17361m | 4.4m/s | 0°C | 0% | 0hPa | 0V | 00:00:00 | 00:00:00 | 00:00:00 | |
| SQ6EMJ | 2026-08-30 12:09:58 | 51.19034 | 17.53433 | 41° | 26km/h | 17351m | 5.2m/s | 0°C | 0% | 0hPa | 0V | 00:00:00 | 00:00:00 | 00:00:00 | |
| KRY50SP | 2026-08-30 12:09:54 | 51.19017 | 17.53411 | 28° | 26km/h | 17332m | 5.1m/s | 0°C | 0% | 0hPa | 0V | 00:00:00 | 00:00:00 | 00:00:00 | |
| SQ6EMJ | 2026-08-30 12:09:52 | 51.19006 | 17.53399 | 43° | 26km/h | 17323m | 7.2m/s | 0°C | 0% | 0hPa | 0V | 00:00:00 | 00:00:00 | 00:00:00 | |
| KRY50SP | 2026-08-30 12:09:49 | 51.18994 | 17.53373 | 58° | 31km/h | 17307m | 5.8m/s | 0°C | 0% | 0hPa | 0V | 00:00:00 | 00:00:00 | 00:00:00 | |
| SQ6EMJ | 2026-08-30 12:09:47 | 51.18985 | 17.53352 | 59° | 26km/h | 17300m | 4.5m/s | 0°C | 0% | 0hPa | 0V | 00:00:00 | 00:00:00 | 00:00:00 | |
| KRY50SP | 2026-08-30 12:09:43 | 51.18971 | 17.53332 | 20° | 20km/h | 17281m | 5.9m/s | 0°C | 0% | 0hPa | 0V | 00:00:00 | 00:00:00 | 00:00:00 | |
| SQ6EMJ | 2026-08-30 12:09:40 | 51.18957 | 17.53314 | 51° | 26km/h | 17267m | 4.3m/s | 0°C | 0% | 0hPa | 0V | 00:00:00 | 00:00:00 | 00:00:00 | |
| KRY50SP | 2026-08-30 12:09:37 | 51.18942 | 17.53287 | 48° | 29km/h | 17253m | 4.9m/s | 0°C | 0% | 0hPa | 0V | 00:00:00 | 00:00:00 | 00:00:00 | |
| SQ6EMJ | 2026-08-30 12:09:34 | 51.18933 | 17.53267 | 49° | 15km/h | 17239m | 3.3m/s | 0°C | 0% | 0hPa | 0V | 00:00:00 | 00:00:00 | 00:00:00 | |
| KRY50SP | 2026-08-30 12:09:31 | 51.18921 | 17.53254 | 37° | 27km/h | 17224m | 4.9m/s | 0°C | 0% | 0hPa | 0V | 00:00:00 | 00:00:00 | 00:00:00 | |
| POL1PZ | 2026-08-30 12:09:29 | 51.18910 | 17.53238 | 53° | 27km/h | 17214m | 4.6m/s | 0°C | 0% | 0hPa | 0V | 00:00:00 | 00:00:00 | 00:00:00 | |
| SQ6EMJ | 2026-08-30 12:09:28 | 51.18907 | 17.53230 | 56° | 26km/h | 17209m | 4.8m/s | 0°C | 0% | 0hPa | 0V | 00:00:00 | 00:00:00 | 00:00:00 | |
| KRY50SP | 2026-08-30 12:09:25 | 51.18893 | 17.53206 | 48° | 29km/h | 17194m | 3.8m/s | 0°C | 0% | 0hPa | 0V | 00:00:00 | 00:00:00 | 00:00:00 | |
| SQ6EMJ | 2026-08-30 12:09:23 | 51.18884 | 17.53192 | 37° | 20km/h | 17186m | 5.6m/s | 0°C | 0% | 0hPa | 0V | 00:00:00 | 00:00:00 | 00:00:00 | |
| KRY50SP | 2026-08-30 12:09:20 | 51.18874 | 17.53176 | 54° | 22km/h | 17169m | 5.2m/s | 0°C | 0% | 0hPa | 0V | 00:00:00 | 00:00:00 | 00:00:00 | |
| SQ6EMJ | 2026-08-30 12:09:17 | 51.18866 | 17.53152 | 66° | 24km/h | 17152m | 4.3m/s | 0°C | 0% | 0hPa | 0V | 00:00:00 | 00:00:00 | 00:00:00 | |
| KRY50SP | 2026-08-30 12:09:14 | 51.18855 | 17.53127 | 52° | 24km/h | 17136m | 5.6m/s | 0°C | 0% | 0hPa | 0V | 00:00:00 | 00:00:00 | 00:00:00 | |
| SQ6EMJ | 2026-08-30 12:09:11 | 51.18849 | 17.53107 | 90° | 16km/h | 17122m | 4.2m/s | 0°C | 0% | 0hPa | 0V | 00:00:00 | 00:00:00 | 00:00:00 | |
| KRY50SP | 2026-08-30 12:09:09 | 51.18846 | 17.53093 | 56° | 20km/h | 17112m | 4.3m/s | 0°C | 0% | 0hPa | 0V | 00:00:00 | 00:00:00 | 00:00:00 | |
| POL1PZ | 2026-08-30 12:09:08 | 51.18843 | 17.53086 | 62° | 20km/h | 17107m | 6.6m/s | 0°C | 0% | 0hPa | 0V | 00:00:00 | 00:00:00 | 00:00:00 | |
| SQ6EMJ | 2026-08-30 12:09:05 | 51.18837 | 17.53065 | 58° | 22km/h | 17091m | 5.5m/s | 0°C | 0% | 0hPa | 0V | 00:00:00 | 00:00:00 | 00:00:00 | |
| KRY50SP | 2026-08-30 12:09:04 | 51.18835 | 17.53057 | 60° | 22km/h | 17086m | 4.2m/s | 0°C | 0% | 0hPa | 0V | 00:00:00 | 00:00:00 | 00:00:00 | |
| SP3BTT-10 | 2026-08-30 12:09:02 | 51.18831 | 17.53042 | 84° | 26km/h | 17074m | 4.3m/s | 0°C | 0% | 0hPa | 0V | 00:00:00 | 00:00:00 | 00:00:00 | |
| SQ6EMJ | 2026-08-30 12:08:59 | 51.18827 | 17.53027 | 52° | 16km/h | 17061m | 5.0m/s | 0°C | 0% | 0hPa | 0V | 00:00:00 | 00:00:00 | 00:00:00 | |
| KRY50SP | 2026-08-30 12:08:58 | 51.18823 | 17.53021 | 48° | 24km/h | 17057m | 5.3m/s | 0°C | 0% | 0hPa | 0V | 00:00:00 | 00:00:00 | 00:00:00 | |
| SQ6EMJ | 2026-08-30 12:08:54 | 51.18815 | 17.52991 | 83° | 24km/h | 17036m | 5.8m/s | 0°C | 0% | 0hPa | 0V | 00:00:00 | 00:00:00 | 00:00:00 | |
| KRY50SP | 2026-08-30 12:08:52 | 51.18810 | 17.52971 | 67° | 29km/h | 17026m | 4.7m/s | 0°C | 0% | 0hPa | 0V | 00:00:00 | 00:00:00 | 00:00:00 | |
| SQ6EMJ | 2026-08-30 12:08:49 | 51.18802 | 17.52946 | 49° | 22km/h | 17013m | 5.4m/s | 0°C | 0% | 0hPa | 0V | 00:00:00 | 00:00:00 | 00:00:00 | |
| POL1PZ | 2026-08-30 12:08:47 | 51.18792 | 17.52934 | 30° | 27km/h | 17004m | 4.2m/s | 0°C | 0% | 0hPa | 0V | 00:00:00 | 00:00:00 | 00:00:00 | |
| KRY50SP | 2026-08-30 12:08:46 | 51.18786 | 17.52929 | 33° | 20km/h | 16999m | 6.3m/s | 0°C | 0% | 0hPa | 0V | 00:00:00 | 00:00:00 | 00:00:00 | |
| SQ6EMJ | 2026-08-30 12:08:44 | 51.18780 | 17.52919 | 52° | 18km/h | 16991m | 6.3m/s | 0°C | 0% | 0hPa | 0V | 00:00:00 | 00:00:00 | 00:00:00 | |
| KRY50SP | 2026-08-30 12:08:41 | 51.18770 | 17.52895 | 63° | 27km/h | 16974m | 5.6m/s | 0°C | 0% | 0hPa | 0V | 00:00:00 | 00:00:00 | 00:00:00 | |
| SQ6EMJ | 2026-08-30 12:08:38 | 51.18761 | 17.52869 | 53° | 27km/h | 16958m | 7.5m/s | 0°C | 0% | 0hPa | 0V | 00:00:00 | 00:00:00 | 00:00:00 | |
| KRY50SP | 2026-08-30 12:08:36 | 51.18750 | 17.52851 | 53° | 35km/h | 16947m | 4.6m/s | 0°C | 0% | 0hPa | 0V | 00:00:00 | 00:00:00 | 00:00:00 | |
| SQ6EMJ | 2026-08-30 12:08:33 | 51.18735 | 17.52821 | 51° | 33km/h | 16934m | 5.8m/s | 0°C | 0% | 0hPa | 0V | 00:00:00 | 00:00:00 | 00:00:00 | |
| KRY50SP | 2026-08-30 12:08:31 | 51.18725 | 17.52802 | 61° | 26km/h | 16924m | 5.6m/s | 0°C | 0% | 0hPa | 0V | 00:00:00 | 00:00:00 | 00:00:00 | |
| POL1PZ | 2026-08-30 12:08:27 | 51.18711 | 17.52766 | 54° | 31km/h | 16904m | 4.6m/s | 0°C | 0% | 0hPa | 0V | 00:00:00 | 00:00:00 | 00:00:00 | |
| KRY50SP | 2026-08-30 12:08:25 | 51.18702 | 17.52748 | 53° | 26km/h | 16893m | 4.7m/s | 0°C | 0% | 0hPa | 0V | 00:00:00 | 00:00:00 | 00:00:00 | |
| SQ6EMJ | 2026-08-30 12:08:21 | 51.18679 | 17.52706 | 48° | 35km/h | 16875m | 5.6m/s | 0°C | 0% | 0hPa | 0V | 00:00:00 | 00:00:00 | 00:00:00 | |
| KRY50SP | 2026-08-30 12:08:20 | 51.18674 | 17.52697 | 42° | 26km/h | 16869m | 6.9m/s | 0°C | 0% | 0hPa | 0V | 00:00:00 | 00:00:00 | 00:00:00 | |
| KRY50SP | 2026-08-30 12:08:16 | 51.18654 | 17.52663 | 59° | 26km/h | 16843m | 5.6m/s | 0°C | 0% | 0hPa | 0V | 00:00:00 | 00:00:00 | 00:00:00 | |
| SQ6EMJ | 2026-08-30 12:08:09 | 51.18616 | 17.52603 | 37° | 29km/h | 16813m | 6.3m/s | 0°C | 0% | 0hPa | 0V | 00:00:00 | 00:00:00 | 00:00:00 | |
| KRY50SP | 2026-08-30 12:08:08 | 51.18612 | 17.52597 | 44° | 16km/h | 16808m | 5.4m/s | 0°C | 0% | 0hPa | 0V | 00:00:00 | 00:00:00 | 00:00:00 | |
| POL1PZ | 2026-08-30 12:08:07 | 51.18608 | 17.52592 | 47° | 20km/h | 16804m | 5.3m/s | 0°C | 0% | 0hPa | 0V | 00:00:00 | 00:00:00 | 00:00:00 | |
| SQ6EMJ | 2026-08-30 12:08:04 | 51.18597 | 17.52565 | 61° | 31km/h | 16789m | 5.3m/s | 0°C | 0% | 0hPa | 0V | 00:00:00 | 00:00:00 | 00:00:00 | |
| SP3BTT-10 | 2026-08-30 12:08:02 | 51.18588 | 17.52546 | 46° | 27km/h | 16778m | 4.8m/s | 0°C | 0% | 0hPa | 0V | 00:00:00 | 00:00:00 | 00:00:00 | |
| SQ6EMJ | 2026-08-30 12:07:59 | 51.18571 | 17.52518 | 45° | 37km/h | 16761m | 4.4m/s | 0°C | 0% | 0hPa | 0V | 00:00:00 | 00:00:00 | 00:00:00 | |
| KRY50SP | 2026-08-30 12:07:56 | 51.18554 | 17.52494 | 39° | 22km/h | 16748m | 3.8m/s | 0°C | 0% | 0hPa | 0V | 00:00:00 | 00:00:00 | 00:00:00 | |
| SQ6EMJ | 2026-08-30 12:07:53 | 51.18544 | 17.52473 | 61° | 27km/h | 16733m | 4.9m/s | 0°C | 0% | 0hPa | 0V | 00:00:00 | 00:00:00 | 00:00:00 | |
| KRY50SP | 2026-08-30 12:07:51 | 51.18535 | 17.52454 | 48° | 29km/h | 16723m | 5.7m/s | 0°C | 0% | 0hPa | 0V | 00:00:00 | 00:00:00 | 00:00:00 | |
| SQ6EMJ | 2026-08-30 12:07:47 | 51.18517 | 17.52421 | 54° | 27km/h | 16706m | 3.7m/s | 0°C | 0% | 0hPa | 0V | 00:00:00 | 00:00:00 | 00:00:00 | |
| KRY50SP | 2026-08-30 12:07:46 | 51.18513 | 17.52412 | 53° | 26km/h | 16702m | 5.6m/s | 0°C | 0% | 0hPa | 0V | 00:00:00 | 00:00:00 | 00:00:00 | |
| SQ6EMJ | 2026-08-30 12:07:42 | 51.18493 | 17.52380 | 56° | 27km/h | 16679m | 4.7m/s | 0°C | 0% | 0hPa | 0V | 00:00:00 | 00:00:00 | 00:00:00 | |
| KRY50SP | 2026-08-30 12:07:40 | 51.18486 | 17.52364 | 50° | 22km/h | 16667m | 6.1m/s | 0°C | 0% | 0hPa | 0V | 00:00:00 | 00:00:00 | 00:00:00 | |
| SQ6EMJ | 2026-08-30 12:07:37 | 51.18475 | 17.52342 | 65° | 26km/h | 16651m | 5.3m/s | 0°C | 0% | 0hPa | 0V | 00:00:00 | 00:00:00 | 00:00:00 | |
| KRY50SP | 2026-08-30 12:07:34 | 51.18464 | 17.52323 | 35° | 18km/h | 16638m | 2.6m/s | 0°C | 0% | 0hPa | 0V | 00:00:00 | 00:00:00 | 00:00:00 | |
| SQ6EMJ | 2026-08-30 12:07:31 | 51.18454 | 17.52302 | 62° | 27km/h | 16624m | 4.2m/s | 0°C | 0% | 0hPa | 0V | 00:00:00 | 00:00:00 | 00:00:00 | |
| KRY50SP | 2026-08-30 12:07:29 | 51.18447 | 17.52284 | 51° | 24km/h | 16616m | 4.8m/s | 0°C | 0% | 0hPa | 0V | 00:00:00 | 00:00:00 | 00:00:00 | |
| SQ6EMJ | 2026-08-30 12:07:25 | 51.18432 | 17.52256 | 56° | 24km/h | 16598m | 4.1m/s | 0°C | 0% | 0hPa | 0V | 00:00:00 | 00:00:00 | 00:00:00 | |
| KRY50SP | 2026-08-30 12:07:23 | 51.18425 | 17.52242 | 49° | 22km/h | 16589m | 5.0m/s | 0°C | 0% | 0hPa | 0V | 00:00:00 | 00:00:00 | 00:00:00 | |
| SQ6EMJ | 2026-08-30 12:07:20 | 51.18419 | 17.52218 | 81° | 24km/h | 16574m | 4.8m/s | 0°C | 0% | 0hPa | 0V | 00:00:00 | 00:00:00 | 00:00:00 | |
| KRY50SP | 2026-08-30 12:07:18 | 51.18417 | 17.52201 | 85° | 18km/h | 16562m | 5.1m/s | 0°C | 0% | 0hPa | 0V | 00:00:00 | 00:00:00 | 00:00:00 | |
| SQ6EMJ | 2026-08-30 12:07:14 | 51.18414 | 17.52163 | 76° | 27km/h | 16543m | 6.3m/s | 0°C | 0% | 0hPa | 0V | 00:00:00 | 00:00:00 | 00:00:00 | |
| KRY50SP | 2026-08-30 12:07:13 | 51.18410 | 17.52146 | 73° | 20km/h | 16532m | 5.5m/s | 0°C | 0% | 0hPa | 0V | 00:00:00 | 00:00:00 | 00:00:00 | |
| SQ6EMJ | 2026-08-30 12:07:08 | 51.18406 | 17.52111 | 81° | 26km/h | 16511m | 5.4m/s | 0°C | 0% | 0hPa | 0V | 00:00:00 | 00:00:00 | 00:00:00 | |
| KRY50SP | 2026-08-30 12:07:07 | 51.18403 | 17.52101 | 74° | 27km/h | 16506m | 5.0m/s | 0°C | 0% | 0hPa | 0V | 00:00:00 | 00:00:00 | 00:00:00 | |
| POL1PZ | 2026-08-30 12:07:05 | 51.18399 | 17.52077 | 78° | 37km/h | 16496m | 3.4m/s | 0°C | 0% | 0hPa | 0V | 00:00:00 | 00:00:00 | 00:00:00 | |
| SQ6EMJ | 2026-08-30 12:07:03 | 51.18395 | 17.52053 | 73° | 22km/h | 16487m | 4.6m/s | 0°C | 0% | 0hPa | 0V | 00:00:00 | 00:00:00 | 00:00:00 | |
| SP3BTT-10 | 2026-08-30 12:07:02 | 51.18393 | 17.52045 | 82° | 35km/h | 16484m | 3.5m/s | 0°C | 0% | 0hPa | 0V | 00:00:00 | 00:00:00 | 00:00:00 | |
| SQ6EMJ | 2026-08-30 12:06:58 | 51.18393 | 17.51994 | 91° | 37km/h | 16467m | 5.4m/s | 0°C | 0% | 0hPa | 0V | 00:00:00 | 00:00:00 | 00:00:00 | |
| KRY50SP | 2026-08-30 12:06:56 | 51.18392 | 17.51967 | 84° | 31km/h | 16457m | 5.6m/s | 0°C | 0% | 0hPa | 0V | 00:00:00 | 00:00:00 | 00:00:00 | |
| SQ6EMJ | 2026-08-30 12:06:52 | 51.18388 | 17.51912 | 88° | 33km/h | 16438m | 5.2m/s | 0°C | 0% | 0hPa | 0V | 00:00:00 | 00:00:00 | 00:00:00 | |
| KRY50SP | 2026-08-30 12:06:50 | 51.18388 | 17.51884 | 95° | 38km/h | 16428m | 5.3m/s | 0°C | 0% | 0hPa | 0V | 00:00:00 | 00:00:00 | 00:00:00 | |
| SQ6EMJ | 2026-08-30 12:06:47 | 51.18388 | 17.51843 | 91° | 26km/h | 16415m | 5.4m/s | 0°C | 0% | 0hPa | 0V | 00:00:00 | 00:00:00 | 00:00:00 | |
| POL1PZ | 2026-08-30 12:06:45 | 51.18387 | 17.51821 | 84° | 31km/h | 16405m | 4.3m/s | 0°C | 0% | 0hPa | 0V | 00:00:00 | 00:00:00 | 00:00:00 | |
| SQ6EMJ | 2026-08-30 12:06:41 | 51.18382 | 17.51762 | 80° | 35km/h | 16385m | 4.9m/s | 0°C | 0% | 0hPa | 0V | 00:00:00 | 00:00:00 | 00:00:00 | |
| KRY50SP | 2026-08-30 12:06:39 | 51.18378 | 17.51733 | 79° | 37km/h | 16376m | 5.2m/s | 0°C | 0% | 0hPa | 0V | 00:00:00 | 00:00:00 | 00:00:00 | |
| SQ6EMJ | 2026-08-30 12:06:35 | 51.18370 | 17.51679 | 80° | 35km/h | 16357m | 5.0m/s | 0°C | 0% | 0hPa | 0V | 00:00:00 | 00:00:00 | 00:00:00 | |
| KRY50SP | 2026-08-30 12:06:33 | 51.18368 | 17.51648 | 82° | 42km/h | 16347m | 3.6m/s | 0°C | 0% | 0hPa | 0V | 00:00:00 | 00:00:00 | 00:00:00 | |
| SQ6EMJ | 2026-08-30 12:06:30 | 51.18357 | 17.51590 | 78° | 35km/h | 16330m | 5.2m/s | 0°C | 0% | 0hPa | 0V | 00:00:00 | 00:00:00 | 00:00:00 | |
| KRY50SP | 2026-08-30 12:06:28 | 51.18355 | 17.51575 | 81° | 37km/h | 16326m | 2.3m/s | 0°C | 0% | 0hPa | 0V | 00:00:00 | 00:00:00 | 00:00:00 | |
| POL1PZ | 2026-08-30 12:06:24 | 51.18346 | 17.51520 | 83° | 38km/h | 16310m | 5.9m/s | 0°C | 0% | 0hPa | 0V | 00:00:00 | 00:00:00 | 00:00:00 | |
| SQ6EMJ | 2026-08-30 12:06:23 | 51.18345 | 17.51505 | 85° | 40km/h | 16305m | 5.2m/s | 0°C | 0% | 0hPa | 0V | 00:00:00 | 00:00:00 | 00:00:00 | |
| KRY50SP | 2026-08-30 12:06:22 | 51.18344 | 17.51490 | 83° | 38km/h | 16301m | 4.3m/s | 0°C | 0% | 0hPa | 0V | 00:00:00 | 00:00:00 | 00:00:00 | |
| SQ6EMJ | 2026-08-30 12:06:18 | 51.18330 | 17.51431 | 71° | 40km/h | 16282m | 4.5m/s | 0°C | 0% | 0hPa | 0V | 00:00:00 | 00:00:00 | 00:00:00 | |
| KRY50SP | 2026-08-30 12:06:17 | 51.18327 | 17.51416 | 70° | 40km/h | 16278m | 5.7m/s | 0°C | 0% | 0hPa | 0V | 00:00:00 | 00:00:00 | 00:00:00 | |
| SQ6EMJ | 2026-08-30 12:06:12 | 51.18314 | 17.51340 | 87° | 38km/h | 16254m | 4.9m/s | 0°C | 0% | 0hPa | 0V | 00:00:00 | 00:00:00 | 00:00:00 | |
| KRY50SP | 2026-08-30 12:06:11 | 51.18313 | 17.51325 | 77° | 37km/h | 16249m | 5.7m/s | 0°C | 0% | 0hPa | 0V | 00:00:00 | 00:00:00 | 00:00:00 | |
| SQ6EMJ | 2026-08-30 12:06:06 | 51.18298 | 17.51260 | 74° | 38km/h | 16228m | 4.6m/s | 0°C | 0% | 0hPa | 0V | 00:00:00 | 00:00:00 | 00:00:00 | |
| KRY50SP | 2026-08-30 12:06:05 | 51.18295 | 17.51245 | 65° | 42km/h | 16223m | 5.2m/s | 0°C | 0% | 0hPa | 0V | 00:00:00 | 00:00:00 | 00:00:00 | |
| POL1PZ | 2026-08-30 12:06:04 | 51.18291 | 17.51229 | 73° | 44km/h | 16220m | 6.7m/s | 0°C | 0% | 0hPa | 0V | 00:00:00 | 00:00:00 | 00:00:00 | |
| SP3BTT-10 | 2026-08-30 12:06:03 | 51.18287 | 17.51213 | 71° | 37km/h | 16214m | 7.4m/s | 0°C | 0% | 0hPa | 0V | 00:00:00 | 00:00:00 | 00:00:00 | |
| KRY50SP | 2026-08-30 12:06:00 | 51.18280 | 17.51173 | 69° | 29km/h | 16197m | 4.5m/s | 0°C | 0% | 0hPa | 0V | 00:00:00 | 00:00:00 | 00:00:00 | |
| SQ6EMJ | 2026-08-30 12:05:59 | 51.18277 | 17.51162 | 59° | 33km/h | 16193m | 4.4m/s | 0°C | 0% | 0hPa | 0V | 00:00:00 | 00:00:00 | 00:00:00 | |
| SQ6EMJ | 2026-08-30 12:05:54 | 51.18259 | 17.51093 | 63° | 40km/h | 16171m | 3.7m/s | 0°C | 0% | 0hPa | 0V | 00:00:00 | 00:00:00 | 00:00:00 | |
| KRY50SP | 2026-08-30 12:05:53 | 51.18255 | 17.51079 | 61° | 38km/h | 16168m | 4.0m/s | 0°C | 0% | 0hPa | 0V | 00:00:00 | 00:00:00 | 00:00:00 | |
| SQ6EMJ | 2026-08-30 12:05:48 | 51.18239 | 17.51007 | 68° | 42km/h | 16145m | 3.4m/s | 0°C | 0% | 0hPa | 0V | 00:00:00 | 00:00:00 | 00:00:00 | |
| KRY50SP | 2026-08-30 12:05:45 | 51.18229 | 17.50960 | 69° | 42km/h | 16132m | 5.4m/s | 0°C | 0% | 0hPa | 0V | 00:00:00 | 00:00:00 | 00:00:00 | |
| POL1PZ | 2026-08-30 12:05:43 | 51.18220 | 17.50930 | 63° | 40km/h | 16123m | 3.4m/s | 0°C | 0% | 0hPa | 0V | 00:00:00 | 00:00:00 | 00:00:00 | |
| SQ6EMJ | 2026-08-30 12:05:42 | 51.18216 | 17.50916 | 66° | 35km/h | 16118m | 5.9m/s | 0°C | 0% | 0hPa | 0V | 00:00:00 | 00:00:00 | 00:00:00 | |
| KRY50SP | 2026-08-30 12:05:39 | 51.18208 | 17.50877 | 70° | 33km/h | 16102m | 3.8m/s | 0°C | 0% | 0hPa | 0V | 00:00:00 | 00:00:00 | 00:00:00 | |
| SQ6EMJ | 2026-08-30 12:05:37 | 51.18204 | 17.50851 | 84° | 35km/h | 16096m | 5.6m/s | 0°C | 0% | 0hPa | 0V | 00:00:00 | 00:00:00 | 00:00:00 | |
| KRY50SP | 2026-08-30 12:05:34 | 51.18194 | 17.50807 | 60° | 44km/h | 16083m | 3.6m/s | 0°C | 0% | 0hPa | 0V | 00:00:00 | 00:00:00 | 00:00:00 | |
| SP3BTT-10 | 2026-08-30 12:05:32 | 51.18183 | 17.50775 | 66° | 31km/h | 16075m | 6.0m/s | 0°C | 0% | 0hPa | 0V | 00:00:00 | 00:00:00 | 00:00:00 | |
| SQ6EMJ | 2026-08-30 12:05:26 | 51.18176 | 17.50689 | 90° | 40km/h | 16044m | 5.0m/s | 0°C | 0% | 0hPa | 0V | 00:00:00 | 00:00:00 | 00:00:00 | |
| POL1PZ | 2026-08-30 12:05:23 | 51.18171 | 17.50639 | 68° | 42km/h | 16031m | 4.7m/s | 0°C | 0% | 0hPa | 0V | 00:00:00 | 00:00:00 | 00:00:00 | |
| SQ6EMJ | 2026-08-30 12:05:21 | 51.18164 | 17.50607 | 74° | 42km/h | 16022m | 4.4m/s | 0°C | 0% | 0hPa | 0V | 00:00:00 | 00:00:00 | 00:00:00 | |
| SQ6EMJ | 2026-08-30 12:05:16 | 51.18158 | 17.50513 | 82° | 42km/h | 15996m | 5.1m/s | 0°C | 0% | 0hPa | 0V | 00:00:00 | 00:00:00 | 00:00:00 | |
| KRY50SP | 2026-08-30 12:05:11 | 51.18147 | 17.50441 | 77° | 42km/h | 15978m | 3.6m/s | 0°C | 0% | 0hPa | 0V | 00:00:00 | 00:00:00 | 00:00:00 | |
| SQ6EMJ | 2026-08-30 12:05:09 | 51.18144 | 17.50406 | 92° | 44km/h | 15969m | 4.8m/s | 0°C | 0% | 0hPa | 0V | 00:00:00 | 00:00:00 | 00:00:00 | |
| SQ6EMJ | 2026-08-30 12:05:03 | 51.18149 | 17.50290 | 79° | 51km/h | 15942m | 4.4m/s | 0°C | 0% | 0hPa | 0V | 00:00:00 | 00:00:00 | 00:00:00 | |
| POL1PZ | 2026-08-30 12:05:02 | 51.18145 | 17.50270 | 74° | 47km/h | 15937m | 6.5m/s | 0°C | 0% | 0hPa | 0V | 00:00:00 | 00:00:00 | 00:00:00 | |
| SQ6EMJ | 2026-08-30 12:04:58 | 51.18138 | 17.50191 | 90° | 51km/h | 15917m | 3.6m/s | 0°C | 0% | 0hPa | 0V | 00:00:00 | 00:00:00 | 00:00:00 | |
| SQ6EMJ | 2026-08-30 12:04:53 | 51.18134 | 17.50093 | 84° | 57km/h | 15891m | 5.7m/s | 0°C | 0% | 0hPa | 0V | 00:00:00 | 00:00:00 | 00:00:00 | |
| SQ6EMJ | 2026-08-30 12:04:47 | 51.18115 | 17.49974 | 74° | 49km/h | 15859m | 3.6m/s | 0°C | 0% | 0hPa | 0V | 00:00:00 | 00:00:00 | 00:00:00 | |
| POL1PZ | 2026-08-30 12:04:41 | 51.18086 | 17.49855 | 65° | 53km/h | 15822m | 2.0m/s | 0°C | 0% | 0hPa | 0V | 00:00:00 | 00:00:00 | 00:00:00 | |
| SQ6EMJ | 2026-08-30 12:04:36 | 51.18066 | 17.49776 | 71° | 33km/h | 15800m | 5.9m/s | 0°C | 0% | 0hPa | 0V | 00:00:00 | 00:00:00 | 00:00:00 | |
| SQ6EMJ | 2026-08-30 12:04:31 | 51.18030 | 17.49689 | 72° | 44km/h | 15765m | 6.8m/s | 0°C | 0% | 0hPa | 0V | 00:00:00 | 00:00:00 | 00:00:00 | |
| SQ6EMJ | 2026-08-30 12:04:24 | 51.17997 | 17.49590 | 47° | 47km/h | 15724m | 1.8m/s | 0°C | 0% | 0hPa | 0V | 00:00:00 | 00:00:00 | 00:00:00 | |
| POL1PZ | 2026-08-30 12:04:20 | 51.17980 | 17.49546 | 75° | 18km/h | 15704m | 6.0m/s | 0°C | 0% | 0hPa | 0V | 00:00:00 | 00:00:00 | 00:00:00 | |
| SQ6EMJ | 2026-08-30 12:04:18 | 51.17975 | 17.49529 | 56° | 29km/h | 15688m | 6.1m/s | 0°C | 0% | 0hPa | 0V | 00:00:00 | 00:00:00 | 00:00:00 | |
| KRY50SP | 2026-08-30 12:04:16 | 51.17966 | 17.49510 | 53° | 31km/h | 15674m | 3.9m/s | 0°C | 0% | 0hPa | 0V | 00:00:00 | 00:00:00 | 00:00:00 | |
| SQ6EMJ | 2026-08-30 12:04:12 | 51.17943 | 17.49467 | 59° | 26km/h | 15650m | 3.8m/s | 0°C | 0% | 0hPa | 0V | 00:00:00 | 00:00:00 | 00:00:00 | |
| SQ6EMJ | 2026-08-30 12:04:07 | 51.17932 | 17.49415 | 70° | 37km/h | 15618m | 6.9m/s | 0°C | 0% | 0hPa | 0V | 00:00:00 | 00:00:00 | 00:00:00 | |
| SP3BTT-10 | 2026-08-30 12:04:01 | 51.17908 | 17.49361 | 82° | 42km/h | 15583m | 4.3m/s | 0°C | 0% | 0hPa | 0V | 00:00:00 | 00:00:00 | 00:00:00 | |
| POL1PZ | 2026-08-30 12:04:00 | 51.17908 | 17.49352 | 89° | 27km/h | 15580m | 0.6m/s | 0°C | 0% | 0hPa | 0V | 00:00:00 | 00:00:00 | 00:00:00 | |
| SQ6EMJ | 2026-08-30 12:03:55 | 51.17900 | 17.49300 | 53° | 29km/h | 15547m | 8.4m/s | 0°C | 0% | 0hPa | 0V | 00:00:00 | 00:00:00 | 00:00:00 | |
| KRY50SP | 2026-08-30 12:03:52 | 51.17893 | 17.49272 | 84° | 29km/h | 15530m | 1.8m/s | 0°C | 0% | 0hPa | 0V | 00:00:00 | 00:00:00 | 00:00:00 | |
| SQ6EMJ | 2026-08-30 12:03:49 | 51.17894 | 17.49232 | 95° | 35km/h | 15515m | 4.9m/s | 0°C | 0% | 0hPa | 0V | 00:00:00 | 00:00:00 | 00:00:00 | |
| SQ6EMJ | 2026-08-30 12:03:43 | 51.17884 | 17.49178 | 65° | 26km/h | 15478m | 2.8m/s | 0°C | 0% | 0hPa | 0V | 00:00:00 | 00:00:00 | 00:00:00 | |
| POL1PZ | 2026-08-30 12:03:40 | 51.17880 | 17.49136 | 91° | 47km/h | 15459m | 5.7m/s | 0°C | 0% | 0hPa | 0V | 00:00:00 | 00:00:00 | 00:00:00 | |
| KRY50SP | 2026-08-30 12:03:38 | 51.17880 | 17.49101 | 89° | 37km/h | 15449m | 6.6m/s | 0°C | 0% | 0hPa | 0V | 00:00:00 | 00:00:00 | 00:00:00 | |
| SQ6EMJ | 2026-08-30 12:03:37 | 51.17879 | 17.49089 | 76° | 24km/h | 15442m | 7.2m/s | 0°C | 0% | 0hPa | 0V | 00:00:00 | 00:00:00 | 00:00:00 | |
| SQ6EMJ | 2026-08-30 12:03:31 | 51.17876 | 17.49026 | 94° | 47km/h | 15406m | 7.4m/s | 0°C | 0% | 0hPa | 0V | 00:00:00 | 00:00:00 | 00:00:00 | |
| KRY50SP | 2026-08-30 12:03:30 | 51.17876 | 17.49007 | 85° | 46km/h | 15400m | 3.3m/s | 0°C | 0% | 0hPa | 0V | 00:00:00 | 00:00:00 | 00:00:00 | |
| SQ6EMJ | 2026-08-30 12:03:25 | 51.17865 | 17.48948 | 51° | 16km/h | 15371m | 7.9m/s | 0°C | 0% | 0hPa | 0V | 00:00:00 | 00:00:00 | 00:00:00 | |
| SQ6EMJ | 2026-08-30 12:03:20 | 51.17871 | 17.48874 | 98° | 38km/h | 15340m | 7.6m/s | 0°C | 0% | 0hPa | 0V | 00:00:00 | 00:00:00 | 00:00:00 | |
| POL1PZ | 2026-08-30 12:03:19 | 51.17871 | 17.48859 | 84° | 38km/h | 15330m | 14.0m/s | 0°C | 0% | 0hPa | 0V | 00:00:00 | 00:00:00 | 00:00:00 | |
| SQ6EMJ | 2026-08-30 12:03:14 | 51.17860 | 17.48792 | 87° | 40km/h | 15299m | 7.3m/s | 0°C | 0% | 0hPa | 0V | 00:00:00 | 00:00:00 | 00:00:00 | |
| SQ6EMJ | 2026-08-30 12:03:08 | 51.17858 | 17.48690 | 74° | 47km/h | 15263m | 6.4m/s | 0°C | 0% | 0hPa | 0V | 00:00:00 | 00:00:00 | 00:00:00 | |
| SQ6EMJ | 2026-08-30 12:03:03 | 51.17851 | 17.48581 | 83° | 47km/h | 15234m | 4.6m/s | 0°C | 0% | 0hPa | 0V | 00:00:00 | 00:00:00 | 00:00:00 | |
| SP3BTT-10 | 2026-08-30 12:03:01 | 51.17845 | 17.48547 | 62° | 46km/h | 15219m | 5.2m/s | 0°C | 0% | 0hPa | 0V | 00:00:00 | 00:00:00 | 00:00:00 | |
| KRY50SP | 2026-08-30 12:02:59 | 51.17838 | 17.48519 | 70° | 38km/h | 15206m | 10.1m/s | 0°C | 0% | 0hPa | 0V | 00:00:00 | 00:00:00 | 00:00:00 | |
| POL1PZ | 2026-08-30 12:02:58 | 51.17835 | 17.48503 | 82° | 49km/h | 15199m | 4.5m/s | 0°C | 0% | 0hPa | 0V | 00:00:00 | 00:00:00 | 00:00:00 | |
| SQ6EMJ | 2026-08-30 12:02:53 | 51.17826 | 17.48403 | 76° | 58km/h | 15169m | 8.0m/s | 0°C | 0% | 0hPa | 0V | 00:00:00 | 00:00:00 | 00:00:00 | |
| SQ6EMJ | 2026-08-30 12:02:47 | 51.17800 | 17.48277 | 66° | 35km/h | 15136m | 6.8m/s | 0°C | 0% | 0hPa | 0V | 00:00:00 | 00:00:00 | 00:00:00 | |
| SQ6EMJ | 2026-08-30 12:02:42 | 51.17780 | 17.48173 | 66° | 60km/h | 15106m | 5.3m/s | 0°C | 0% | 0hPa | 0V | 00:00:00 | 00:00:00 | 00:00:00 | |
| SQ6EMJ | 2026-08-30 12:02:37 | 51.17738 | 17.48042 | 70° | 58km/h | 15080m | 4.6m/s | 0°C | 0% | 0hPa | 0V | 00:00:00 | 00:00:00 | 00:00:00 | |
| POL1PZ | 2026-08-30 12:02:36 | 51.17738 | 17.48042 | 70° | 58km/h | 15080m | 4.6m/s | 0°C | 0% | 0hPa | 0V | 00:00:00 | 00:00:00 | 00:00:00 | |
| SQ6EMJ | 2026-08-30 12:02:30 | 51.17701 | 17.47911 | 62° | 57km/h | 15050m | 5.9m/s | 0°C | 0% | 0hPa | 0V | 00:00:00 | 00:00:00 | 00:00:00 | |
| KRY50SP | 2026-08-30 12:02:28 | 51.17685 | 17.47868 | 61° | 62km/h | 15041m | 3.7m/s | 0°C | 0% | 0hPa | 0V | 00:00:00 | 00:00:00 | 00:00:00 | |
| SQ6EMJ | 2026-08-30 12:02:25 | 51.17667 | 17.47804 | 71° | 58km/h | 15025m | 6.9m/s | 0°C | 0% | 0hPa | 0V | 00:00:00 | 00:00:00 | 00:00:00 | |
| SQ6EMJ | 2026-08-30 12:02:19 | 51.17630 | 17.47677 | 54° | 64km/h | 15001m | 4.3m/s | 0°C | 0% | 0hPa | 0V | 00:00:00 | 00:00:00 | 00:00:00 | |
| KRY50SP | 2026-08-30 12:02:16 | 51.17607 | 17.47616 | 69° | 53km/h | 14990m | 5.9m/s | 0°C | 0% | 0hPa | 0V | 00:00:00 | 00:00:00 | 00:00:00 | |
| SQ6EMJ | 2026-08-30 12:02:14 | 51.17601 | 17.47579 | 86° | 49km/h | 14982m | 6.8m/s | 0°C | 0% | 0hPa | 0V | 00:00:00 | 00:00:00 | 00:00:00 | |
| SQ6EMJ | 2026-08-30 12:02:08 | 51.17575 | 17.47460 | 70° | 53km/h | 14954m | 5.0m/s | 0°C | 0% | 0hPa | 0V | 00:00:00 | 00:00:00 | 00:00:00 | |
| KRY50SP | 2026-08-30 12:02:03 | 51.17555 | 17.47367 | 67° | 46km/h | 14927m | 6.0m/s | 0°C | 0% | 0hPa | 0V | 00:00:00 | 00:00:00 | 00:00:00 | |
| SQ6EMJ | 2026-08-30 12:02:02 | 51.17550 | 17.47351 | 65° | 46km/h | 14922m | 5.1m/s | 0°C | 0% | 0hPa | 0V | 00:00:00 | 00:00:00 | 00:00:00 | |
| SP3BTT-10 | 2026-08-30 12:01:59 | 51.17539 | 17.47296 | 74° | 42km/h | 14906m | 7.0m/s | 0°C | 0% | 0hPa | 0V | 00:00:00 | 00:00:00 | 00:00:00 | |
| SQ6EMJ | 2026-08-30 12:01:56 | 51.17524 | 17.47245 | 64° | 40km/h | 14894m | 4.7m/s | 0°C | 0% | 0hPa | 0V | 00:00:00 | 00:00:00 | 00:00:00 | |
| POL1PZ | 2026-08-30 12:01:55 | 51.17520 | 17.47231 | 69° | 37km/h | 14890m | 5.2m/s | 0°C | 0% | 0hPa | 0V | 00:00:00 | 00:00:00 | 00:00:00 | |
| KRY50SP | 2026-08-30 12:01:52 | 51.17505 | 17.47185 | 61° | 47km/h | 14876m | 4.7m/s | 0°C | 0% | 0hPa | 0V | 00:00:00 | 00:00:00 | 00:00:00 | |
| SQ6EMJ | 2026-08-30 12:01:50 | 51.17496 | 17.47152 | 73° | 42km/h | 14868m | 4.8m/s | 0°C | 0% | 0hPa | 0V | 00:00:00 | 00:00:00 | 00:00:00 | |
| SQ6EMJ | 2026-08-30 12:01:44 | 51.17467 | 17.47060 | 66° | 40km/h | 14840m | 5.1m/s | 0°C | 0% | 0hPa | 0V | 00:00:00 | 00:00:00 | 00:00:00 | |
| KRY50SP | 2026-08-30 12:01:43 | 51.17462 | 17.47045 | 62° | 44km/h | 14834m | 7.7m/s | 0°C | 0% | 0hPa | 0V | 00:00:00 | 00:00:00 | 00:00:00 | |
| SQ6EMJ | 2026-08-30 12:01:38 | 51.17444 | 17.46970 | 70° | 46km/h | 14811m | 7.0m/s | 0°C | 0% | 0hPa | 0V | 00:00:00 | 00:00:00 | 00:00:00 | |
| KRY50SP | 2026-08-30 12:01:34 | 51.17429 | 17.46915 | 62° | 35km/h | 14792m | 5.5m/s | 0°C | 0% | 0hPa | 0V | 00:00:00 | 00:00:00 | 00:00:00 | |
| SQ6EMJ | 2026-08-30 12:01:32 | 51.17419 | 17.46888 | 62° | 42km/h | 14782m | 4.5m/s | 0°C | 0% | 0hPa | 0V | 00:00:00 | 00:00:00 | 00:00:00 | |
| KRY50SP | 2026-08-30 12:01:27 | 51.17405 | 17.46808 | 80° | 49km/h | 14759m | 3.8m/s | 0°C | 0% | 0hPa | 0V | 00:00:00 | 00:00:00 | 00:00:00 | |
| SQ6EMJ | 2026-08-30 12:01:22 | 51.17391 | 17.46730 | 74° | 35km/h | 14735m | 5.8m/s | 0°C | 0% | 0hPa | 0V | 00:00:00 | 00:00:00 | 00:00:00 | |
| KRY50SP | 2026-08-30 12:01:19 | 51.17386 | 17.46689 | 82° | 40km/h | 14720m | 3.6m/s | 0°C | 0% | 0hPa | 0V | 00:00:00 | 00:00:00 | 00:00:00 | |
| SQ6EMJ | 2026-08-30 12:01:16 | 51.17379 | 17.46639 | 77° | 46km/h | 14708m | 6.1m/s | 0°C | 0% | 0hPa | 0V | 00:00:00 | 00:00:00 | 00:00:00 | |
| POL1PZ | 2026-08-30 12:01:14 | 51.17375 | 17.46605 | 87° | 40km/h | 14697m | 3.7m/s | 0°C | 0% | 0hPa | 0V | 00:00:00 | 00:00:00 | 00:00:00 | |
| SQ6EMJ | 2026-08-30 12:01:10 | 51.17369 | 17.46553 | 94° | 29km/h | 14680m | 5.7m/s | 0°C | 0% | 0hPa | 0V | 00:00:00 | 00:00:00 | 00:00:00 | |
| KRY50SP | 2026-08-30 12:01:07 | 51.17370 | 17.46510 | 89° | 40km/h | 14665m | 5.4m/s | 0°C | 0% | 0hPa | 0V | 00:00:00 | 00:00:00 | 00:00:00 | |
| SQ6EMJ | 2026-08-30 12:01:04 | 51.17369 | 17.46461 | 89° | 38km/h | 14654m | 2.8m/s | 0°C | 0% | 0hPa | 0V | 00:00:00 | 00:00:00 | 00:00:00 | |
| SQ6EMJ | 2026-08-30 12:00:58 | 51.17368 | 17.46380 | 110° | 46km/h | 14627m | 5.4m/s | 0°C | 0% | 0hPa | 0V | 00:00:00 | 00:00:00 | 00:00:00 | |
| POL1PZ | 2026-08-30 12:00:54 | 51.17370 | 17.46283 | 79° | 37km/h | 14605m | 6.2m/s | 0°C | 0% | 0hPa | 0V | 00:00:00 | 00:00:00 | 00:00:00 | |
| SQ6EMJ | 2026-08-30 12:00:47 | 51.17379 | 17.46193 | 106° | 46km/h | 14574m | 4.8m/s | 0°C | 0% | 0hPa | 0V | 00:00:00 | 00:00:00 | 00:00:00 | |
| SP3BTT-10 | 2026-08-30 12:00:44 | 51.17384 | 17.46144 | 94° | 53km/h | 14562m | 2.5m/s | 0°C | 0% | 0hPa | 0V | 00:00:00 | 00:00:00 | 00:00:00 | |
| SQ6EMJ | 2026-08-30 12:00:41 | 51.17391 | 17.46091 | 105° | 46km/h | 14550m | 4.9m/s | 0°C | 0% | 0hPa | 0V | 00:00:00 | 00:00:00 | 00:00:00 | |
| KRY50SP | 2026-08-30 12:00:40 | 51.17394 | 17.46075 | 106° | 38km/h | 14545m | 6.5m/s | 0°C | 0% | 0hPa | 0V | 00:00:00 | 00:00:00 | 00:00:00 | |
| SQ6EMJ | 2026-08-30 12:00:35 | 51.17403 | 17.45993 | 99° | 38km/h | 14522m | 5.7m/s | 0°C | 0% | 0hPa | 0V | 00:00:00 | 00:00:00 | 00:00:00 | |
| SQ6EMJ | 2026-08-30 12:00:30 | 51.17416 | 17.45903 | 109° | 49km/h | 14499m | 7.5m/s | 0°C | 0% | 0hPa | 0V | 00:00:00 | 00:00:00 | 00:00:00 | |
| SQ6EMJ | 2026-08-30 12:00:24 | 51.17426 | 17.45800 | 91° | 42km/h | 14471m | 3.3m/s | 0°C | 0% | 0hPa | 0V | 00:00:00 | 00:00:00 | 00:00:00 | |
| KRY50SP | 2026-08-30 12:00:19 | 51.17442 | 17.45692 | 114° | 51km/h | 14450m | 4.6m/s | 0°C | 0% | 0hPa | 0V | 00:00:00 | 00:00:00 | 00:00:00 | |
| SQ6EMJ | 2026-08-30 12:00:18 | 51.17446 | 17.45673 | 112° | 49km/h | 14447m | 4.2m/s | 0°C | 0% | 0hPa | 0V | 00:00:00 | 00:00:00 | 00:00:00 | |
| KRY50SP | 2026-08-30 12:00:14 | 51.17453 | 17.45596 | 93° | 44km/h | 14427m | 5.6m/s | 0°C | 0% | 0hPa | 0V | 00:00:00 | 00:00:00 | 00:00:00 | |
| POL1PZ | 2026-08-30 12:00:12 | 51.17456 | 17.45558 | 95° | 51km/h | 14417m | 8.5m/s | 0°C | 0% | 0hPa | 0V | 00:00:00 | 00:00:00 | 00:00:00 | |
| SQ6EMJ | 2026-08-30 12:00:07 | 51.17466 | 17.45443 | 99° | 64km/h | 14391m | 5.8m/s | 0°C | 0% | 0hPa | 0V | 00:00:00 | 00:00:00 | 00:00:00 | |
| KRY50SP | 2026-08-30 12:00:06 | 51.17467 | 17.45418 | 93° | 62km/h | 14387m | 5.3m/s | 0°C | 0% | 0hPa | 0V | 00:00:00 | 00:00:00 | 00:00:00 | |
| KRY50SP | 2026-08-30 11:59:58 | 51.17469 | 17.45226 | 97° | 66km/h | 14350m | 6.6m/s | 0°C | 0% | 0hPa | 0V | 00:00:00 | 00:00:00 | 00:00:00 | |
| SQ6EMJ | 2026-08-30 11:59:57 | 51.17471 | 17.45200 | 95° | 64km/h | 14345m | 4.4m/s | 0°C | 0% | 0hPa | 0V | 00:00:00 | 00:00:00 | 00:00:00 | |
| SQ6EMJ | 2026-08-30 11:59:52 | 51.17469 | 17.45079 | 89° | 57km/h | 14319m | 5.4m/s | 0°C | 0% | 0hPa | 0V | 00:00:00 | 00:00:00 | 00:00:00 | |
| POL1PZ | 2026-08-30 11:59:51 | 51.17467 | 17.45032 | 84° | 62km/h | 14308m | 8.0m/s | 0°C | 0% | 0hPa | 0V | 00:00:00 | 00:00:00 | 00:00:00 | |
| KRY50SP | 2026-08-30 11:59:46 | 51.17464 | 17.44934 | 92° | 62km/h | 14288m | 4.0m/s | 0°C | 0% | 0hPa | 0V | 00:00:00 | 00:00:00 | 00:00:00 | |
| SQ6EMJ | 2026-08-30 11:59:40 | 51.17455 | 17.44790 | 82° | 53km/h | 14260m | 6.4m/s | 0°C | 0% | 0hPa | 0V | 00:00:00 | 00:00:00 | 00:00:00 | |
| KRY50SP | 2026-08-30 11:59:35 | 51.17447 | 17.44679 | 89° | 57km/h | 14235m | 5.1m/s | 0°C | 0% | 0hPa | 0V | 00:00:00 | 00:00:00 | 00:00:00 | |
| SQ6EMJ | 2026-08-30 11:59:34 | 51.17447 | 17.44656 | 92° | 55km/h | 14232m | 3.6m/s | 0°C | 0% | 0hPa | 0V | 00:00:00 | 00:00:00 | 00:00:00 | |
| SP3BTT-10 | 2026-08-30 11:59:29 | 51.17448 | 17.44543 | 85° | 53km/h | 14210m | 5.2m/s | 0°C | 0% | 0hPa | 0V | 00:00:00 | 00:00:00 | 00:00:00 | |
| SQ6EMJ | 2026-08-30 11:59:28 | 51.17447 | 17.44521 | 90° | 51km/h | 14204m | 6.6m/s | 0°C | 0% | 0hPa | 0V | 00:00:00 | 00:00:00 | 00:00:00 | |
| SQ6EMJ | 2026-08-30 11:59:23 | 51.17451 | 17.44417 | 100° | 53km/h | 14181m | 6.9m/s | 0°C | 0% | 0hPa | 0V | 00:00:00 | 00:00:00 | 00:00:00 | |
| KRY50SP | 2026-08-30 11:59:22 | 51.17453 | 17.44396 | 98° | 53km/h | 14175m | 6.6m/s | 0°C | 0% | 0hPa | 0V | 00:00:00 | 00:00:00 | 00:00:00 | |
| SQ6EMJ | 2026-08-30 11:59:18 | 51.17455 | 17.44310 | 89° | 47km/h | 14156m | 5.6m/s | 0°C | 0% | 0hPa | 0V | 00:00:00 | 00:00:00 | 00:00:00 | |
| SQ6EMJ | 2026-08-30 11:59:12 | 51.17454 | 17.44197 | 101° | 53km/h | 14130m | 4.4m/s | 0°C | 0% | 0hPa | 0V | 00:00:00 | 00:00:00 | 00:00:00 | |
| KRY50SP | 2026-08-30 11:59:07 | 51.17458 | 17.44103 | 90° | 46km/h | 14106m | 5.6m/s | 0°C | 0% | 0hPa | 0V | 00:00:00 | 00:00:00 | 00:00:00 | |
| SQ6EMJ | 2026-08-30 11:59:06 | 51.17458 | 17.44085 | 98° | 44km/h | 14102m | 4.5m/s | 0°C | 0% | 0hPa | 0V | 00:00:00 | 00:00:00 | 00:00:00 | |
| POL1PZ | 2026-08-30 11:59:05 | 51.17459 | 17.44068 | 90° | 44km/h | 14098m | 5.5m/s | 0°C | 0% | 0hPa | 0V | 00:00:00 | 00:00:00 | 00:00:00 | |
| KRY50SP | 2026-08-30 11:59:00 | 51.17455 | 17.43969 | 94° | 53km/h | 14074m | 5.1m/s | 0°C | 0% | 0hPa | 0V | 00:00:00 | 00:00:00 | 00:00:00 | |
| KRY50SP | 2026-08-30 11:58:54 | 51.17454 | 17.43847 | 86° | 47km/h | 14043m | 5.9m/s | 0°C | 0% | 0hPa | 0V | 00:00:00 | 00:00:00 | 00:00:00 | |
| KRY50SP | 2026-08-30 11:58:48 | 51.17445 | 17.43740 | 91° | 42km/h | 14017m | 3.7m/s | 0°C | 0% | 0hPa | 0V | 00:00:00 | 00:00:00 | 00:00:00 | |
| POL1PZ | 2026-08-30 11:58:44 | 51.17438 | 17.43673 | 75° | 49km/h | 13999m | 5.2m/s | 0°C | 0% | 0hPa | 0V | 00:00:00 | 00:00:00 | 00:00:00 | |
| SQ6EMJ | 2026-08-30 11:58:42 | 51.17431 | 17.43633 | 81° | 51km/h | 13989m | 6.4m/s | 0°C | 0% | 0hPa | 0V | 00:00:00 | 00:00:00 | 00:00:00 | |
| SP3BTT-10 | 2026-08-30 11:58:39 | 51.17421 | 17.43573 | 77° | 46km/h | 13974m | 6.0m/s | 0°C | 0% | 0hPa | 0V | 00:00:00 | 00:00:00 | 00:00:00 | |
| SQ6EMJ | 2026-08-30 11:58:38 | 51.17418 | 17.43536 | 84° | 44km/h | 13963m | 5.4m/s | 0°C | 0% | 0hPa | 0V | 00:00:00 | 00:00:00 | 00:00:00 | |
| SQ6EMJ | 2026-08-30 11:58:32 | 51.17405 | 17.43449 | 85° | 51km/h | 13941m | 4.3m/s | 0°C | 0% | 0hPa | 0V | 00:00:00 | 00:00:00 | 00:00:00 | |
| POL1PZ | 2026-08-30 11:58:24 | 51.17390 | 17.43306 | 80° | 38km/h | 13905m | 3.2m/s | 0°C | 0% | 0hPa | 0V | 00:00:00 | 00:00:00 | 00:00:00 | |
| SQ6EMJ | 2026-08-30 11:58:20 | 51.17385 | 17.43236 | 87° | 42km/h | 13886m | 5.3m/s | 0°C | 0% | 0hPa | 0V | 00:00:00 | 00:00:00 | 00:00:00 | |
| SQ6EMJ | 2026-08-30 11:58:14 | 51.17371 | 17.43149 | 84° | 37km/h | 13860m | 8.1m/s | 0°C | 0% | 0hPa | 0V | 00:00:00 | 00:00:00 | 00:00:00 | |
| POL1PZ | 2026-08-30 11:58:04 | 51.17357 | 17.42998 | 88° | 38km/h | 13812m | 5.4m/s | 0°C | 0% | 0hPa | 0V | 00:00:00 | 00:00:00 | 00:00:00 | |
| SQ6EMJ | 2026-08-30 11:58:02 | 51.17354 | 17.42966 | 81° | 42km/h | 13802m | 3.5m/s | 0°C | 0% | 0hPa | 0V | 00:00:00 | 00:00:00 | 00:00:00 | |
| KRY50SP | 2026-08-30 11:58:01 | 51.17352 | 17.42948 | 83° | 47km/h | 13798m | 6.5m/s | 0°C | 0% | 0hPa | 0V | 00:00:00 | 00:00:00 | 00:00:00 | |
| SQ6EMJ | 2026-08-30 11:57:56 | 51.17345 | 17.42866 | 80° | 29km/h | 13774m | 7.1m/s | 0°C | 0% | 0hPa | 0V | 00:00:00 | 00:00:00 | 00:00:00 | |
| KRY50SP | 2026-08-30 11:57:53 | 51.17343 | 17.42835 | 83° | 26km/h | 13761m | 5.9m/s | 0°C | 0% | 0hPa | 0V | 00:00:00 | 00:00:00 | 00:00:00 | |
| SQ6EMJ | 2026-08-30 11:57:50 | 51.17340 | 17.42789 | 88° | 51km/h | 13747m | 6.2m/s | 0°C | 0% | 0hPa | 0V | 00:00:00 | 00:00:00 | 00:00:00 | |
| SQ6EMJ | 2026-08-30 11:57:45 | 51.17336 | 17.42709 | 82° | 29km/h | 13724m | 5.3m/s | 0°C | 0% | 0hPa | 0V | 00:00:00 | 00:00:00 | 00:00:00 | |
| POL1PZ | 2026-08-30 11:57:43 | 51.17335 | 17.42683 | 97° | 35km/h | 13716m | 5.9m/s | 0°C | 0% | 0hPa | 0V | 00:00:00 | 00:00:00 | 00:00:00 | |
| KRY50SP | 2026-08-30 11:57:42 | 51.17336 | 17.42667 | 100° | 44km/h | 13711m | 6.5m/s | 0°C | 0% | 0hPa | 0V | 00:00:00 | 00:00:00 | 00:00:00 | |
| SQ6EMJ | 2026-08-30 11:57:40 | 51.17337 | 17.42634 | 86° | 38km/h | 13702m | 5.4m/s | 0°C | 0% | 0hPa | 0V | 00:00:00 | 00:00:00 | 00:00:00 | |
| SP3BTT-10 | 2026-08-30 11:57:36 | 51.17332 | 17.42562 | 84° | 57km/h | 13683m | 3.7m/s | 0°C | 0% | 0hPa | 0V | 00:00:00 | 00:00:00 | 00:00:00 | |
| SQ6EMJ | 2026-08-30 11:57:35 | 51.17331 | 17.42544 | 86° | 44km/h | 13678m | 5.6m/s | 0°C | 0% | 0hPa | 0V | 00:00:00 | 00:00:00 | 00:00:00 | |
| SQ6EMJ | 2026-08-30 11:57:30 | 51.17330 | 17.42452 | 84° | 47km/h | 13656m | 6.2m/s | 0°C | 0% | 0hPa | 0V | 00:00:00 | 00:00:00 | 00:00:00 | |
| SQ6EMJ | 2026-08-30 11:57:24 | 51.17323 | 17.42334 | 86° | 44km/h | 13628m | 3.5m/s | 0°C | 0% | 0hPa | 0V | 00:00:00 | 00:00:00 | 00:00:00 | |
| POL1PZ | 2026-08-30 11:57:23 | 51.17322 | 17.42316 | 90° | 44km/h | 13624m | 5.2m/s | 0°C | 0% | 0hPa | 0V | 00:00:00 | 00:00:00 | 00:00:00 | |
| SQ6EMJ | 2026-08-30 11:57:18 | 51.17318 | 17.42207 | 82° | 58km/h | 13604m | 4.2m/s | 0°C | 0% | 0hPa | 0V | 00:00:00 | 00:00:00 | 00:00:00 | |
| SQ6EMJ | 2026-08-30 11:57:12 | 51.17311 | 17.42069 | 89° | 51km/h | 13578m | 3.7m/s | 0°C | 0% | 0hPa | 0V | 00:00:00 | 00:00:00 | 00:00:00 | |
| KRY50SP | 2026-08-30 11:57:10 | 51.17311 | 17.42024 | 91° | 60km/h | 13570m | 4.1m/s | 0°C | 0% | 0hPa | 0V | 00:00:00 | 00:00:00 | 00:00:00 | |
| SQ6EMJ | 2026-08-30 11:57:06 | 51.17306 | 17.41927 | 83° | 62km/h | 13552m | 4.5m/s | 0°C | 0% | 0hPa | 0V | 00:00:00 | 00:00:00 | 00:00:00 | |
| KRY50SP | 2026-08-30 11:57:05 | 51.17303 | 17.41902 | 83° | 60km/h | 13548m | 4.8m/s | 0°C | 0% | 0hPa | 0V | 00:00:00 | 00:00:00 | 00:00:00 | |
| POL1PZ | 2026-08-30 11:57:03 | 51.17301 | 17.41855 | 92° | 62km/h | 13541m | 6.1m/s | 0°C | 0% | 0hPa | 0V | 00:00:00 | 00:00:00 | 00:00:00 | |
| KRY50SP | 2026-08-30 11:57:00 | 51.17305 | 17.41776 | 97° | 60km/h | 13526m | 6.3m/s | 0°C | 0% | 0hPa | 0V | 00:00:00 | 00:00:00 | 00:00:00 | |
| SQ6EMJ | 2026-08-30 11:56:55 | 51.17308 | 17.41649 | 88° | 64km/h | 13505m | 4.7m/s | 0°C | 0% | 0hPa | 0V | 00:00:00 | 00:00:00 | 00:00:00 | |
| KRY50SP | 2026-08-30 11:56:53 | 51.17306 | 17.41596 | 88° | 69km/h | 13496m | 4.9m/s | 0°C | 0% | 0hPa | 0V | 00:00:00 | 00:00:00 | 00:00:00 | |
| SQ6EMJ | 2026-08-30 11:56:50 | 51.17304 | 17.41517 | 88° | 60km/h | 13482m | 4.5m/s | 0°C | 0% | 0hPa | 0V | 00:00:00 | 00:00:00 | 00:00:00 | |
| SQ6EMJ | 2026-08-30 11:56:44 | 51.17295 | 17.41366 | 94° | 60km/h | 13454m | 5.3m/s | 0°C | 0% | 0hPa | 0V | 00:00:00 | 00:00:00 | 00:00:00 | |
| POL1PZ | 2026-08-30 11:56:41 | 51.17297 | 17.41290 | 90° | 62km/h | 13442m | 5.8m/s | 0°C | 0% | 0hPa | 0V | 00:00:00 | 00:00:00 | 00:00:00 | |
| KRY50SP | 2026-08-30 11:56:40 | 51.17297 | 17.41265 | 87° | 62km/h | 13437m | 5.7m/s | 0°C | 0% | 0hPa | 0V | 00:00:00 | 00:00:00 | 00:00:00 | |
| SQ6EMJ | 2026-08-30 11:56:38 | 51.17295 | 17.41217 | 92° | 60km/h | 13429m | 5.0m/s | 0°C | 0% | 0hPa | 0V | 00:00:00 | 00:00:00 | 00:00:00 | |
| SQ6EMJ | 2026-08-30 11:56:32 | 51.17301 | 17.41069 | 95° | 69km/h | 13402m | 4.3m/s | 0°C | 0% | 0hPa | 0V | 00:00:00 | 00:00:00 | 00:00:00 | |
| SQ6EMJ | 2026-08-30 11:56:26 | 51.17308 | 17.40927 | 104° | 57km/h | 13376m | 5.1m/s | 0°C | 0% | 0hPa | 0V | 00:00:00 | 00:00:00 | 00:00:00 | |
| KRY50SP | 2026-08-30 11:56:24 | 51.17314 | 17.40881 | 105° | 62km/h | 13368m | 5.7m/s | 0°C | 0% | 0hPa | 0V | 00:00:00 | 00:00:00 | 00:00:00 | |
| SQ6EMJ | 2026-08-30 11:56:21 | 51.17319 | 17.40802 | 87° | 68km/h | 13354m | 5.9m/s | 0°C | 0% | 0hPa | 0V | 00:00:00 | 00:00:00 | 00:00:00 | |
| POL1PZ | 2026-08-30 11:56:20 | 51.17317 | 17.40776 | 84° | 62km/h | 13350m | 3.9m/s | 0°C | 0% | 0hPa | 0V | 00:00:00 | 00:00:00 | 00:00:00 | |
| SP3BTT-10 | 2026-08-30 11:56:16 | 51.17318 | 17.40682 | 102° | 66km/h | 13333m | 4.3m/s | 0°C | 0% | 0hPa | 0V | 00:00:00 | 00:00:00 | 00:00:00 | |
| KRY50SP | 2026-08-30 11:56:13 | 51.17322 | 17.40580 | 90° | 73km/h | 13318m | 4.4m/s | 0°C | 0% | 0hPa | 0V | 00:00:00 | 00:00:00 | 00:00:00 | |
| SQ6EMJ | 2026-08-30 11:56:11 | 51.17323 | 17.40525 | 94° | 62km/h | 13310m | 4.1m/s | 0°C | 0% | 0hPa | 0V | 00:00:00 | 00:00:00 | 00:00:00 | |
| KRY50SP | 2026-08-30 11:56:06 | 51.17317 | 17.40425 | 86° | 62km/h | 13295m | 8.0m/s | 0°C | 0% | 0hPa | 0V | 00:00:00 | 00:00:00 | 00:00:00 | |
| SQ6EMJ | 2026-08-30 11:56:04 | 51.17317 | 17.40371 | 96° | 68km/h | 13285m | 4.6m/s | 0°C | 0% | 0hPa | 0V | 00:00:00 | 00:00:00 | 00:00:00 | |
| KRY50SP | 2026-08-30 11:56:01 | 51.17315 | 17.40290 | 82° | 66km/h | 13273m | 5.0m/s | 0°C | 0% | 0hPa | 0V | 00:00:00 | 00:00:00 | 00:00:00 | |
| SQ6EMJ | 2026-08-30 11:55:58 | 51.17308 | 17.40208 | 87° | 68km/h | 13262m | 5.5m/s | 0°C | 0% | 0hPa | 0V | 00:00:00 | 00:00:00 | 00:00:00 | |
| KRY50SP | 2026-08-30 11:55:54 | 51.17300 | 17.40097 | 89° | 66km/h | 13244m | 7.1m/s | 0°C | 0% | 0hPa | 0V | 00:00:00 | 00:00:00 | 00:00:00 | |
| KRY50SP | 2026-08-30 11:55:48 | 51.17299 | 17.39936 | 89° | 71km/h | 13216m | 4.7m/s | 0°C | 0% | 0hPa | 0V | 00:00:00 | 00:00:00 | 00:00:00 | |
| SQ6EMJ | 2026-08-30 11:55:47 | 51.17298 | 17.39908 | 86° | 71km/h | 13211m | 7.4m/s | 0°C | 0% | 0hPa | 0V | 00:00:00 | 00:00:00 | 00:00:00 | |
| KRY50SP | 2026-08-30 11:55:43 | 51.17295 | 17.39792 | 89° | 73km/h | 13191m | 6.2m/s | 0°C | 0% | 0hPa | 0V | 00:00:00 | 00:00:00 | 00:00:00 | |
| SQ6EMJ | 2026-08-30 11:55:41 | 51.17292 | 17.39733 | 86° | 69km/h | 13180m | 4.2m/s | 0°C | 0% | 0hPa | 0V | 00:00:00 | 00:00:00 | 00:00:00 | |
| KRY50SP | 2026-08-30 11:55:35 | 51.17290 | 17.39576 | 96° | 66km/h | 13152m | 5.1m/s | 0°C | 0% | 0hPa | 0V | 00:00:00 | 00:00:00 | 00:00:00 | |
| SQ6EMJ | 2026-08-30 11:55:29 | 51.17283 | 17.39410 | 90° | 68km/h | 13126m | 3.9m/s | 0°C | 0% | 0hPa | 0V | 00:00:00 | 00:00:00 | 00:00:00 | |
| KRY50SP | 2026-08-30 11:55:28 | 51.17283 | 17.39383 | 88° | 66km/h | 13122m | 3.9m/s | 0°C | 0% | 0hPa | 0V | 00:00:00 | 00:00:00 | 00:00:00 | |
| POL1PZ | 2026-08-30 11:55:23 | 51.17279 | 17.39265 | 87° | 62km/h | 13100m | 3.3m/s | 0°C | 0% | 0hPa | 0V | 00:00:00 | 00:00:00 | 00:00:00 | |
| KRY50SP | 2026-08-30 11:55:20 | 51.17271 | 17.39184 | 84° | 69km/h | 13087m | 4.3m/s | 0°C | 0% | 0hPa | 0V | 00:00:00 | 00:00:00 | 00:00:00 | |
| SP3BTT-10 | 2026-08-30 11:55:18 | 51.17270 | 17.39130 | 99° | 71km/h | 13077m | 4.6m/s | 0°C | 0% | 0hPa | 0V | 00:00:00 | 00:00:00 | 00:00:00 | |
| KRY50SP | 2026-08-30 11:55:14 | 51.17275 | 17.39025 | 86° | 66km/h | 13060m | 4.9m/s | 0°C | 0% | 0hPa | 0V | 00:00:00 | 00:00:00 | 00:00:00 | |
| SQ6EMJ | 2026-08-30 11:55:13 | 51.17273 | 17.38999 | 82° | 62km/h | 13055m | 5.7m/s | 0°C | 0% | 0hPa | 0V | 00:00:00 | 00:00:00 | 00:00:00 | |
| SQ6EMJ | 2026-08-30 11:55:07 | 51.17258 | 17.38834 | 86° | 69km/h | 13027m | 4.6m/s | 0°C | 0% | 0hPa | 0V | 00:00:00 | 00:00:00 | 00:00:00 | |
| KRY50SP | 2026-08-30 11:55:05 | 51.17258 | 17.38780 | 94° | 66km/h | 13017m | 4.7m/s | 0°C | 0% | 0hPa | 0V | 00:00:00 | 00:00:00 | 00:00:00 | |
| SQ6EMJ | 2026-08-30 11:55:01 | 51.17266 | 17.38680 | 99° | 64km/h | 13001m | 6.4m/s | 0°C | 0% | 0hPa | 0V | 00:00:00 | 00:00:00 | 00:00:00 | |
| POL1PZ | 2026-08-30 11:54:58 | 51.17268 | 17.38594 | 86° | 77km/h | 12987m | 4.4m/s | 0°C | 0% | 0hPa | 0V | 00:00:00 | 00:00:00 | 00:00:00 | |
| SQ6EMJ | 2026-08-30 11:54:55 | 51.17262 | 17.38503 | 89° | 75km/h | 12973m | 6.1m/s | 0°C | 0% | 0hPa | 0V | 00:00:00 | 00:00:00 | 00:00:00 | |
| KRY50SP | 2026-08-30 11:54:53 | 51.17261 | 17.38443 | 90° | 73km/h | 12963m | 3.4m/s | 0°C | 0% | 0hPa | 0V | 00:00:00 | 00:00:00 | 00:00:00 | |
| SQ6EMJ | 2026-08-30 11:54:49 | 51.17264 | 17.38323 | 91° | 77km/h | 12949m | 5.4m/s | 0°C | 0% | 0hPa | 0V | 00:00:00 | 00:00:00 | 00:00:00 | |
| SQ6EMJ | 2026-08-30 11:54:43 | 51.17246 | 17.38142 | 87° | 71km/h | 12924m | 6.4m/s | 0°C | 0% | 0hPa | 0V | 00:00:00 | 00:00:00 | 00:00:00 | |
| KRY50SP | 2026-08-30 11:54:39 | 51.17243 | 17.38028 | 89° | 78km/h | 12907m | 2.5m/s | 0°C | 0% | 0hPa | 0V | 00:00:00 | 00:00:00 | 00:00:00 | |
| POL1PZ | 2026-08-30 11:54:37 | 51.17239 | 17.37967 | 83° | 71km/h | 12898m | 7.6m/s | 0°C | 0% | 0hPa | 0V | 00:00:00 | 00:00:00 | 00:00:00 | |
| SQ6EMJ | 2026-08-30 11:54:31 | 51.17226 | 17.37799 | 80° | 71km/h | 12869m | 3.6m/s | 0°C | 0% | 0hPa | 0V | 00:00:00 | 00:00:00 | 00:00:00 | |
| KRY50SP | 2026-08-30 11:54:25 | 51.17212 | 17.37632 | 81° | 75km/h | 12840m | 4.5m/s | 0°C | 0% | 0hPa | 0V | 00:00:00 | 00:00:00 | 00:00:00 | |
| SQ6EMJ | 2026-08-30 11:54:20 | 51.17196 | 17.37471 | 84° | 78km/h | 12818m | 4.6m/s | 0°C | 0% | 0hPa | 0V | 00:00:00 | 00:00:00 | 00:00:00 | |
| POL1PZ | 2026-08-30 11:54:17 | 51.17190 | 17.37388 | 91° | 62km/h | 12805m | 5.4m/s | 0°C | 0% | 0hPa | 0V | 00:00:00 | 00:00:00 | 00:00:00 | |
| SQ6EMJ | 2026-08-30 11:54:14 | 51.17188 | 17.37307 | 87° | 71km/h | 12792m | 6.8m/s | 0°C | 0% | 0hPa | 0V | 00:00:00 | 00:00:00 | 00:00:00 | |
| SP3BTT-10 | 2026-08-30 11:54:12 | 51.17182 | 17.37245 | 79° | 80km/h | 12784m | 5.6m/s | 0°C | 0% | 0hPa | 0V | 00:00:00 | 00:00:00 | 00:00:00 | |
| SQ6EMJ | 2026-08-30 11:54:08 | 51.17173 | 17.37121 | 85° | 80km/h | 12764m | 6.9m/s | 0°C | 0% | 0hPa | 0V | 00:00:00 | 00:00:00 | 00:00:00 | |
| KRY50SP | 2026-08-30 11:54:07 | 51.17171 | 17.37090 | 87° | 77km/h | 12759m | 4.0m/s | 0°C | 0% | 0hPa | 0V | 00:00:00 | 00:00:00 | 00:00:00 | |
| SQ6EMJ | 2026-08-30 11:54:02 | 51.17174 | 17.36934 | 85° | 77km/h | 12736m | 6.3m/s | 0°C | 0% | 0hPa | 0V | 00:00:00 | 00:00:00 | 00:00:00 | |
| SQ6EMJ | 2026-08-30 11:53:57 | 51.17158 | 17.36785 | 93° | 82km/h | 12715m | 4.6m/s | 0°C | 0% | 0hPa | 0V | 00:00:00 | 00:00:00 | 00:00:00 | |
| KRY50SP | 2026-08-30 11:53:56 | 51.17159 | 17.36749 | 97° | 91km/h | 12709m | 7.0m/s | 0°C | 0% | 0hPa | 0V | 00:00:00 | 00:00:00 | 00:00:00 | |
| POL1PZ | 2026-08-30 11:53:55 | 51.17162 | 17.36714 | 98° | 88km/h | 12703m | 6.4m/s | 0°C | 0% | 0hPa | 0V | 00:00:00 | 00:00:00 | 00:00:00 | |
| SQ6EMJ | 2026-08-30 11:53:52 | 51.17163 | 17.36615 | 90° | 77km/h | 12687m | 6.7m/s | 0°C | 0% | 0hPa | 0V | 00:00:00 | 00:00:00 | 00:00:00 | |
| KRY50SP | 2026-08-30 11:53:48 | 51.17157 | 17.36479 | 87° | 86km/h | 12665m | 5.6m/s | 0°C | 0% | 0hPa | 0V | 00:00:00 | 00:00:00 | 00:00:00 | |
| SQ6EMJ | 2026-08-30 11:53:46 | 51.17156 | 17.36412 | 90° | 80km/h | 12656m | 6.6m/s | 0°C | 0% | 0hPa | 0V | 00:00:00 | 00:00:00 | 00:00:00 | |
| SQ6EMJ | 2026-08-30 11:53:40 | 51.17143 | 17.36208 | 85° | 89km/h | 12619m | 8.5m/s | 0°C | 0% | 0hPa | 0V | 00:00:00 | 00:00:00 | 00:00:00 | |
| POL1PZ | 2026-08-30 11:53:35 | 51.17135 | 17.36048 | 85° | 80km/h | 12590m | 4.1m/s | 0°C | 0% | 0hPa | 0V | 00:00:00 | 00:00:00 | 00:00:00 | |
| KRY50SP | 2026-08-30 11:53:34 | 51.17133 | 17.36014 | 85° | 86km/h | 12585m | 8.5m/s | 0°C | 0% | 0hPa | 0V | 00:00:00 | 00:00:00 | 00:00:00 | |
| SP3BTT-10 | 2026-08-30 11:53:29 | 51.17121 | 17.35848 | 83° | 77km/h | 12556m | 4.4m/s | 0°C | 0% | 0hPa | 0V | 00:00:00 | 00:00:00 | 00:00:00 | |
| KRY50SP | 2026-08-30 11:53:28 | 51.17118 | 17.35814 | 81° | 88km/h | 12550m | 9.6m/s | 0°C | 0% | 0hPa | 0V | 00:00:00 | 00:00:00 | 00:00:00 | |
| SQ6EMJ | 2026-08-30 11:53:23 | 51.17101 | 17.35650 | 85° | 75km/h | 12520m | 5.2m/s | 0°C | 0% | 0hPa | 0V | 00:00:00 | 00:00:00 | 00:00:00 | |
| KRY50SP | 2026-08-30 11:53:22 | 51.17098 | 17.35620 | 81° | 77km/h | 12515m | 3.8m/s | 0°C | 0% | 0hPa | 0V | 00:00:00 | 00:00:00 | 00:00:00 | |
| SQ6EMJ | 2026-08-30 11:53:17 | 51.17083 | 17.35471 | 84° | 77km/h | 12484m | 5.1m/s | 0°C | 0% | 0hPa | 0V | 00:00:00 | 00:00:00 | 00:00:00 | |
| KRY50SP | 2026-08-30 11:53:16 | 51.17080 | 17.35439 | 82° | 80km/h | 12479m | 5.7m/s | 0°C | 0% | 0hPa | 0V | 00:00:00 | 00:00:00 | 00:00:00 | |
| POL1PZ | 2026-08-30 11:53:13 | 51.17069 | 17.35345 | 79° | 73km/h | 12463m | 1.1m/s | 0°C | 0% | 0hPa | 0V | 00:00:00 | 00:00:00 | 00:00:00 | |
| SQ6EMJ | 2026-08-30 11:53:12 | 51.17065 | 17.35316 | 81° | 75km/h | 12459m | 7.4m/s | 0°C | 0% | 0hPa | 0V | 00:00:00 | 00:00:00 | 00:00:00 | |
| KRY50SP | 2026-08-30 11:53:09 | 51.17056 | 17.35223 | 81° | 82km/h | 12440m | 2.8m/s | 0°C | 0% | 0hPa | 0V | 00:00:00 | 00:00:00 | 00:00:00 | |
| SQ6EMJ | 2026-08-30 11:53:06 | 51.17049 | 17.35133 | 85° | 68km/h | 12422m | 7.1m/s | 0°C | 0% | 0hPa | 0V | 00:00:00 | 00:00:00 | 00:00:00 | |
| SQ6EMJ | 2026-08-30 11:53:01 | 51.17038 | 17.34996 | 79° | 73km/h | 12393m | 2.5m/s | 0°C | 0% | 0hPa | 0V | 00:00:00 | 00:00:00 | 00:00:00 | |
| KRY50SP | 2026-08-30 11:52:59 | 51.17031 | 17.34939 | 83° | 71km/h | 12381m | 4.7m/s | 0°C | 0% | 0hPa | 0V | 00:00:00 | 00:00:00 | 00:00:00 | |
| SQ6EMJ | 2026-08-30 11:52:55 | 51.17023 | 17.34835 | 85° | 58km/h | 12358m | 8.2m/s | 0°C | 0% | 0hPa | 0V | 00:00:00 | 00:00:00 | 00:00:00 | |
| POL1PZ | 2026-08-30 11:52:53 | 51.17022 | 17.34780 | 88° | 80km/h | 12345m | 3.3m/s | 0°C | 0% | 0hPa | 0V | 00:00:00 | 00:00:00 | 00:00:00 | |
| KRY50SP | 2026-08-30 11:52:52 | 51.17020 | 17.34747 | 86° | 84km/h | 12341m | 5.8m/s | 0°C | 0% | 0hPa | 0V | 00:00:00 | 00:00:00 | 00:00:00 | |
| SQ6EMJ | 2026-08-30 11:52:49 | 51.17010 | 17.34643 | 82° | 84km/h | 12329m | 2.2m/s | 0°C | 0% | 0hPa | 0V | 00:00:00 | 00:00:00 | 00:00:00 | |
| KRY50SP | 2026-08-30 11:52:47 | 51.17004 | 17.34580 | 85° | 73km/h | 12318m | 5.7m/s | 0°C | 0% | 0hPa | 0V | 00:00:00 | 00:00:00 | 00:00:00 | |
| SQ6EMJ | 2026-08-30 11:52:44 | 51.17008 | 17.34490 | 105° | 80km/h | 12296m | 2.1m/s | 0°C | 0% | 0hPa | 0V | 00:00:00 | 00:00:00 | 00:00:00 | |
| KRY50SP | 2026-08-30 11:52:42 | 51.17015 | 17.34430 | 93° | 71km/h | 12284m | 5.0m/s | 0°C | 0% | 0hPa | 0V | 00:00:00 | 00:00:00 | 00:00:00 | |
| SQ6EMJ | 2026-08-30 11:52:39 | 51.17007 | 17.34343 | 80° | 77km/h | 12268m | 4.0m/s | 0°C | 0% | 0hPa | 0V | 00:00:00 | 00:00:00 | 00:00:00 | |
| KRY50SP | 2026-08-30 11:52:35 | 51.17006 | 17.34205 | 96° | 86km/h | 12241m | 8.8m/s | 0°C | 0% | 0hPa | 0V | 00:00:00 | 00:00:00 | 00:00:00 | |
| SQ6EMJ | 2026-08-30 11:52:33 | 51.17008 | 17.34137 | 95° | 86km/h | 12229m | 8.9m/s | 0°C | 0% | 0hPa | 0V | 00:00:00 | 00:00:00 | 00:00:00 | |
| POL1PZ | 2026-08-30 11:52:32 | 51.17009 | 17.34102 | 89° | 84km/h | 12223m | 5.0m/s | 0°C | 0% | 0hPa | 0V | 00:00:00 | 00:00:00 | 00:00:00 | |
| KRY50SP | 2026-08-30 11:52:29 | 51.17004 | 17.33971 | 97° | 80km/h | 12205m | 5.4m/s | 0°C | 0% | 0hPa | 0V | 00:00:00 | 00:00:00 | 00:00:00 | |
| SQ6EMJ | 2026-08-30 11:52:27 | 51.17007 | 17.33938 | 100° | 84km/h | 12200m | 5.0m/s | 0°C | 0% | 0hPa | 0V | 00:00:00 | 00:00:00 | 00:00:00 | |
| SQ6EMJ | 2026-08-30 11:52:22 | 51.17012 | 17.33768 | 83° | 88km/h | 12175m | 7.4m/s | 0°C | 0% | 0hPa | 0V | 00:00:00 | 00:00:00 | 00:00:00 | |
| KRY50SP | 2026-08-30 11:52:19 | 51.17007 | 17.33668 | 91° | 78km/h | 12160m | 5.8m/s | 0°C | 0% | 0hPa | 0V | 00:00:00 | 00:00:00 | 00:00:00 | |
| SQ6EMJ | 2026-08-30 11:52:16 | 51.17009 | 17.33573 | 94° | 82km/h | 12144m | 4.6m/s | 0°C | 0% | 0hPa | 0V | 00:00:00 | 00:00:00 | 00:00:00 | |
| KRY50SP | 2026-08-30 11:52:13 | 51.17012 | 17.33461 | 92° | 100km/h | 12130m | 2.0m/s | 0°C | 0% | 0hPa | 0V | 00:00:00 | 00:00:00 | 00:00:00 | |
| POL1PZ | 2026-08-30 11:52:12 | 51.17012 | 17.33422 | 89° | 97km/h | 12127m | 3.5m/s | 0°C | 0% | 0hPa | 0V | 00:00:00 | 00:00:00 | 00:00:00 | |
| SQ6EMJ | 2026-08-30 11:52:10 | 51.17010 | 17.33353 | 89° | 75km/h | 12117m | 4.9m/s | 0°C | 0% | 0hPa | 0V | 00:00:00 | 00:00:00 | 00:00:00 | |
| SQ6EMJ | 2026-08-30 11:52:04 | 51.17017 | 17.33164 | 92° | 89km/h | 12087m | 3.0m/s | 0°C | 0% | 0hPa | 0V | 00:00:00 | 00:00:00 | 00:00:00 | |
| SQ6EMJ | 2026-08-30 11:51:58 | 51.17019 | 17.32970 | 94° | 77km/h | 12058m | 5.5m/s | 0°C | 0% | 0hPa | 0V | 00:00:00 | 00:00:00 | 00:00:00 | |
| KRY50SP | 2026-08-30 11:51:57 | 51.17019 | 17.32939 | 92° | 78km/h | 12053m | 5.3m/s | 0°C | 0% | 0hPa | 0V | 00:00:00 | 00:00:00 | 00:00:00 | |
| SQ6EMJ | 2026-08-30 11:51:53 | 51.17019 | 17.32818 | 86° | 68km/h | 12026m | 7.4m/s | 0°C | 0% | 0hPa | 0V | 00:00:00 | 00:00:00 | 00:00:00 | |
| KRY50SP | 2026-08-30 11:51:49 | 51.17014 | 17.32686 | 89° | 88km/h | 12002m | 2.8m/s | 0°C | 0% | 0hPa | 0V | 00:00:00 | 00:00:00 | 00:00:00 | |
| SQ6EMJ | 2026-08-30 11:51:47 | 51.17012 | 17.32618 | 84° | 75km/h | 11990m | 4.4m/s | 0°C | 0% | 0hPa | 0V | 00:00:00 | 00:00:00 | 00:00:00 | |
| POL1PZ | 2026-08-30 11:51:43 | 51.17001 | 17.32501 | 80° | 77km/h | 11970m | 7.5m/s | 0°C | 0% | 0hPa | 0V | 00:00:00 | 00:00:00 | 00:00:00 | |
| SQ6EMJ | 2026-08-30 11:51:41 | 51.16995 | 17.32439 | 85° | 80km/h | 11959m | 5.8m/s | 0°C | 0% | 0hPa | 0V | 00:00:00 | 00:00:00 | 00:00:00 | |
| KRY50SP | 2026-08-30 11:51:40 | 51.16993 | 17.32408 | 85° | 75km/h | 11953m | 7.2m/s | 0°C | 0% | 0hPa | 0V | 00:00:00 | 00:00:00 | 00:00:00 | |
| SQ6EMJ | 2026-08-30 11:51:36 | 51.16986 | 17.32295 | 83° | 66km/h | 11932m | 4.9m/s | 0°C | 0% | 0hPa | 0V | 00:00:00 | 00:00:00 | 00:00:00 | |
| KRY50SP | 2026-08-30 11:51:34 | 51.16981 | 17.32236 | 80° | 78km/h | 11921m | 5.3m/s | 0°C | 0% | 0hPa | 0V | 00:00:00 | 00:00:00 | 00:00:00 | |
| SQ6EMJ | 2026-08-30 11:51:31 | 51.16968 | 17.32142 | 83° | 77km/h | 11907m | 5.7m/s | 0°C | 0% | 0hPa | 0V | 00:00:00 | 00:00:00 | 00:00:00 | |
| KRY50SP | 2026-08-30 11:51:25 | 51.16956 | 17.31963 | 82° | 75km/h | 11870m | 3.4m/s | 0°C | 0% | 0hPa | 0V | 00:00:00 | 00:00:00 | 00:00:00 | |
| POL1PZ | 2026-08-30 11:51:21 | 51.16944 | 17.31842 | 82° | 78km/h | 11848m | 7.4m/s | 0°C | 0% | 0hPa | 0V | 00:00:00 | 00:00:00 | 00:00:00 | |
| SQ6EMJ | 2026-08-30 11:51:19 | 51.16939 | 17.31783 | 87° | 73km/h | 11837m | 5.1m/s | 0°C | 0% | 0hPa | 0V | 00:00:00 | 00:00:00 | 00:00:00 | |
| KRY50SP | 2026-08-30 11:51:16 | 51.16934 | 17.31696 | 85° | 73km/h | 11820m | 5.3m/s | 0°C | 0% | 0hPa | 0V | 00:00:00 | 00:00:00 | 00:00:00 | |
| SQ6EMJ | 2026-08-30 11:51:13 | 51.16922 | 17.31607 | 78° | 78km/h | 11803m | 7.3m/s | 0°C | 0% | 0hPa | 0V | 00:00:00 | 00:00:00 | 00:00:00 | |
| SQ6EMJ | 2026-08-30 11:51:07 | 51.16919 | 17.31408 | 95° | 82km/h | 11768m | 5.7m/s | 0°C | 0% | 0hPa | 0V | 00:00:00 | 00:00:00 | 00:00:00 | |
| KRY50SP | 2026-08-30 11:51:06 | 51.16920 | 17.31376 | 94° | 77km/h | 11764m | 3.0m/s | 0°C | 0% | 0hPa | 0V | 00:00:00 | 00:00:00 | 00:00:00 | |
| POL1PZ | 2026-08-30 11:51:01 | 51.16909 | 17.31227 | 91° | 77km/h | 11737m | 3.3m/s | 0°C | 0% | 0hPa | 0V | 00:00:00 | 00:00:00 | 00:00:00 | |
| SP3BTT-10 | 2026-08-30 11:50:56 | 51.16917 | 17.31089 | 92° | 78km/h | 11704m | 7.0m/s | 0°C | 0% | 0hPa | 0V | 00:00:00 | 00:00:00 | 00:00:00 | |
| SQ6EMJ | 2026-08-30 11:50:50 | 51.16914 | 17.30911 | 89° | 68km/h | 11671m | 5.4m/s | 0°C | 0% | 0hPa | 0V | 00:00:00 | 00:00:00 | 00:00:00 | |
| KRY50SP | 2026-08-30 11:50:46 | 51.16911 | 17.30814 | 83° | 64km/h | 11642m | 4.0m/s | 0°C | 0% | 0hPa | 0V | 00:00:00 | 00:00:00 | 00:00:00 | |
| SQ6EMJ | 2026-08-30 11:50:44 | 51.16908 | 17.30761 | 88° | 73km/h | 11628m | 6.9m/s | 0°C | 0% | 0hPa | 0V | 00:00:00 | 00:00:00 | 00:00:00 | |
| POL1PZ | 2026-08-30 11:50:40 | 51.16913 | 17.30649 | 101° | 62km/h | 11604m | 7.0m/s | 0°C | 0% | 0hPa | 0V | 00:00:00 | 00:00:00 | 00:00:00 | |
| SQ6EMJ | 2026-08-30 11:50:38 | 51.16917 | 17.30600 | 94° | 60km/h | 11592m | 9.5m/s | 0°C | 0% | 0hPa | 0V | 00:00:00 | 00:00:00 | 00:00:00 | |
| SQ6EMJ | 2026-08-30 11:50:33 | 51.16914 | 17.30462 | 91° | 75km/h | 11560m | 8.5m/s | 0°C | 0% | 0hPa | 0V | 00:00:00 | 00:00:00 | 00:00:00 | |
| KRY50SP | 2026-08-30 11:50:30 | 51.16919 | 17.30367 | 96° | 80km/h | 11541m | 5.2m/s | 0°C | 0% | 0hPa | 0V | 00:00:00 | 00:00:00 | 00:00:00 | |
| SQ6EMJ | 2026-08-30 11:50:27 | 51.16925 | 17.30275 | 95° | 75km/h | 11524m | 3.6m/s | 0°C | 0% | 0hPa | 0V | 00:00:00 | 00:00:00 | 00:00:00 | |
| KRY50SP | 2026-08-30 11:50:24 | 51.16934 | 17.30183 | 102° | 77km/h | 11506m | 7.3m/s | 0°C | 0% | 0hPa | 0V | 00:00:00 | 00:00:00 | 00:00:00 | |
| SQ6EMJ | 2026-08-30 11:50:23 | 51.16938 | 17.30127 | 96° | 68km/h | 11496m | 7.3m/s | 0°C | 0% | 0hPa | 0V | 00:00:00 | 00:00:00 | 00:00:00 | |
| POL1PZ | 2026-08-30 11:50:20 | 51.16941 | 17.30073 | 95° | 66km/h | 11484m | 8.4m/s | 0°C | 0% | 0hPa | 0V | 00:00:00 | 00:00:00 | 00:00:00 | |
| KRY50SP | 2026-08-30 11:50:17 | 51.16944 | 17.29987 | 95° | 78km/h | 11468m | 6.1m/s | 0°C | 0% | 0hPa | 0V | 00:00:00 | 00:00:00 | 00:00:00 | |
| KRY50SP | 2026-08-30 11:50:12 | 51.16958 | 17.29805 | 95° | 93km/h | 11443m | 3.4m/s | 0°C | 0% | 0hPa | 0V | 00:00:00 | 00:00:00 | 00:00:00 | |
| SQ6EMJ | 2026-08-30 11:50:11 | 51.16959 | 17.29768 | 95° | 89km/h | 11437m | 8.5m/s | 0°C | 0% | 0hPa | 0V | 00:00:00 | 00:00:00 | 00:00:00 | |
| KRY50SP | 2026-08-30 11:50:06 | 51.16966 | 17.29616 | 102° | 80km/h | 11404m | 5.4m/s | 0°C | 0% | 0hPa | 0V | 00:00:00 | 00:00:00 | 00:00:00 | |
| SQ6EMJ | 2026-08-30 11:50:05 | 51.16970 | 17.29583 | 103° | 88km/h | 11400m | 4.6m/s | 0°C | 0% | 0hPa | 0V | 00:00:00 | 00:00:00 | 00:00:00 | |
| KRY50SP | 2026-08-30 11:50:00 | 51.16988 | 17.29408 | 103° | 86km/h | 11373m | 5.3m/s | 0°C | 0% | 0hPa | 0V | 00:00:00 | 00:00:00 | 00:00:00 | |
| SQ6EMJ | 2026-08-30 11:49:59 | 51.16992 | 17.29376 | 104° | 78km/h | 11366m | 8.0m/s | 0°C | 0% | 0hPa | 0V | 00:00:00 | 00:00:00 | 00:00:00 | |
| POL1PZ | 2026-08-30 11:49:58 | 51.16996 | 17.29346 | 104° | 77km/h | 11359m | 6.6m/s | 0°C | 0% | 0hPa | 0V | 00:00:00 | 00:00:00 | 00:00:00 | |
| SP3BTT-10 | 2026-08-30 11:49:56 | 51.17001 | 17.29284 | 95° | 78km/h | 11347m | 6.6m/s | 0°C | 0% | 0hPa | 0V | 00:00:00 | 00:00:00 | 00:00:00 | |
| KRY50SP | 2026-08-30 11:49:54 | 51.17005 | 17.29216 | 97° | 89km/h | 11333m | 4.5m/s | 0°C | 0% | 0hPa | 0V | 00:00:00 | 00:00:00 | 00:00:00 | |
| SQ6EMJ | 2026-08-30 11:49:53 | 51.17007 | 17.29181 | 98° | 86km/h | 11327m | 6.7m/s | 0°C | 0% | 0hPa | 0V | 00:00:00 | 00:00:00 | 00:00:00 | |
| KRY50SP | 2026-08-30 11:49:49 | 51.17023 | 17.29048 | 101° | 88km/h | 11301m | 3.1m/s | 0°C | 0% | 0hPa | 0V | 00:00:00 | 00:00:00 | 00:00:00 | |
| SQ6EMJ | 2026-08-30 11:49:48 | 51.17030 | 17.28980 | 101° | 84km/h | 11288m | 4.1m/s | 0°C | 0% | 0hPa | 0V | 00:00:00 | 00:00:00 | 00:00:00 | |
| KRY50SP | 2026-08-30 11:49:43 | 51.17045 | 17.28858 | 104° | 71km/h | 11262m | 6.6m/s | 0°C | 0% | 0hPa | 0V | 00:00:00 | 00:00:00 | 00:00:00 | |
| SQ6EMJ | 2026-08-30 11:49:42 | 51.17049 | 17.28829 | 102° | 77km/h | 11257m | 2.9m/s | 0°C | 0% | 0hPa | 0V | 00:00:00 | 00:00:00 | 00:00:00 | |
| KRY50SP | 2026-08-30 11:49:37 | 51.17060 | 17.28669 | 95° | 80km/h | 11222m | 6.7m/s | 0°C | 0% | 0hPa | 0V | 00:00:00 | 00:00:00 | 00:00:00 | |
| SQ6EMJ | 2026-08-30 11:49:36 | 51.17062 | 17.28638 | 98° | 73km/h | 11216m | 6.4m/s | 0°C | 0% | 0hPa | 0V | 00:00:00 | 00:00:00 | 00:00:00 | |
| SQ6EMJ | 2026-08-30 11:49:31 | 51.17069 | 17.28501 | 90° | 71km/h | 11185m | 5.7m/s | 0°C | 0% | 0hPa | 0V | 00:00:00 | 00:00:00 | 00:00:00 | |
| SQ6EMJ | 2026-08-30 11:49:25 | 51.17087 | 17.28304 | 102° | 75km/h | 11150m | 3.6m/s | 0°C | 0% | 0hPa | 0V | 00:00:00 | 00:00:00 | 00:00:00 | |
| SQ6EMJ | 2026-08-30 11:49:20 | 51.17102 | 17.28175 | 100° | 68km/h | 11121m | 4.0m/s | 0°C | 0% | 0hPa | 0V | 00:00:00 | 00:00:00 | 00:00:00 | |
| KRY50SP | 2026-08-30 11:49:18 | 51.17107 | 17.28118 | 99° | 77km/h | 11109m | 2.3m/s | 0°C | 0% | 0hPa | 0V | 00:00:00 | 00:00:00 | 00:00:00 | |
| SQ6EMJ | 2026-08-30 11:49:14 | 51.17114 | 17.27990 | 98° | 80km/h | 11083m | 3.9m/s | 0°C | 0% | 0hPa | 0V | 00:00:00 | 00:00:00 | 00:00:00 | |
| KRY50SP | 2026-08-30 11:49:08 | 51.17140 | 17.27791 | 105° | 78km/h | 11040m | 5.5m/s | 0°C | 0% | 0hPa | 0V | 00:00:00 | 00:00:00 | 00:00:00 | |
| SQ6EMJ | 2026-08-30 11:49:02 | 51.17158 | 17.27637 | 101° | 78km/h | 11012m | 3.6m/s | 0°C | 0% | 0hPa | 0V | 00:00:00 | 00:00:00 | 00:00:00 | |
| KRY50SP | 2026-08-30 11:48:56 | 51.17175 | 17.27470 | 94° | 77km/h | 10974m | 7.1m/s | 0°C | 0% | 0hPa | 0V | 00:00:00 | 00:00:00 | 00:00:00 | |
| POL1PZ | 2026-08-30 11:48:55 | 51.17175 | 17.27438 | 92° | 82km/h | 10969m | 3.0m/s | 0°C | 0% | 0hPa | 0V | 00:00:00 | 00:00:00 | 00:00:00 | |
| SQ6EMJ | 2026-08-30 11:48:50 | 51.17189 | 17.27275 | 103° | 73km/h | 10936m | 7.8m/s | 0°C | 0% | 0hPa | 0V | 00:00:00 | 00:00:00 | 00:00:00 | |
| SQ6EMJ | 2026-08-30 11:48:44 | 51.17209 | 17.27100 | 106° | 82km/h | 10902m | 7.4m/s | 0°C | 0% | 0hPa | 0V | 00:00:00 | 00:00:00 | 00:00:00 | |
| SQ6EMJ | 2026-08-30 11:48:39 | 51.17224 | 17.26938 | 95° | 75km/h | 10873m | 8.5m/s | 0°C | 0% | 0hPa | 0V | 00:00:00 | 00:00:00 | 00:00:00 | |
| POL1PZ | 2026-08-30 11:48:35 | 51.17229 | 17.26821 | 99° | 77km/h | 10849m | 3.5m/s | 0°C | 0% | 0hPa | 0V | 00:00:00 | 00:00:00 | 00:00:00 | |
| SQ6EMJ | 2026-08-30 11:48:34 | 51.17232 | 17.26790 | 99° | 77km/h | 10845m | 5.2m/s | 0°C | 0% | 0hPa | 0V | 00:00:00 | 00:00:00 | 00:00:00 | |
| KRY50SP | 2026-08-30 11:48:32 | 51.17238 | 17.26731 | 99° | 75km/h | 10830m | 6.3m/s | 0°C | 0% | 0hPa | 0V | 00:00:00 | 00:00:00 | 00:00:00 | |
| SP3BTT-10 | 2026-08-30 11:48:31 | 51.17241 | 17.26701 | 99° | 75km/h | 10825m | 3.3m/s | 0°C | 0% | 0hPa | 0V | 00:00:00 | 00:00:00 | 00:00:00 | |
| SQ6EMJ | 2026-08-30 11:48:28 | 51.17252 | 17.26608 | 104° | 80km/h | 10805m | 8.8m/s | 0°C | 0% | 0hPa | 0V | 00:00:00 | 00:00:00 | 00:00:00 | |
| SQ6EMJ | 2026-08-30 11:48:22 | 51.17263 | 17.26432 | 101° | 71km/h | 10769m | 6.0m/s | 0°C | 0% | 0hPa | 0V | 00:00:00 | 00:00:00 | 00:00:00 | |
| SQ6EMJ | 2026-08-30 11:48:16 | 51.17285 | 17.26252 | 103° | 80km/h | 10738m | 5.2m/s | 0°C | 0% | 0hPa | 0V | 00:00:00 | 00:00:00 | 00:00:00 | |
| POL1PZ | 2026-08-30 11:48:14 | 51.17295 | 17.26192 | 107° | 73km/h | 10727m | 3.4m/s | 0°C | 0% | 0hPa | 0V | 00:00:00 | 00:00:00 | 00:00:00 | |
| SQ6EMJ | 2026-08-30 11:48:11 | 51.17305 | 17.26106 | 98° | 77km/h | 10710m | 5.8m/s | 0°C | 0% | 0hPa | 0V | 00:00:00 | 00:00:00 | 00:00:00 | |
| KRY50SP | 2026-08-30 11:48:08 | 51.17312 | 17.26011 | 99° | 75km/h | 10693m | 4.1m/s | 0°C | 0% | 0hPa | 0V | 00:00:00 | 00:00:00 | 00:00:00 | |
| SQ6EMJ | 2026-08-30 11:48:05 | 51.17320 | 17.25923 | 103° | 71km/h | 10676m | 3.9m/s | 0°C | 0% | 0hPa | 0V | 00:00:00 | 00:00:00 | 00:00:00 | |
| SQ6EMJ | 2026-08-30 11:48:00 | 51.17340 | 17.25774 | 99° | 77km/h | 10650m | 4.2m/s | 0°C | 0% | 0hPa | 0V | 00:00:00 | 00:00:00 | 00:00:00 | |
| SQ6EMJ | 2026-08-30 11:47:54 | 51.17355 | 17.25576 | 100° | 73km/h | 10615m | 5.9m/s | 0°C | 0% | 0hPa | 0V | 00:00:00 | 00:00:00 | 00:00:00 | |
| POL1PZ | 2026-08-30 11:47:53 | 51.17358 | 17.25549 | 104° | 66km/h | 10610m | 4.4m/s | 0°C | 0% | 0hPa | 0V | 00:00:00 | 00:00:00 | 00:00:00 | |
| SQ6EMJ | 2026-08-30 11:47:49 | 51.17369 | 17.25438 | 96° | 77km/h | 10588m | 10.9m/s | 0°C | 0% | 0hPa | 0V | 00:00:00 | 00:00:00 | 00:00:00 | |
| KRY50SP | 2026-08-30 11:47:48 | 51.17371 | 17.25406 | 96° | 80km/h | 10580m | 4.3m/s | 0°C | 0% | 0hPa | 0V | 00:00:00 | 00:00:00 | 00:00:00 | |
| SQ6EMJ | 2026-08-30 11:47:43 | 51.17381 | 17.25254 | 100° | 73km/h | 10550m | 5.3m/s | 0°C | 0% | 0hPa | 0V | 00:00:00 | 00:00:00 | 00:00:00 | |
| KRY50SP | 2026-08-30 11:47:41 | 51.17388 | 17.25195 | 105° | 80km/h | 10536m | 6.5m/s | 0°C | 0% | 0hPa | 0V | 00:00:00 | 00:00:00 | 00:00:00 | |
| SQ6EMJ | 2026-08-30 11:47:37 | 51.17403 | 17.25060 | 95° | 77km/h | 10515m | 6.4m/s | 0°C | 0% | 0hPa | 0V | 00:00:00 | 00:00:00 | 00:00:00 | |
| SP3BTT-10 | 2026-08-30 11:47:32 | 51.17409 | 17.24920 | 95° | 71km/h | 10487m | 8.0m/s | 0°C | 0% | 0hPa | 0V | 00:00:00 | 00:00:00 | 00:00:00 | |
| SQ6EMJ | 2026-08-30 11:47:31 | 51.17410 | 17.24889 | 96° | 80km/h | 10480m | 5.4m/s | 0°C | 0% | 0hPa | 0V | 00:00:00 | 00:00:00 | 00:00:00 | |
| SQ6EMJ | 2026-08-30 11:47:25 | 51.17425 | 17.24700 | 95° | 77km/h | 10447m | 4.2m/s | 0°C | 0% | 0hPa | 0V | 00:00:00 | 00:00:00 | 00:00:00 | |
| KRY50SP | 2026-08-30 11:47:21 | 51.17422 | 17.24575 | 89° | 75km/h | 10424m | 4.7m/s | 0°C | 0% | 0hPa | 0V | 00:00:00 | 00:00:00 | 00:00:00 | |
| SQ6EMJ | 2026-08-30 11:47:20 | 51.17422 | 17.24546 | 93° | 69km/h | 10418m | 5.8m/s | 0°C | 0% | 0hPa | 0V | 00:00:00 | 00:00:00 | 00:00:00 | |
| KRY50SP | 2026-08-30 11:47:15 | 51.17433 | 17.24413 | 94° | 62km/h | 10391m | 5.7m/s | 0°C | 0% | 0hPa | 0V | 00:00:00 | 00:00:00 | 00:00:00 | |
| SQ6EMJ | 2026-08-30 11:47:14 | 51.17433 | 17.24387 | 88° | 68km/h | 10386m | 3.4m/s | 0°C | 0% | 0hPa | 0V | 00:00:00 | 00:00:00 | 00:00:00 | |
| POL1PZ | 2026-08-30 11:47:12 | 51.17431 | 17.24301 | 93° | 78km/h | 10369m | 6.1m/s | 0°C | 0% | 0hPa | 0V | 00:00:00 | 00:00:00 | 00:00:00 | |
| SQ6EMJ | 2026-08-30 11:47:08 | 51.17439 | 17.24196 | 101° | 91km/h | 10348m | 3.8m/s | 0°C | 0% | 0hPa | 0V | 00:00:00 | 00:00:00 | 00:00:00 | |
| SQ6EMJ | 2026-08-30 11:47:02 | 51.17445 | 17.24022 | 94° | 68km/h | 10313m | 5.4m/s | 0°C | 0% | 0hPa | 0V | 00:00:00 | 00:00:00 | 00:00:00 | |
| KRY50SP | 2026-08-30 11:46:59 | 51.17452 | 17.23926 | 97° | 91km/h | 10299m | 5.9m/s | 0°C | 0% | 0hPa | 0V | 00:00:00 | 00:00:00 | 00:00:00 | |
| SQ6EMJ | 2026-08-30 11:46:57 | 51.17452 | 17.23858 | 86° | 73km/h | 10288m | 4.6m/s | 0°C | 0% | 0hPa | 0V | 00:00:00 | 00:00:00 | 00:00:00 | |
| SQ6EMJ | 2026-08-30 11:46:51 | 51.17443 | 17.23711 | 95° | 71km/h | 10256m | 6.6m/s | 0°C | 0% | 0hPa | 0V | 00:00:00 | 00:00:00 | 00:00:00 | |
| POL1PZ | 2026-08-30 11:46:50 | 51.17445 | 17.23682 | 100° | 77km/h | 10248m | 10.0m/s | 0°C | 0% | 0hPa | 0V | 00:00:00 | 00:00:00 | 00:00:00 | |
| KRY50SP | 2026-08-30 11:46:47 | 51.17451 | 17.23583 | 89° | 88km/h | 10228m | 4.5m/s | 0°C | 0% | 0hPa | 0V | 00:00:00 | 00:00:00 | 00:00:00 | |
| SQ6EMJ | 2026-08-30 11:46:45 | 51.17447 | 17.23516 | 83° | 77km/h | 10217m | 5.5m/s | 0°C | 0% | 0hPa | 0V | 00:00:00 | 00:00:00 | 00:00:00 | |
| SQ6EMJ | 2026-08-30 11:46:40 | 51.17441 | 17.23387 | 87° | 73km/h | 10193m | 4.9m/s | 0°C | 0% | 0hPa | 0V | 00:00:00 | 00:00:00 | 00:00:00 | |
| SQ6EMJ | 2026-08-30 11:46:35 | 51.17423 | 17.23231 | 72° | 84km/h | 10167m | 3.8m/s | 0°C | 0% | 0hPa | 0V | 00:00:00 | 00:00:00 | 00:00:00 | |
| POL1PZ | 2026-08-30 11:46:29 | 51.17408 | 17.23040 | 99° | 68km/h | 10129m | 5.6m/s | 0°C | 0% | 0hPa | 0V | 00:00:00 | 00:00:00 | 00:00:00 | |
| KRY50SP | 2026-08-30 11:46:25 | 51.17411 | 17.22937 | 88° | 60km/h | 10106m | 5.7m/s | 0°C | 0% | 0hPa | 0V | 00:00:00 | 00:00:00 | 00:00:00 | |
| SQ6EMJ | 2026-08-30 11:46:24 | 51.17410 | 17.22914 | 84° | 58km/h | 10099m | 8.4m/s | 0°C | 0% | 0hPa | 0V | 00:00:00 | 00:00:00 | 00:00:00 | |
| SQ6EMJ | 2026-08-30 11:46:18 | 51.17403 | 17.22760 | 93° | 66km/h | 10055m | 5.4m/s | 0°C | 0% | 0hPa | 0V | 00:00:00 | 00:00:00 | 00:00:00 | |
| SQ6EMJ | 2026-08-30 11:46:12 | 51.17402 | 17.22608 | 79° | 60km/h | 10016m | 5.9m/s | 0°C | 0% | 0hPa | 0V | 00:00:00 | 00:00:00 | 00:00:00 | |
| POL1PZ | 2026-08-30 11:46:09 | 51.17397 | 17.22535 | 93° | 62km/h | 9999m | 6.6m/s | 0°C | 0% | 0hPa | 0V | 00:00:00 | 00:00:00 | 00:00:00 | |
| SQ6EMJ | 2026-08-30 11:46:06 | 51.17400 | 17.22458 | 90° | 62km/h | 9982m | 7.9m/s | 0°C | 0% | 0hPa | 0V | 00:00:00 | 00:00:00 | 00:00:00 | |
| SQ6EMJ | 2026-08-30 11:45:59 | 51.17389 | 17.22279 | 84° | 57km/h | 9940m | 6.2m/s | 0°C | 0% | 0hPa | 0V | 00:00:00 | 00:00:00 | 00:00:00 | |
| SQ6EMJ | 2026-08-30 11:45:54 | 51.17388 | 17.22161 | 92° | 66km/h | 9911m | 8.3m/s | 0°C | 0% | 0hPa | 0V | 00:00:00 | 00:00:00 | 00:00:00 | |
| POL1PZ | 2026-08-30 11:45:48 | 51.17384 | 17.22017 | 88° | 60km/h | 9869m | 4.7m/s | 0°C | 0% | 0hPa | 0V | 00:00:00 | 00:00:00 | 00:00:00 | |
| SQ6EMJ | 2026-08-30 11:45:43 | 51.17384 | 17.21880 | 87° | 66km/h | 9840m | 8.6m/s | 0°C | 0% | 0hPa | 0V | 00:00:00 | 00:00:00 | 00:00:00 | |
| KRY50SP | 2026-08-30 11:45:39 | 51.17373 | 17.21783 | 83° | 58km/h | 9813m | 6.4m/s | 0°C | 0% | 0hPa | 0V | 00:00:00 | 00:00:00 | 00:00:00 | |
| SQ6EMJ | 2026-08-30 11:45:37 | 51.17371 | 17.21734 | 91° | 66km/h | 9803m | 3.8m/s | 0°C | 0% | 0hPa | 0V | 00:00:00 | 00:00:00 | 00:00:00 | |
| SQ6EMJ | 2026-08-30 11:45:31 | 51.17357 | 17.21582 | 90° | 58km/h | 9771m | 6.2m/s | 0°C | 0% | 0hPa | 0V | 00:00:00 | 00:00:00 | 00:00:00 | |
| KRY50SP | 2026-08-30 11:45:27 | 51.17362 | 17.21479 | 88° | 71km/h | 9749m | 3.4m/s | 0°C | 0% | 0hPa | 0V | 00:00:00 | 00:00:00 | 00:00:00 | |
| SQ6EMJ | 2026-08-30 11:45:26 | 51.17361 | 17.21450 | 84° | 73km/h | 9744m | 6.8m/s | 0°C | 0% | 0hPa | 0V | 00:00:00 | 00:00:00 | 00:00:00 | |
| KRY50SP | 2026-08-30 11:45:22 | 51.17351 | 17.21353 | 79° | 53km/h | 9719m | 5.0m/s | 0°C | 0% | 0hPa | 0V | 00:00:00 | 00:00:00 | 00:00:00 | |
| SQ6EMJ | 2026-08-30 11:45:20 | 51.17346 | 17.21304 | 86° | 66km/h | 9708m | 3.1m/s | 0°C | 0% | 0hPa | 0V | 00:00:00 | 00:00:00 | 00:00:00 | |
| KRY50SP | 2026-08-30 11:45:17 | 51.17340 | 17.21198 | 80° | 64km/h | 9682m | 5.3m/s | 0°C | 0% | 0hPa | 0V | 00:00:00 | 00:00:00 | 00:00:00 | |
| SQ6EMJ | 2026-08-30 11:45:15 | 51.17337 | 17.21173 | 80° | 64km/h | 9676m | 5.4m/s | 0°C | 0% | 0hPa | 0V | 00:00:00 | 00:00:00 | 00:00:00 | |
| SQ6EMJ | 2026-08-30 11:45:10 | 51.17330 | 17.21044 | 91° | 73km/h | 9650m | 3.0m/s | 0°C | 0% | 0hPa | 0V | 00:00:00 | 00:00:00 | 00:00:00 | |
| POL1PZ | 2026-08-30 11:45:07 | 51.17332 | 17.20960 | 93° | 64km/h | 9633m | 6.9m/s | 0°C | 0% | 0hPa | 0V | 00:00:00 | 00:00:00 | 00:00:00 | |
| SQ6EMJ | 2026-08-30 11:45:04 | 51.17329 | 17.20888 | 79° | 57km/h | 9613m | 8.1m/s | 0°C | 0% | 0hPa | 0V | 00:00:00 | 00:00:00 | 00:00:00 | |
| KRY50SP | 2026-08-30 11:44:58 | 51.17321 | 17.20737 | 89° | 62km/h | 9575m | 6.3m/s | 0°C | 0% | 0hPa | 0V | 00:00:00 | 00:00:00 | 00:00:00 | |
| SQ6EMJ | 2026-08-30 11:44:52 | 51.17311 | 17.20590 | 85° | 73km/h | 9542m | 7.3m/s | 0°C | 0% | 0hPa | 0V | 00:00:00 | 00:00:00 | 00:00:00 | |
| KRY50SP | 2026-08-30 11:44:51 | 51.17310 | 17.20562 | 91° | 68km/h | 9536m | 4.6m/s | 0°C | 0% | 0hPa | 0V | 00:00:00 | 00:00:00 | 00:00:00 | |
| SQ6EMJ | 2026-08-30 11:44:47 | 51.17311 | 17.20465 | 89° | 55km/h | 9510m | 6.6m/s | 0°C | 0% | 0hPa | 0V | 00:00:00 | 00:00:00 | 00:00:00 | |
| POL1PZ | 2026-08-30 11:44:46 | 51.17310 | 17.20443 | 88° | 55km/h | 9503m | 6.2m/s | 0°C | 0% | 0hPa | 0V | 00:00:00 | 00:00:00 | 00:00:00 | |
| SQ6EMJ | 2026-08-30 11:44:42 | 51.17308 | 17.20342 | 82° | 68km/h | 9477m | 7.4m/s | 0°C | 0% | 0hPa | 0V | 00:00:00 | 00:00:00 | 00:00:00 | |
| KRY50SP | 2026-08-30 11:44:40 | 51.17301 | 17.20290 | 81° | 64km/h | 9466m | 3.5m/s | 0°C | 0% | 0hPa | 0V | 00:00:00 | 00:00:00 | 00:00:00 | |
| SQ6EMJ | 2026-08-30 11:44:36 | 51.17301 | 17.20184 | 89° | 71km/h | 9440m | 5.9m/s | 0°C | 0% | 0hPa | 0V | 00:00:00 | 00:00:00 | 00:00:00 | |
| SQ6EMJ | 2026-08-30 11:44:31 | 51.17288 | 17.20046 | 80° | 64km/h | 9412m | 4.8m/s | 0°C | 0% | 0hPa | 0V | 00:00:00 | 00:00:00 | 00:00:00 | |
| POL1PZ | 2026-08-30 11:44:25 | 51.17283 | 17.19903 | 84° | 66km/h | 9377m | 2.6m/s | 0°C | 0% | 0hPa | 0V | 00:00:00 | 00:00:00 | 00:00:00 | |
| SQ6EMJ | 2026-08-30 11:44:19 | 51.17271 | 17.19752 | 79° | 55km/h | 9339m | 4.6m/s | 0°C | 0% | 0hPa | 0V | 00:00:00 | 00:00:00 | 00:00:00 | |
| SQ6EMJ | 2026-08-30 11:44:13 | 51.17263 | 17.19604 | 94° | 66km/h | 9296m | 6.1m/s | 0°C | 0% | 0hPa | 0V | 00:00:00 | 00:00:00 | 00:00:00 | |
| KRY50SP | 2026-08-30 11:44:12 | 51.17263 | 17.19577 | 90° | 64km/h | 9291m | 3.6m/s | 0°C | 0% | 0hPa | 0V | 00:00:00 | 00:00:00 | 00:00:00 | |
| POL1PZ | 2026-08-30 11:44:04 | 51.17258 | 17.19388 | 79° | 60km/h | 9243m | 5.2m/s | 0°C | 0% | 0hPa | 0V | 00:00:00 | 00:00:00 | 00:00:00 | |
| KRY50SP | 2026-08-30 11:43:58 | 51.17245 | 17.19225 | 86° | 68km/h | 9212m | 6.4m/s | 0°C | 0% | 0hPa | 0V | 00:00:00 | 00:00:00 | 00:00:00 | |
| SQ6EMJ | 2026-08-30 11:43:47 | 51.17227 | 17.18944 | 87° | 58km/h | 9142m | 5.7m/s | 0°C | 0% | 0hPa | 0V | 00:00:00 | 00:00:00 | 00:00:00 | |
| POL1PZ | 2026-08-30 11:43:44 | 51.17234 | 17.18868 | 101° | 64km/h | 9124m | 2.8m/s | 0°C | 0% | 0hPa | 0V | 00:00:00 | 00:00:00 | 00:00:00 | |
| SQ6EMJ | 2026-08-30 11:43:41 | 51.17233 | 17.18790 | 78° | 66km/h | 9104m | 5.2m/s | 0°C | 0% | 0hPa | 0V | 00:00:00 | 00:00:00 | 00:00:00 | |
| SQ6EMJ | 2026-08-30 11:43:32 | 51.17217 | 17.18547 | 92° | 58km/h | 9040m | 7.2m/s | 0°C | 0% | 0hPa | 0V | 00:00:00 | 00:00:00 | 00:00:00 | |
| SQ6EMJ | 2026-08-30 11:43:26 | 51.17216 | 17.18383 | 92° | 73km/h | 9001m | 6.4m/s | 0°C | 0% | 0hPa | 0V | 00:00:00 | 00:00:00 | 00:00:00 | |
| POL1PZ | 2026-08-30 11:43:23 | 51.17220 | 17.18313 | 99° | 49km/h | 8983m | 5.3m/s | 0°C | 0% | 0hPa | 0V | 00:00:00 | 00:00:00 | 00:00:00 | |
| SQ6EMJ | 2026-08-30 11:43:20 | 51.17223 | 17.18252 | 89° | 57km/h | 8968m | 5.8m/s | 0°C | 0% | 0hPa | 0V | 00:00:00 | 00:00:00 | 00:00:00 | |
| SQ6EMJ | 2026-08-30 11:43:14 | 51.17223 | 17.18098 | 94° | 68km/h | 8926m | 7.8m/s | 0°C | 0% | 0hPa | 0V | 00:00:00 | 00:00:00 | 00:00:00 | |
| KRY50SP | 2026-08-30 11:43:13 | 51.17224 | 17.18071 | 93° | 68km/h | 8919m | 4.3m/s | 0°C | 0% | 0hPa | 0V | 00:00:00 | 00:00:00 | 00:00:00 | |
| SQ6EMJ | 2026-08-30 11:43:08 | 51.17234 | 17.17936 | 92° | 60km/h | 8888m | 4.9m/s | 0°C | 0% | 0hPa | 0V | 00:00:00 | 00:00:00 | 00:00:00 | |
| POL1PZ | 2026-08-30 11:43:03 | 51.17232 | 17.17816 | 100° | 68km/h | 8857m | 2.0m/s | 0°C | 0% | 0hPa | 0V | 00:00:00 | 00:00:00 | 00:00:00 | |
| SQ6EMJ | 2026-08-30 11:43:02 | 51.17235 | 17.17789 | 99° | 69km/h | 8852m | 7.6m/s | 0°C | 0% | 0hPa | 0V | 00:00:00 | 00:00:00 | 00:00:00 | |
| SQ6EMJ | 2026-08-30 11:42:57 | 51.17240 | 17.17672 | 103° | 53km/h | 8825m | 4.9m/s | 0°C | 0% | 0hPa | 0V | 00:00:00 | 00:00:00 | 00:00:00 | |
| KRY50SP | 2026-08-30 11:42:54 | 51.17249 | 17.17600 | 93° | 71km/h | 8808m | 6.3m/s | 0°C | 0% | 0hPa | 0V | 00:00:00 | 00:00:00 | 00:00:00 | |
| SQ6EMJ | 2026-08-30 11:42:52 | 51.17247 | 17.17544 | 81° | 68km/h | 8797m | 5.1m/s | 0°C | 0% | 0hPa | 0V | 00:00:00 | 00:00:00 | 00:00:00 | |
| POL1PZ | 2026-08-30 11:42:43 | 51.17253 | 17.17327 | 85° | 55km/h | 8744m | 8.2m/s | 0°C | 0% | 0hPa | 0V | 00:00:00 | 00:00:00 | 00:00:00 | |
| KRY50SP | 2026-08-30 11:42:40 | 51.17251 | 17.17252 | 91° | 64km/h | 8724m | 7.9m/s | 0°C | 0% | 0hPa | 0V | 00:00:00 | 00:00:00 | 00:00:00 | |
| SQ6EMJ | 2026-08-30 11:42:36 | 51.17258 | 17.17153 | 98° | 62km/h | 8704m | 4.8m/s | 0°C | 0% | 0hPa | 0V | 00:00:00 | 00:00:00 | 00:00:00 | |
| SQ6EMJ | 2026-08-30 11:42:30 | 51.17255 | 17.17019 | 86° | 68km/h | 8676m | 7.5m/s | 0°C | 0% | 0hPa | 0V | 00:00:00 | 00:00:00 | 00:00:00 | |
| POL1PZ | 2026-08-30 11:42:22 | 51.17264 | 17.16818 | 93° | 71km/h | 8628m | 5.3m/s | 0°C | 0% | 0hPa | 0V | 00:00:00 | 00:00:00 | 00:00:00 | |
| SQ6EMJ | 2026-08-30 11:42:21 | 51.17264 | 17.16789 | 89° | 73km/h | 8623m | 5.1m/s | 0°C | 0% | 0hPa | 0V | 00:00:00 | 00:00:00 | 00:00:00 | |
| SQ6EMJ | 2026-08-30 11:42:16 | 51.17259 | 17.16668 | 95° | 58km/h | 8591m | 6.3m/s | 0°C | 0% | 0hPa | 0V | 00:00:00 | 00:00:00 | 00:00:00 | |
| SQ6EMJ | 2026-08-30 11:42:10 | 51.17253 | 17.16520 | 91° | 64km/h | 8552m | 4.1m/s | 0°C | 0% | 0hPa | 0V | 00:00:00 | 00:00:00 | 00:00:00 | |
| SQ6EMJ | 2026-08-30 11:42:03 | 51.17243 | 17.16364 | 79° | 47km/h | 8518m | 4.8m/s | 0°C | 0% | 0hPa | 0V | 00:00:00 | 00:00:00 | 00:00:00 | |
| POL1PZ | 2026-08-30 11:42:02 | 51.17242 | 17.16345 | 91° | 47km/h | 8514m | 4.1m/s | 0°C | 0% | 0hPa | 0V | 00:00:00 | 00:00:00 | 00:00:00 | |
| SQ6EMJ | 2026-08-30 11:41:58 | 51.17245 | 17.16230 | 82° | 64km/h | 8479m | 5.4m/s | 0°C | 0% | 0hPa | 0V | 00:00:00 | 00:00:00 | 00:00:00 | |
| SQ6EMJ | 2026-08-30 11:41:51 | 51.17246 | 17.16080 | 92° | 51km/h | 8445m | 5.2m/s | 0°C | 0% | 0hPa | 0V | 00:00:00 | 00:00:00 | 00:00:00 | |
| SQ6EMJ | 2026-08-30 11:41:46 | 51.17247 | 17.15965 | 97° | 71km/h | 8419m | 4.9m/s | 0°C | 0% | 0hPa | 0V | 00:00:00 | 00:00:00 | 00:00:00 | |
| POL1PZ | 2026-08-30 11:41:42 | 51.17247 | 17.15870 | 100° | 40km/h | 8399m | 7.1m/s | 0°C | 0% | 0hPa | 0V | 00:00:00 | 00:00:00 | 00:00:00 | |
| SQ6EMJ | 2026-08-30 11:41:37 | 51.17256 | 17.15759 | 86° | 73km/h | 8370m | 5.5m/s | 0°C | 0% | 0hPa | 0V | 00:00:00 | 00:00:00 | 00:00:00 | |
| POL1PZ | 2026-08-30 11:41:22 | 51.17235 | 17.15394 | 98° | 51km/h | 8284m | 6.8m/s | 0°C | 0% | 0hPa | 0V | 00:00:00 | 00:00:00 | 00:00:00 | |
| SQ6EMJ | 2026-08-30 11:41:08 | 51.17211 | 17.15049 | 79° | 53km/h | 8213m | 3.5m/s | 0°C | 0% | 0hPa | 0V | 00:00:00 | 00:00:00 | 00:00:00 | |
| POL1PZ | 2026-08-30 11:41:01 | 51.17204 | 17.14902 | 99° | 49km/h | 8171m | 3.4m/s | 0°C | 0% | 0hPa | 0V | 00:00:00 | 00:00:00 | 00:00:00 | |
| SQ6EMJ | 2026-08-30 11:40:49 | 51.17204 | 17.14615 | 93° | 44km/h | 8107m | 3.0m/s | 0°C | 0% | 0hPa | 0V | 00:00:00 | 00:00:00 | 00:00:00 | |
| POL1PZ | 2026-08-30 11:40:41 | 51.17196 | 17.14431 | 85° | 55km/h | 8064m | 5.9m/s | 0°C | 0% | 0hPa | 0V | 00:00:00 | 00:00:00 | 00:00:00 | |
| SQ6EMJ | 2026-08-30 11:40:36 | 51.17186 | 17.14306 | 74° | 68km/h | 8039m | 5.7m/s | 0°C | 0% | 0hPa | 0V | 00:00:00 | 00:00:00 | 00:00:00 | |
| SQ6EMJ | 2026-08-30 11:40:28 | 51.17173 | 17.14120 | 80° | 58km/h | 8003m | 3.7m/s | 0°C | 0% | 0hPa | 0V | 00:00:00 | 00:00:00 | 00:00:00 | |
| POL1PZ | 2026-08-30 11:40:21 | 51.17168 | 17.13965 | 88° | 60km/h | 7963m | 3.8m/s | 0°C | 0% | 0hPa | 0V | 00:00:00 | 00:00:00 | 00:00:00 | |
| SQ6EMJ | 2026-08-30 11:40:13 | 51.17155 | 17.13771 | 75° | 46km/h | 7916m | 8.7m/s | 0°C | 0% | 0hPa | 0V | 00:00:00 | 00:00:00 | 00:00:00 | |
| SQ6EMJ | 2026-08-30 11:40:03 | 51.17134 | 17.13556 | 85° | 40km/h | 7870m | 0.2m/s | 0°C | 0% | 0hPa | 0V | 00:00:00 | 00:00:00 | 00:00:00 | |
| POL1PZ | 2026-08-30 11:40:00 | 51.17135 | 17.13504 | 107° | 44km/h | 7858m | 6.4m/s | 0°C | 0% | 0hPa | 0V | 00:00:00 | 00:00:00 | 00:00:00 | |
| SQ6EMJ | 2026-08-30 11:39:55 | 51.17133 | 17.13395 | 73° | 55km/h | 7830m | 7.1m/s | 0°C | 0% | 0hPa | 0V | 00:00:00 | 00:00:00 | 00:00:00 | |
| POL1PZ | 2026-08-30 11:39:39 | 51.17111 | 17.13058 | 82° | 53km/h | 7754m | 7.5m/s | 0°C | 0% | 0hPa | 0V | 00:00:00 | 00:00:00 | 00:00:00 | |
| KRY50SP | 2026-08-30 11:39:32 | 51.17104 | 17.12919 | 78° | 51km/h | 7717m | 6.4m/s | 0°C | 0% | 0hPa | 0V | 00:00:00 | 00:00:00 | 00:00:00 | |
| SQ6EMJ | 2026-08-30 11:39:28 | 51.17097 | 17.12817 | 89° | 66km/h | 7697m | 3.7m/s | 0°C | 0% | 0hPa | 0V | 00:00:00 | 00:00:00 | 00:00:00 | |
| POL1PZ | 2026-08-30 11:39:18 | 51.17093 | 17.12584 | 84° | 62km/h | 7655m | 4.6m/s | 0°C | 0% | 0hPa | 0V | 00:00:00 | 00:00:00 | 00:00:00 | |
| SQ6EMJ | 2026-08-30 11:39:17 | 51.17092 | 17.12560 | 90° | 58km/h | 7649m | 7.1m/s | 0°C | 0% | 0hPa | 0V | 00:00:00 | 00:00:00 | 00:00:00 | |
| POL1PZ | 2026-08-30 11:38:57 | 51.17072 | 17.12120 | 99° | 51km/h | 7545m | 3.4m/s | 0°C | 0% | 0hPa | 0V | 00:00:00 | 00:00:00 | 00:00:00 | |
| SQ6EMJ | 2026-08-30 11:38:40 | 51.17064 | 17.11752 | 89° | 55km/h | 7466m | 3.9m/s | 0°C | 0% | 0hPa | 0V | 00:00:00 | 00:00:00 | 00:00:00 | |
| POL1PZ | 2026-08-30 11:38:37 | 51.17059 | 17.11681 | 88° | 62km/h | 7450m | 5.2m/s | 0°C | 0% | 0hPa | 0V | 00:00:00 | 00:00:00 | 00:00:00 | |
| SQ6EMJ | 2026-08-30 11:38:26 | 51.17058 | 17.11406 | 88° | 64km/h | 7390m | 2.6m/s | 0°C | 0% | 0hPa | 0V | 00:00:00 | 00:00:00 | 00:00:00 | |
| SQ6EMJ | 2026-08-30 11:38:20 | 51.17048 | 17.11253 | 91° | 71km/h | 7363m | 5.7m/s | 0°C | 0% | 0hPa | 0V | 00:00:00 | 00:00:00 | 00:00:00 | |
| POL1PZ | 2026-08-30 11:38:16 | 51.17047 | 17.11161 | 91° | 49km/h | 7345m | 4.1m/s | 0°C | 0% | 0hPa | 0V | 00:00:00 | 00:00:00 | 00:00:00 | |
| SQ6EMJ | 2026-08-30 11:38:14 | 51.17045 | 17.11118 | 82° | 60km/h | 7337m | 2.5m/s | 0°C | 0% | 0hPa | 0V | 00:00:00 | 00:00:00 | 00:00:00 | |
| SQ6EMJ | 2026-08-30 11:38:08 | 51.17032 | 17.10973 | 86° | 62km/h | 7305m | 3.8m/s | 0°C | 0% | 0hPa | 0V | 00:00:00 | 00:00:00 | 00:00:00 | |
| SQ6EMJ | 2026-08-30 11:38:01 | 51.17027 | 17.10799 | 85° | 58km/h | 7275m | 6.4m/s | 0°C | 0% | 0hPa | 0V | 00:00:00 | 00:00:00 | 00:00:00 | |
| POL1PZ | 2026-08-30 11:37:56 | 51.17018 | 17.10680 | 76° | 53km/h | 7252m | 4.0m/s | 0°C | 0% | 0hPa | 0V | 00:00:00 | 00:00:00 | 00:00:00 | |
| SQ6EMJ | 2026-08-30 11:37:55 | 51.17015 | 17.10658 | 77° | 55km/h | 7248m | 4.0m/s | 0°C | 0% | 0hPa | 0V | 00:00:00 | 00:00:00 | 00:00:00 | |
| SQ6EMJ | 2026-08-30 11:37:49 | 51.17012 | 17.10508 | 96° | 57km/h | 7216m | 6.0m/s | 0°C | 0% | 0hPa | 0V | 00:00:00 | 00:00:00 | 00:00:00 | |
| SQ6EMJ | 2026-08-30 11:37:43 | 51.17004 | 17.10368 | 75° | 55km/h | 7187m | 5.1m/s | 0°C | 0% | 0hPa | 0V | 00:00:00 | 00:00:00 | 00:00:00 | |
| SQ6EMJ | 2026-08-30 11:37:37 | 51.16999 | 17.10214 | 87° | 62km/h | 7160m | 5.3m/s | 0°C | 0% | 0hPa | 0V | 00:00:00 | 00:00:00 | 00:00:00 | |
| POL1PZ | 2026-08-30 11:37:35 | 51.16998 | 17.10164 | 87° | 60km/h | 7148m | 6.7m/s | 0°C | 0% | 0hPa | 0V | 00:00:00 | 00:00:00 | 00:00:00 | |
| SQ6EMJ | 2026-08-30 11:37:30 | 51.16990 | 17.10051 | 69° | 60km/h | 7123m | 4.5m/s | 0°C | 0% | 0hPa | 0V | 00:00:00 | 00:00:00 | 00:00:00 | |
| SQ6EMJ | 2026-08-30 11:37:21 | 51.16982 | 17.09830 | 82° | 55km/h | 7078m | 6.0m/s | 0°C | 0% | 0hPa | 0V | 00:00:00 | 00:00:00 | 00:00:00 | |
| POL1PZ | 2026-08-30 11:37:15 | 51.16982 | 17.09684 | 85° | 57km/h | 7046m | 7.0m/s | 0°C | 0% | 0hPa | 0V | 00:00:00 | 00:00:00 | 00:00:00 | |
| SQ6EMJ | 2026-08-30 11:37:10 | 51.16963 | 17.09567 | 77° | 60km/h | 7022m | 2.3m/s | 0°C | 0% | 0hPa | 0V | 00:00:00 | 00:00:00 | 00:00:00 | |
| SQ6EMJ | 2026-08-30 11:36:57 | 51.16960 | 17.09298 | 80° | 60km/h | 6949m | 5.0m/s | 0°C | 0% | 0hPa | 0V | 00:00:00 | 00:00:00 | 00:00:00 | |
| POL1PZ | 2026-08-30 11:36:54 | 51.16946 | 17.09232 | 71° | 47km/h | 6933m | 5.7m/s | 0°C | 0% | 0hPa | 0V | 00:00:00 | 00:00:00 | 00:00:00 | |
| SQ6EMJ | 2026-08-30 11:36:51 | 51.16944 | 17.09176 | 97° | 51km/h | 6918m | 6.1m/s | 0°C | 0% | 0hPa | 0V | 00:00:00 | 00:00:00 | 00:00:00 | |
| SQ6EMJ | 2026-08-30 11:36:45 | 51.16941 | 17.09057 | 82° | 38km/h | 6893m | 3.0m/s | 0°C | 0% | 0hPa | 0V | 00:00:00 | 00:00:00 | 00:00:00 | |
| POL1PZ | 2026-08-30 11:36:33 | 51.16930 | 17.08819 | 96° | 47km/h | 6831m | 6.6m/s | 0°C | 0% | 0hPa | 0V | 00:00:00 | 00:00:00 | 00:00:00 | |
| POL1PZ | 2026-08-30 11:36:12 | 51.16903 | 17.08384 | 91° | 69km/h | 6723m | 0.8m/s | 0°C | 0% | 0hPa | 0V | 00:00:00 | 00:00:00 | 00:00:00 | |
| POL1PZ | 2026-08-30 11:35:51 | 51.16877 | 17.07929 | 77° | 60km/h | 6611m | 5.2m/s | 0°C | 0% | 0hPa | 0V | 00:00:00 | 00:00:00 | 00:00:00 | |
| POL1PZ | 2026-08-30 11:35:31 | 51.16844 | 17.07528 | 85° | 49km/h | 6503m | 4.1m/s | 0°C | 0% | 0hPa | 0V | 00:00:00 | 00:00:00 | 00:00:00 | |
| POL1PZ | 2026-08-30 11:35:09 | 51.16821 | 17.07035 | 82° | 57km/h | 6390m | 5.2m/s | 0°C | 0% | 0hPa | 0V | 00:00:00 | 00:00:00 | 00:00:00 | |
| POL1PZ | 2026-08-30 11:34:49 | 51.16806 | 17.06632 | 87° | 51km/h | 6278m | 5.7m/s | 0°C | 0% | 0hPa | 0V | 00:00:00 | 00:00:00 | 00:00:00 | |
| SQ6EMJ | 2026-08-30 11:34:40 | 51.16802 | 17.06458 | 77° | 57km/h | 6231m | 4.8m/s | 0°C | 0% | 0hPa | 0V | 00:00:00 | 00:00:00 | 00:00:00 | |
| POL1PZ | 2026-08-30 11:34:29 | 51.16786 | 17.06251 | 76° | 47km/h | 6170m | 5.0m/s | 0°C | 0% | 0hPa | 0V | 00:00:00 | 00:00:00 | 00:00:00 | |
| SQ6EMJ | 2026-08-30 11:34:19 | 51.16779 | 17.06038 | 98° | 64km/h | 6116m | 4.1m/s | 0°C | 0% | 0hPa | 0V | 00:00:00 | 00:00:00 | 00:00:00 | |
| SQ6EMJ | 2026-08-30 11:34:09 | 51.16771 | 17.05831 | 98° | 58km/h | 6066m | 3.7m/s | 0°C | 0% | 0hPa | 0V | 00:00:00 | 00:00:00 | 00:00:00 | |
| POL1PZ | 2026-08-30 11:34:08 | 51.16773 | 17.05809 | 106° | 53km/h | 6060m | 6.8m/s | 0°C | 0% | 0hPa | 0V | 00:00:00 | 00:00:00 | 00:00:00 | |
| SQ6EMJ | 2026-08-30 11:34:02 | 51.16775 | 17.05687 | 83° | 58km/h | 6026m | 5.8m/s | 0°C | 0% | 0hPa | 0V | 00:00:00 | 00:00:00 | 00:00:00 | |
| SQ6EMJ | 2026-08-30 11:33:55 | 51.16770 | 17.05511 | 94° | 44km/h | 5994m | 5.9m/s | 0°C | 0% | 0hPa | 0V | 00:00:00 | 00:00:00 | 00:00:00 | |
| POL1PZ | 2026-08-30 11:33:48 | 51.16779 | 17.05386 | 83° | 42km/h | 5947m | 1.7m/s | 0°C | 0% | 0hPa | 0V | 00:00:00 | 00:00:00 | 00:00:00 | |
| SQ6EMJ | 2026-08-30 11:33:47 | 51.16777 | 17.05367 | 81° | 51km/h | 5943m | 5.1m/s | 0°C | 0% | 0hPa | 0V | 00:00:00 | 00:00:00 | 00:00:00 | |
| SQ6EMJ | 2026-08-30 11:33:38 | 51.16764 | 17.05178 | 88° | 66km/h | 5900m | 3.4m/s | 0°C | 0% | 0hPa | 0V | 00:00:00 | 00:00:00 | 00:00:00 | |
| SQ6EMJ | 2026-08-30 11:33:31 | 51.16756 | 17.05020 | 71° | 60km/h | 5857m | 4.1m/s | 0°C | 0% | 0hPa | 0V | 00:00:00 | 00:00:00 | 00:00:00 | |
| POL1PZ | 2026-08-30 11:33:27 | 51.16744 | 17.04948 | 95° | 47km/h | 5842m | 3.3m/s | 0°C | 0% | 0hPa | 0V | 00:00:00 | 00:00:00 | 00:00:00 | |
| POL1PZ | 2026-08-30 11:33:07 | 51.16730 | 17.04534 | 95° | 44km/h | 5741m | 1.8m/s | 0°C | 0% | 0hPa | 0V | 00:00:00 | 00:00:00 | 00:00:00 | |
| POL1PZ | 2026-08-30 11:32:46 | 51.16717 | 17.04113 | 83° | 53km/h | 5645m | 6.4m/s | 0°C | 0% | 0hPa | 0V | 00:00:00 | 00:00:00 | 00:00:00 | |
| POL1PZ | 2026-08-30 11:32:24 | 51.16674 | 17.03678 | 69° | 49km/h | 5545m | 5.4m/s | 0°C | 0% | 0hPa | 0V | 00:00:00 | 00:00:00 | 00:00:00 | |
| POL1PZ | 2026-08-30 11:32:03 | 51.16612 | 17.03312 | 89° | 46km/h | 5456m | 7.1m/s | 0°C | 0% | 0hPa | 0V | 00:00:00 | 00:00:00 | 00:00:00 | |
| SQ6EMJ | 2026-08-30 11:31:54 | 51.16599 | 17.03144 | 89° | 47km/h | 5409m | 2.7m/s | 0°C | 0% | 0hPa | 0V | 00:00:00 | 00:00:00 | 00:00:00 | |
| POL1PZ | 2026-08-30 11:31:42 | 51.16582 | 17.02934 | 79° | 53km/h | 5355m | 5.8m/s | 0°C | 0% | 0hPa | 0V | 00:00:00 | 00:00:00 | 00:00:00 | |
| POL1PZ | 2026-08-30 11:31:22 | 51.16550 | 17.02547 | 100° | 47km/h | 5254m | 5.7m/s | 0°C | 0% | 0hPa | 0V | 00:00:00 | 00:00:00 | 00:00:00 | |
| POL1PZ | 2026-08-30 11:31:01 | 51.16513 | 17.02184 | 59° | 38km/h | 5143m | 4.6m/s | 0°C | 0% | 0hPa | 0V | 00:00:00 | 00:00:00 | 00:00:00 | |
| POL1PZ | 2026-08-30 11:30:41 | 51.16440 | 17.01824 | 75° | 57km/h | 5028m | 6.4m/s | 0°C | 0% | 0hPa | 0V | 00:00:00 | 00:00:00 | 00:00:00 | |
| POL1PZ | 2026-08-30 11:30:21 | 51.16371 | 17.01481 | 76° | 49km/h | 4922m | 5.0m/s | 0°C | 0% | 0hPa | 0V | 00:00:00 | 00:00:00 | 00:00:00 | |
| POL1PZ | 2026-08-30 11:30:01 | 51.16339 | 17.01157 | 84° | 53km/h | 4817m | 5.8m/s | 0°C | 0% | 0hPa | 0V | 00:00:00 | 00:00:00 | 00:00:00 | |
| POL1PZ | 2026-08-30 11:29:40 | 51.16310 | 17.00780 | 91° | 60km/h | 4697m | 7.2m/s | 0°C | 0% | 0hPa | 0V | 00:00:00 | 00:00:00 | 00:00:00 | |
| POL1PZ | 2026-08-30 11:29:20 | 51.16288 | 17.00391 | 89° | 44km/h | 4571m | 4.8m/s | 0°C | 0% | 0hPa | 0V | 00:00:00 | 00:00:00 | 00:00:00 | |
| POL1PZ | 2026-08-30 11:29:00 | 51.16238 | 17.00042 | 63° | 46km/h | 4458m | 3.9m/s | 0°C | 0% | 0hPa | 0V | 00:00:00 | 00:00:00 | 00:00:00 | |
| POL1PZ | 2026-08-30 11:28:38 | 51.16160 | 16.99637 | 73° | 62km/h | 4311m | 6.4m/s | 0°C | 0% | 0hPa | 0V | 00:00:00 | 00:00:00 | 00:00:00 | |
| POL1PZ | 2026-08-30 11:28:18 | 51.16060 | 16.99233 | 66° | 60km/h | 4176m | 4.0m/s | 0°C | 0% | 0hPa | 0V | 00:00:00 | 00:00:00 | 00:00:00 | |
| POL1PZ | 2026-08-30 11:27:57 | 51.15947 | 16.98829 | 72° | 47km/h | 4032m | 5.8m/s | 0°C | 0% | 0hPa | 0V | 00:00:00 | 00:00:00 | 00:00:00 | |
| POL1PZ | 2026-08-30 11:27:36 | 51.15824 | 16.98406 | 76° | 44km/h | 3879m | 5.6m/s | 0°C | 0% | 0hPa | 0V | 00:00:00 | 00:00:00 | 00:00:00 | |
| POL1PZ | 2026-08-30 11:27:15 | 51.15712 | 16.97992 | 66° | 49km/h | 3726m | 6.8m/s | 0°C | 0% | 0hPa | 0V | 00:00:00 | 00:00:00 | 00:00:00 | |
| POL1PZ | 2026-08-30 11:26:53 | 51.15595 | 16.97592 | 71° | 58km/h | 3579m | 5.2m/s | 0°C | 0% | 0hPa | 0V | 00:00:00 | 00:00:00 | 00:00:00 | |
| POL1PZ | 2026-08-30 11:26:30 | 51.15500 | 16.97149 | 71° | 55km/h | 3436m | 6.3m/s | 0°C | 0% | 0hPa | 0V | 00:00:00 | 00:00:00 | 00:00:00 | |
| POL1PZ | 2026-08-30 11:25:55 | 51.15336 | 16.96458 | 71° | 57km/h | 3221m | 5.9m/s | 0°C | 0% | 0hPa | 0V | 00:00:00 | 00:00:00 | 00:00:00 |